<?xml version="1.0" encoding="UTF-8" standalone="no" ?>
<gpx xmlns="http://www.topografix.com/GPX/1/1" xmlns:xsi="http://www.w3.org/2001/XMLSchema-instance" xsi:schemaLocation="http://www.topografix.com/GPX/1/1 http://www.topografix.com/GPX/1/1/gpx.xsd" version="1.1" creator="VisuGPX - https://www.visugpx.com">
  <metadata>
    <name>Champagnat Cyclisme</name>
  </metadata>
  <trk>
    <name><![CDATA[Champagnat Cyclisme]]></name>
    <trkseg>
      <trkpt lat="46.48279" lon="5.36841">
        <ele>262.79998779297</ele>
        <time>2020-10-28T13:06:26.000Z</time>
      </trkpt>
      <trkpt lat="46.48271" lon="5.36829">
        <ele>261.60000610352</ele>
        <time>2020-10-28T13:06:27.000Z</time>
      </trkpt>
      <trkpt lat="46.48251" lon="5.36807">
        <ele>260.20001220703</ele>
        <time>2020-10-28T13:06:29.000Z</time>
      </trkpt>
      <trkpt lat="46.48241" lon="5.36798">
        <ele>259.60000610352</ele>
        <time>2020-10-28T13:06:30.000Z</time>
      </trkpt>
      <trkpt lat="46.48231" lon="5.36789">
        <ele>258.79998779297</ele>
        <time>2020-10-28T13:06:31.000Z</time>
      </trkpt>
      <trkpt lat="46.4822" lon="5.36781">
        <ele>257.60000610352</ele>
        <time>2020-10-28T13:06:32.000Z</time>
      </trkpt>
      <trkpt lat="46.4821" lon="5.36773">
        <ele>256.20001220703</ele>
        <time>2020-10-28T13:06:33.000Z</time>
      </trkpt>
      <trkpt lat="46.482" lon="5.36764">
        <ele>254.39999389648</ele>
        <time>2020-10-28T13:06:34.000Z</time>
      </trkpt>
      <trkpt lat="46.4819" lon="5.36756">
        <ele>253.19999694824</ele>
        <time>2020-10-28T13:06:35.000Z</time>
      </trkpt>
      <trkpt lat="46.4818" lon="5.36748">
        <ele>252.39999389648</ele>
        <time>2020-10-28T13:06:36.000Z</time>
      </trkpt>
      <trkpt lat="46.4817" lon="5.36741">
        <ele>251.60000610352</ele>
        <time>2020-10-28T13:06:37.000Z</time>
      </trkpt>
      <trkpt lat="46.4815" lon="5.36726">
        <ele>250</ele>
        <time>2020-10-28T13:06:39.000Z</time>
      </trkpt>
      <trkpt lat="46.48123" lon="5.36706">
        <ele>248</ele>
        <time>2020-10-28T13:06:42.000Z</time>
      </trkpt>
      <trkpt lat="46.48116" lon="5.367">
        <ele>247.80000305176</ele>
        <time>2020-10-28T13:06:43.000Z</time>
      </trkpt>
      <trkpt lat="46.48112" lon="5.36692">
        <ele>247.60000610352</ele>
        <time>2020-10-28T13:06:44.000Z</time>
      </trkpt>
      <trkpt lat="46.48114" lon="5.36675">
        <ele>247.39999389648</ele>
        <time>2020-10-28T13:06:46.000Z</time>
      </trkpt>
      <trkpt lat="46.48131" lon="5.36655">
        <ele>247.19999694824</ele>
        <time>2020-10-28T13:06:49.000Z</time>
      </trkpt>
      <trkpt lat="46.48137" lon="5.36649">
        <ele>247</ele>
        <time>2020-10-28T13:06:50.000Z</time>
      </trkpt>
      <trkpt lat="46.48166" lon="5.3662">
        <ele>246.19999694824</ele>
        <time>2020-10-28T13:06:54.000Z</time>
      </trkpt>
      <trkpt lat="46.48174" lon="5.36613">
        <ele>246</ele>
        <time>2020-10-28T13:06:55.000Z</time>
      </trkpt>
      <trkpt lat="46.48182" lon="5.36607">
        <ele>246</ele>
        <time>2020-10-28T13:06:56.000Z</time>
      </trkpt>
      <trkpt lat="46.48198" lon="5.366">
        <ele>245.60000610352</ele>
        <time>2020-10-28T13:06:58.000Z</time>
      </trkpt>
      <trkpt lat="46.4822" lon="5.36582">
        <ele>245.19999694824</ele>
        <time>2020-10-28T13:07:01.000Z</time>
      </trkpt>
      <trkpt lat="46.48233" lon="5.36552">
        <ele>244.80000305176</ele>
        <time>2020-10-28T13:07:04.000Z</time>
      </trkpt>
      <trkpt lat="46.48247" lon="5.36537">
        <ele>244.80000305176</ele>
        <time>2020-10-28T13:07:06.000Z</time>
      </trkpt>
      <trkpt lat="46.48275" lon="5.36507">
        <ele>244.39999389648</ele>
        <time>2020-10-28T13:07:10.000Z</time>
      </trkpt>
      <trkpt lat="46.48303" lon="5.36476">
        <ele>243.80000305176</ele>
        <time>2020-10-28T13:07:14.000Z</time>
      </trkpt>
      <trkpt lat="46.48332" lon="5.36444">
        <ele>242.80000305176</ele>
        <time>2020-10-28T13:07:18.000Z</time>
      </trkpt>
      <trkpt lat="46.4834" lon="5.36436">
        <ele>242.39999389648</ele>
        <time>2020-10-28T13:07:19.000Z</time>
      </trkpt>
      <trkpt lat="46.48363" lon="5.36411">
        <ele>241.39999389648</ele>
        <time>2020-10-28T13:07:22.000Z</time>
      </trkpt>
      <trkpt lat="46.48393" lon="5.36377">
        <ele>240.80000305176</ele>
        <time>2020-10-28T13:07:26.000Z</time>
      </trkpt>
      <trkpt lat="46.48409" lon="5.36363">
        <ele>240.39999389648</ele>
        <time>2020-10-28T13:07:28.000Z</time>
      </trkpt>
      <trkpt lat="46.48418" lon="5.36357">
        <ele>240</ele>
        <time>2020-10-28T13:07:29.000Z</time>
      </trkpt>
      <trkpt lat="46.48435" lon="5.36348">
        <ele>239.60000610352</ele>
        <time>2020-10-28T13:07:31.000Z</time>
      </trkpt>
      <trkpt lat="46.48444" lon="5.36346">
        <ele>239.39999389648</ele>
        <time>2020-10-28T13:07:32.000Z</time>
      </trkpt>
      <trkpt lat="46.48452" lon="5.36344">
        <ele>239</ele>
        <time>2020-10-28T13:07:33.000Z</time>
      </trkpt>
      <trkpt lat="46.48478" lon="5.3634">
        <ele>238.60000610352</ele>
        <time>2020-10-28T13:07:36.000Z</time>
      </trkpt>
      <trkpt lat="46.48529" lon="5.36332">
        <ele>238.19999694824</ele>
        <time>2020-10-28T13:07:42.000Z</time>
      </trkpt>
      <trkpt lat="46.48563" lon="5.36326">
        <ele>238.19999694824</ele>
        <time>2020-10-28T13:07:46.000Z</time>
      </trkpt>
      <trkpt lat="46.48617" lon="5.36317">
        <ele>238</ele>
        <time>2020-10-28T13:07:52.000Z</time>
      </trkpt>
      <trkpt lat="46.48631" lon="5.36299">
        <ele>237.80000305176</ele>
        <time>2020-10-28T13:07:54.000Z</time>
      </trkpt>
      <trkpt lat="46.48639" lon="5.36273">
        <ele>237.19999694824</ele>
        <time>2020-10-28T13:07:56.000Z</time>
      </trkpt>
      <trkpt lat="46.48641" lon="5.36258">
        <ele>236.80000305176</ele>
        <time>2020-10-28T13:07:57.000Z</time>
      </trkpt>
      <trkpt lat="46.48644" lon="5.3623">
        <ele>235.80000305176</ele>
        <time>2020-10-28T13:07:59.000Z</time>
      </trkpt>
      <trkpt lat="46.48647" lon="5.36201">
        <ele>234.60000610352</ele>
        <time>2020-10-28T13:08:01.000Z</time>
      </trkpt>
      <trkpt lat="46.48649" lon="5.36173">
        <ele>233</ele>
        <time>2020-10-28T13:08:03.000Z</time>
      </trkpt>
      <trkpt lat="46.48651" lon="5.36146">
        <ele>231</ele>
        <time>2020-10-28T13:08:05.000Z</time>
      </trkpt>
      <trkpt lat="46.48658" lon="5.36107">
        <ele>230</ele>
        <time>2020-10-28T13:08:08.000Z</time>
      </trkpt>
      <trkpt lat="46.48661" lon="5.36094">
        <ele>229.80000305176</ele>
        <time>2020-10-28T13:08:09.000Z</time>
      </trkpt>
      <trkpt lat="46.48674" lon="5.36036">
        <ele>229.60000610352</ele>
        <time>2020-10-28T13:08:14.000Z</time>
      </trkpt>
      <trkpt lat="46.48683" lon="5.35978">
        <ele>230</ele>
        <time>2020-10-28T13:08:20.000Z</time>
      </trkpt>
      <trkpt lat="46.48686" lon="5.35948">
        <ele>231.39999389648</ele>
        <time>2020-10-28T13:08:23.000Z</time>
      </trkpt>
      <trkpt lat="46.4869" lon="5.35926">
        <ele>232.60000610352</ele>
        <time>2020-10-28T13:08:25.000Z</time>
      </trkpt>
      <trkpt lat="46.48692" lon="5.35916">
        <ele>232.80000305176</ele>
        <time>2020-10-28T13:08:26.000Z</time>
      </trkpt>
      <trkpt lat="46.48695" lon="5.35905">
        <ele>232.80000305176</ele>
        <time>2020-10-28T13:08:27.000Z</time>
      </trkpt>
      <trkpt lat="46.48706" lon="5.35875">
        <ele>232.80000305176</ele>
        <time>2020-10-28T13:08:30.000Z</time>
      </trkpt>
      <trkpt lat="46.48736" lon="5.35804">
        <ele>232</ele>
        <time>2020-10-28T13:08:37.000Z</time>
      </trkpt>
      <trkpt lat="46.48741" lon="5.35794">
        <ele>231.80000305176</ele>
        <time>2020-10-28T13:08:38.000Z</time>
      </trkpt>
      <trkpt lat="46.48745" lon="5.35784">
        <ele>231.39999389648</ele>
        <time>2020-10-28T13:08:39.000Z</time>
      </trkpt>
      <trkpt lat="46.48762" lon="5.35744">
        <ele>230.39999389648</ele>
        <time>2020-10-28T13:08:43.000Z</time>
      </trkpt>
      <trkpt lat="46.48775" lon="5.35715">
        <ele>230</ele>
        <time>2020-10-28T13:08:46.000Z</time>
      </trkpt>
      <trkpt lat="46.48807" lon="5.35642">
        <ele>229.80000305176</ele>
        <time>2020-10-28T13:08:54.000Z</time>
      </trkpt>
      <trkpt lat="46.48838" lon="5.35572">
        <ele>230.19999694824</ele>
        <time>2020-10-28T13:09:02.000Z</time>
      </trkpt>
      <trkpt lat="46.48842" lon="5.35563">
        <ele>230</ele>
        <time>2020-10-28T13:09:03.000Z</time>
      </trkpt>
      <trkpt lat="46.48872" lon="5.35496">
        <ele>230.39999389648</ele>
        <time>2020-10-28T13:09:11.000Z</time>
      </trkpt>
      <trkpt lat="46.48896" lon="5.35444">
        <ele>230.19999694824</ele>
        <time>2020-10-28T13:09:17.000Z</time>
      </trkpt>
      <trkpt lat="46.48924" lon="5.3538">
        <ele>229.80000305176</ele>
        <time>2020-10-28T13:09:24.000Z</time>
      </trkpt>
      <trkpt lat="46.48948" lon="5.35323">
        <ele>229.39999389648</ele>
        <time>2020-10-28T13:09:30.000Z</time>
      </trkpt>
      <trkpt lat="46.4896" lon="5.35295">
        <ele>229.19999694824</ele>
        <time>2020-10-28T13:09:33.000Z</time>
      </trkpt>
      <trkpt lat="46.48975" lon="5.3526">
        <ele>229</ele>
        <time>2020-10-28T13:09:37.000Z</time>
      </trkpt>
      <trkpt lat="46.49005" lon="5.35195">
        <ele>229.39999389648</ele>
        <time>2020-10-28T13:09:45.000Z</time>
      </trkpt>
      <trkpt lat="46.49008" lon="5.35187">
        <ele>229.60000610352</ele>
        <time>2020-10-28T13:09:46.000Z</time>
      </trkpt>
      <trkpt lat="46.49028" lon="5.35141">
        <ele>230.39999389648</ele>
        <time>2020-10-28T13:09:52.000Z</time>
      </trkpt>
      <trkpt lat="46.49032" lon="5.35133">
        <ele>230.60000610352</ele>
        <time>2020-10-28T13:09:53.000Z</time>
      </trkpt>
      <trkpt lat="46.4904" lon="5.35118">
        <ele>231.19999694824</ele>
        <time>2020-10-28T13:09:55.000Z</time>
      </trkpt>
      <trkpt lat="46.49045" lon="5.35111">
        <ele>231.39999389648</ele>
        <time>2020-10-28T13:09:56.000Z</time>
      </trkpt>
      <trkpt lat="46.49051" lon="5.35106">
        <ele>231.39999389648</ele>
        <time>2020-10-28T13:09:57.000Z</time>
      </trkpt>
      <trkpt lat="46.49098" lon="5.35063">
        <ele>231.60000610352</ele>
        <time>2020-10-28T13:10:05.000Z</time>
      </trkpt>
      <trkpt lat="46.49104" lon="5.35058">
        <ele>231.60000610352</ele>
        <time>2020-10-28T13:10:06.000Z</time>
      </trkpt>
      <trkpt lat="46.49143" lon="5.35024">
        <ele>230.60000610352</ele>
        <time>2020-10-28T13:10:12.000Z</time>
      </trkpt>
      <trkpt lat="46.49149" lon="5.35019">
        <ele>230.39999389648</ele>
        <time>2020-10-28T13:10:13.000Z</time>
      </trkpt>
      <trkpt lat="46.4918" lon="5.34992">
        <ele>229.39999389648</ele>
        <time>2020-10-28T13:10:18.000Z</time>
      </trkpt>
      <trkpt lat="46.49192" lon="5.34982">
        <ele>229.19999694824</ele>
        <time>2020-10-28T13:10:20.000Z</time>
      </trkpt>
      <trkpt lat="46.49208" lon="5.34961">
        <ele>229</ele>
        <time>2020-10-28T13:10:23.000Z</time>
      </trkpt>
      <trkpt lat="46.49242" lon="5.34908">
        <ele>229.39999389648</ele>
        <time>2020-10-28T13:10:30.000Z</time>
      </trkpt>
      <trkpt lat="46.49276" lon="5.34857">
        <ele>229.39999389648</ele>
        <time>2020-10-28T13:10:37.000Z</time>
      </trkpt>
      <trkpt lat="46.49282" lon="5.34852">
        <ele>229.39999389648</ele>
        <time>2020-10-28T13:10:38.000Z</time>
      </trkpt>
      <trkpt lat="46.49294" lon="5.34842">
        <ele>229.19999694824</ele>
        <time>2020-10-28T13:10:40.000Z</time>
      </trkpt>
      <trkpt lat="46.49307" lon="5.34835">
        <ele>229</ele>
        <time>2020-10-28T13:10:42.000Z</time>
      </trkpt>
      <trkpt lat="46.49345" lon="5.34826">
        <ele>228.80000305176</ele>
        <time>2020-10-28T13:10:48.000Z</time>
      </trkpt>
      <trkpt lat="46.49388" lon="5.34815">
        <ele>228.80000305176</ele>
        <time>2020-10-28T13:10:55.000Z</time>
      </trkpt>
      <trkpt lat="46.49407" lon="5.34805">
        <ele>229</ele>
        <time>2020-10-28T13:10:58.000Z</time>
      </trkpt>
      <trkpt lat="46.49425" lon="5.34793">
        <ele>229</ele>
        <time>2020-10-28T13:11:01.000Z</time>
      </trkpt>
      <trkpt lat="46.49467" lon="5.34758">
        <ele>229</ele>
        <time>2020-10-28T13:11:07.000Z</time>
      </trkpt>
      <trkpt lat="46.49498" lon="5.34724">
        <ele>228</ele>
        <time>2020-10-28T13:11:11.000Z</time>
      </trkpt>
      <trkpt lat="46.49506" lon="5.34716">
        <ele>227.60000610352</ele>
        <time>2020-10-28T13:11:12.000Z</time>
      </trkpt>
      <trkpt lat="46.49523" lon="5.34699">
        <ele>226.80000305176</ele>
        <time>2020-10-28T13:11:14.000Z</time>
      </trkpt>
      <trkpt lat="46.4954" lon="5.34681">
        <ele>225.19999694824</ele>
        <time>2020-10-28T13:11:16.000Z</time>
      </trkpt>
      <trkpt lat="46.49555" lon="5.34662">
        <ele>224.19999694824</ele>
        <time>2020-10-28T13:11:18.000Z</time>
      </trkpt>
      <trkpt lat="46.49563" lon="5.34652">
        <ele>222.39999389648</ele>
        <time>2020-10-28T13:11:19.000Z</time>
      </trkpt>
      <trkpt lat="46.49579" lon="5.34631">
        <ele>221.19999694824</ele>
        <time>2020-10-28T13:11:21.000Z</time>
      </trkpt>
      <trkpt lat="46.49594" lon="5.3461">
        <ele>220</ele>
        <time>2020-10-28T13:11:23.000Z</time>
      </trkpt>
      <trkpt lat="46.49607" lon="5.34589">
        <ele>218.80000305176</ele>
        <time>2020-10-28T13:11:25.000Z</time>
      </trkpt>
      <trkpt lat="46.4962" lon="5.34569">
        <ele>217.80000305176</ele>
        <time>2020-10-28T13:11:27.000Z</time>
      </trkpt>
      <trkpt lat="46.49636" lon="5.34546">
        <ele>217.19999694824</ele>
        <time>2020-10-28T13:11:30.000Z</time>
      </trkpt>
      <trkpt lat="46.49652" lon="5.34528">
        <ele>217</ele>
        <time>2020-10-28T13:11:34.000Z</time>
      </trkpt>
      <trkpt lat="46.49656" lon="5.34523">
        <ele>217</ele>
        <time>2020-10-28T13:11:35.000Z</time>
      </trkpt>
      <trkpt lat="46.49663" lon="5.34503">
        <ele>217.39999389648</ele>
        <time>2020-10-28T13:11:38.000Z</time>
      </trkpt>
      <trkpt lat="46.49684" lon="5.34432">
        <ele>219</ele>
        <time>2020-10-28T13:11:47.000Z</time>
      </trkpt>
      <trkpt lat="46.49698" lon="5.34379">
        <ele>220</ele>
        <time>2020-10-28T13:11:54.000Z</time>
      </trkpt>
      <trkpt lat="46.49708" lon="5.34345">
        <ele>221.19999694824</ele>
        <time>2020-10-28T13:11:59.000Z</time>
      </trkpt>
      <trkpt lat="46.49714" lon="5.34326">
        <ele>221.80000305176</ele>
        <time>2020-10-28T13:12:02.000Z</time>
      </trkpt>
      <trkpt lat="46.49719" lon="5.34313">
        <ele>222.19999694824</ele>
        <time>2020-10-28T13:12:04.000Z</time>
      </trkpt>
      <trkpt lat="46.49733" lon="5.34284">
        <ele>222.80000305176</ele>
        <time>2020-10-28T13:12:08.000Z</time>
      </trkpt>
      <trkpt lat="46.49766" lon="5.34228">
        <ele>222.80000305176</ele>
        <time>2020-10-28T13:12:16.000Z</time>
      </trkpt>
      <trkpt lat="46.49802" lon="5.34168">
        <ele>222.80000305176</ele>
        <time>2020-10-28T13:12:25.000Z</time>
      </trkpt>
      <trkpt lat="46.49822" lon="5.34134">
        <ele>223.39999389648</ele>
        <time>2020-10-28T13:12:30.000Z</time>
      </trkpt>
      <trkpt lat="46.49839" lon="5.34107">
        <ele>223.39999389648</ele>
        <time>2020-10-28T13:12:34.000Z</time>
      </trkpt>
      <trkpt lat="46.49882" lon="5.34045">
        <ele>223</ele>
        <time>2020-10-28T13:12:43.000Z</time>
      </trkpt>
      <trkpt lat="46.49922" lon="5.34002">
        <ele>222.80000305176</ele>
        <time>2020-10-28T13:12:51.000Z</time>
      </trkpt>
      <trkpt lat="46.49953" lon="5.3397">
        <ele>223.80000305176</ele>
        <time>2020-10-28T13:12:58.000Z</time>
      </trkpt>
      <trkpt lat="46.49967" lon="5.33956">
        <ele>224.39999389648</ele>
        <time>2020-10-28T13:13:01.000Z</time>
      </trkpt>
      <trkpt lat="46.4998" lon="5.33943">
        <ele>225</ele>
        <time>2020-10-28T13:13:04.000Z</time>
      </trkpt>
      <trkpt lat="46.49994" lon="5.33928">
        <ele>225.39999389648</ele>
        <time>2020-10-28T13:13:07.000Z</time>
      </trkpt>
      <trkpt lat="46.49999" lon="5.33921">
        <ele>225.60000610352</ele>
        <time>2020-10-28T13:13:08.000Z</time>
      </trkpt>
      <trkpt lat="46.50009" lon="5.3391">
        <ele>225.80000305176</ele>
        <time>2020-10-28T13:13:10.000Z</time>
      </trkpt>
      <trkpt lat="46.50052" lon="5.33864">
        <ele>225.80000305176</ele>
        <time>2020-10-28T13:13:18.000Z</time>
      </trkpt>
      <trkpt lat="46.50095" lon="5.33816">
        <ele>225</ele>
        <time>2020-10-28T13:13:25.000Z</time>
      </trkpt>
      <trkpt lat="46.50108" lon="5.33802">
        <ele>224.39999389648</ele>
        <time>2020-10-28T13:13:27.000Z</time>
      </trkpt>
      <trkpt lat="46.50133" lon="5.33775">
        <ele>223.19999694824</ele>
        <time>2020-10-28T13:13:31.000Z</time>
      </trkpt>
      <trkpt lat="46.50145" lon="5.33761">
        <ele>222.80000305176</ele>
        <time>2020-10-28T13:13:33.000Z</time>
      </trkpt>
      <trkpt lat="46.5019" lon="5.33712">
        <ele>222.60000610352</ele>
        <time>2020-10-28T13:13:41.000Z</time>
      </trkpt>
      <trkpt lat="46.50234" lon="5.33665">
        <ele>223.60000610352</ele>
        <time>2020-10-28T13:13:49.000Z</time>
      </trkpt>
      <trkpt lat="46.50279" lon="5.33615">
        <ele>223.19999694824</ele>
        <time>2020-10-28T13:13:57.000Z</time>
      </trkpt>
      <trkpt lat="46.50291" lon="5.33603">
        <ele>222.80000305176</ele>
        <time>2020-10-28T13:13:59.000Z</time>
      </trkpt>
      <trkpt lat="46.50338" lon="5.33552">
        <ele>222.39999389648</ele>
        <time>2020-10-28T13:14:07.000Z</time>
      </trkpt>
      <trkpt lat="46.50344" lon="5.33546">
        <ele>222.39999389648</ele>
        <time>2020-10-28T13:14:08.000Z</time>
      </trkpt>
      <trkpt lat="46.50373" lon="5.33514">
        <ele>221.80000305176</ele>
        <time>2020-10-28T13:14:13.000Z</time>
      </trkpt>
      <trkpt lat="46.50408" lon="5.33476">
        <ele>221.19999694824</ele>
        <time>2020-10-28T13:14:19.000Z</time>
      </trkpt>
      <trkpt lat="46.50443" lon="5.33434">
        <ele>220.60000610352</ele>
        <time>2020-10-28T13:14:25.000Z</time>
      </trkpt>
      <trkpt lat="46.50453" lon="5.33418">
        <ele>220.19999694824</ele>
        <time>2020-10-28T13:14:27.000Z</time>
      </trkpt>
      <trkpt lat="46.50461" lon="5.334">
        <ele>219.80000305176</ele>
        <time>2020-10-28T13:14:29.000Z</time>
      </trkpt>
      <trkpt lat="46.50464" lon="5.3339">
        <ele>219.60000610352</ele>
        <time>2020-10-28T13:14:30.000Z</time>
      </trkpt>
      <trkpt lat="46.50467" lon="5.33379">
        <ele>219.39999389648</ele>
        <time>2020-10-28T13:14:31.000Z</time>
      </trkpt>
      <trkpt lat="46.50472" lon="5.33329">
        <ele>218.80000305176</ele>
        <time>2020-10-28T13:14:36.000Z</time>
      </trkpt>
      <trkpt lat="46.50474" lon="5.33261">
        <ele>218.60000610352</ele>
        <time>2020-10-28T13:14:43.000Z</time>
      </trkpt>
      <trkpt lat="46.50474" lon="5.33205">
        <ele>219.19999694824</ele>
        <time>2020-10-28T13:14:49.000Z</time>
      </trkpt>
      <trkpt lat="46.50474" lon="5.33133">
        <ele>219.39999389648</ele>
        <time>2020-10-28T13:14:56.000Z</time>
      </trkpt>
      <trkpt lat="46.50476" lon="5.33048">
        <ele>218.19999694824</ele>
        <time>2020-10-28T13:15:03.000Z</time>
      </trkpt>
      <trkpt lat="46.50476" lon="5.33007">
        <ele>217</ele>
        <time>2020-10-28T13:15:06.000Z</time>
      </trkpt>
      <trkpt lat="46.50476" lon="5.32979">
        <ele>216</ele>
        <time>2020-10-28T13:15:08.000Z</time>
      </trkpt>
      <trkpt lat="46.50477" lon="5.32951">
        <ele>214.60000610352</ele>
        <time>2020-10-28T13:15:10.000Z</time>
      </trkpt>
      <trkpt lat="46.50478" lon="5.32907">
        <ele>213</ele>
        <time>2020-10-28T13:15:13.000Z</time>
      </trkpt>
      <trkpt lat="46.50478" lon="5.32877">
        <ele>211.60000610352</ele>
        <time>2020-10-28T13:15:15.000Z</time>
      </trkpt>
      <trkpt lat="46.50479" lon="5.32816">
        <ele>210.39999389648</ele>
        <time>2020-10-28T13:15:19.000Z</time>
      </trkpt>
      <trkpt lat="46.5048" lon="5.32772">
        <ele>209</ele>
        <time>2020-10-28T13:15:22.000Z</time>
      </trkpt>
      <trkpt lat="46.50481" lon="5.32745">
        <ele>207.19999694824</ele>
        <time>2020-10-28T13:15:24.000Z</time>
      </trkpt>
      <trkpt lat="46.50481" lon="5.32719">
        <ele>206.19999694824</ele>
        <time>2020-10-28T13:15:26.000Z</time>
      </trkpt>
      <trkpt lat="46.50483" lon="5.32628">
        <ele>205.39999389648</ele>
        <time>2020-10-28T13:15:33.000Z</time>
      </trkpt>
      <trkpt lat="46.50482" lon="5.32604">
        <ele>205.19999694824</ele>
        <time>2020-10-28T13:15:35.000Z</time>
      </trkpt>
      <trkpt lat="46.50482" lon="5.32591">
        <ele>205.19999694824</ele>
        <time>2020-10-28T13:15:36.000Z</time>
      </trkpt>
      <trkpt lat="46.50477" lon="5.32506">
        <ele>204.39999389648</ele>
        <time>2020-10-28T13:15:43.000Z</time>
      </trkpt>
      <trkpt lat="46.50476" lon="5.32482">
        <ele>204.39999389648</ele>
        <time>2020-10-28T13:15:45.000Z</time>
      </trkpt>
      <trkpt lat="46.50474" lon="5.32459">
        <ele>204.19999694824</ele>
        <time>2020-10-28T13:15:47.000Z</time>
      </trkpt>
      <trkpt lat="46.50467" lon="5.32412">
        <ele>203.80000305176</ele>
        <time>2020-10-28T13:15:51.000Z</time>
      </trkpt>
      <trkpt lat="46.5045" lon="5.32333">
        <ele>203.39999389648</ele>
        <time>2020-10-28T13:15:58.000Z</time>
      </trkpt>
      <trkpt lat="46.50445" lon="5.32311">
        <ele>203.39999389648</ele>
        <time>2020-10-28T13:16:00.000Z</time>
      </trkpt>
      <trkpt lat="46.50437" lon="5.32248">
        <ele>203.39999389648</ele>
        <time>2020-10-28T13:16:06.000Z</time>
      </trkpt>
      <trkpt lat="46.50437" lon="5.32159">
        <ele>203.19999694824</ele>
        <time>2020-10-28T13:16:14.000Z</time>
      </trkpt>
      <trkpt lat="46.50437" lon="5.32148">
        <ele>203</ele>
        <time>2020-10-28T13:16:15.000Z</time>
      </trkpt>
      <trkpt lat="46.50439" lon="5.32066">
        <ele>202.60000610352</ele>
        <time>2020-10-28T13:16:22.000Z</time>
      </trkpt>
      <trkpt lat="46.5044" lon="5.32019">
        <ele>202</ele>
        <time>2020-10-28T13:16:26.000Z</time>
      </trkpt>
      <trkpt lat="46.50442" lon="5.31962">
        <ele>200.80000305176</ele>
        <time>2020-10-28T13:16:31.000Z</time>
      </trkpt>
      <trkpt lat="46.50443" lon="5.31917">
        <ele>200.39999389648</ele>
        <time>2020-10-28T13:16:35.000Z</time>
      </trkpt>
      <trkpt lat="46.5044" lon="5.31852">
        <ele>200.19999694824</ele>
        <time>2020-10-28T13:16:41.000Z</time>
      </trkpt>
      <trkpt lat="46.50422" lon="5.31773">
        <ele>199.80000305176</ele>
        <time>2020-10-28T13:16:49.000Z</time>
      </trkpt>
      <trkpt lat="46.50417" lon="5.31755">
        <ele>199.80000305176</ele>
        <time>2020-10-28T13:16:51.000Z</time>
      </trkpt>
      <trkpt lat="46.50403" lon="5.31719">
        <ele>199.80000305176</ele>
        <time>2020-10-28T13:16:55.000Z</time>
      </trkpt>
      <trkpt lat="46.50371" lon="5.31664">
        <ele>199.60000610352</ele>
        <time>2020-10-28T13:17:02.000Z</time>
      </trkpt>
      <trkpt lat="46.50339" lon="5.31636">
        <ele>199.19999694824</ele>
        <time>2020-10-28T13:17:07.000Z</time>
      </trkpt>
      <trkpt lat="46.50313" lon="5.31616">
        <ele>198.80000305176</ele>
        <time>2020-10-28T13:17:11.000Z</time>
      </trkpt>
      <trkpt lat="46.5027" lon="5.3158">
        <ele>198.60000610352</ele>
        <time>2020-10-28T13:17:18.000Z</time>
      </trkpt>
      <trkpt lat="46.50234" lon="5.31536">
        <ele>198.80000305176</ele>
        <time>2020-10-28T13:17:25.000Z</time>
      </trkpt>
      <trkpt lat="46.50215" lon="5.31496">
        <ele>199</ele>
        <time>2020-10-28T13:17:31.000Z</time>
      </trkpt>
      <trkpt lat="46.50204" lon="5.31465">
        <ele>200.19999694824</ele>
        <time>2020-10-28T13:17:36.000Z</time>
      </trkpt>
      <trkpt lat="46.50198" lon="5.31447">
        <ele>201</ele>
        <time>2020-10-28T13:17:39.000Z</time>
      </trkpt>
      <trkpt lat="46.50196" lon="5.31441">
        <ele>201.39999389648</ele>
        <time>2020-10-28T13:17:40.000Z</time>
      </trkpt>
      <trkpt lat="46.5019" lon="5.31423">
        <ele>202.60000610352</ele>
        <time>2020-10-28T13:17:43.000Z</time>
      </trkpt>
      <trkpt lat="46.50182" lon="5.314">
        <ele>204</ele>
        <time>2020-10-28T13:17:47.000Z</time>
      </trkpt>
      <trkpt lat="46.50178" lon="5.31389">
        <ele>204.60000610352</ele>
        <time>2020-10-28T13:17:49.000Z</time>
      </trkpt>
      <trkpt lat="46.50172" lon="5.31372">
        <ele>205</ele>
        <time>2020-10-28T13:17:52.000Z</time>
      </trkpt>
      <trkpt lat="46.50163" lon="5.31343">
        <ele>206.19999694824</ele>
        <time>2020-10-28T13:17:57.000Z</time>
      </trkpt>
      <trkpt lat="46.50158" lon="5.31331">
        <ele>206.60000610352</ele>
        <time>2020-10-28T13:17:59.000Z</time>
      </trkpt>
      <trkpt lat="46.50141" lon="5.31279">
        <ele>207.39999389648</ele>
        <time>2020-10-28T13:18:07.000Z</time>
      </trkpt>
      <trkpt lat="46.50138" lon="5.31272">
        <ele>207.60000610352</ele>
        <time>2020-10-28T13:18:08.000Z</time>
      </trkpt>
      <trkpt lat="46.5012" lon="5.31217">
        <ele>207.60000610352</ele>
        <time>2020-10-28T13:18:15.000Z</time>
      </trkpt>
      <trkpt lat="46.50097" lon="5.31152">
        <ele>207.19999694824</ele>
        <time>2020-10-28T13:18:22.000Z</time>
      </trkpt>
      <trkpt lat="46.50088" lon="5.31122">
        <ele>206.19999694824</ele>
        <time>2020-10-28T13:18:25.000Z</time>
      </trkpt>
      <trkpt lat="46.50072" lon="5.31077">
        <ele>205.39999389648</ele>
        <time>2020-10-28T13:18:30.000Z</time>
      </trkpt>
      <trkpt lat="46.50057" lon="5.31034">
        <ele>205.39999389648</ele>
        <time>2020-10-28T13:18:36.000Z</time>
      </trkpt>
      <trkpt lat="46.50045" lon="5.30996">
        <ele>206.80000305176</ele>
        <time>2020-10-28T13:18:43.000Z</time>
      </trkpt>
      <trkpt lat="46.50042" lon="5.30987">
        <ele>207.60000610352</ele>
        <time>2020-10-28T13:18:45.000Z</time>
      </trkpt>
      <trkpt lat="46.50037" lon="5.30972">
        <ele>208.60000610352</ele>
        <time>2020-10-28T13:18:48.000Z</time>
      </trkpt>
      <trkpt lat="46.50032" lon="5.30957">
        <ele>209.80000305176</ele>
        <time>2020-10-28T13:18:51.000Z</time>
      </trkpt>
      <trkpt lat="46.5003" lon="5.30952">
        <ele>210</ele>
        <time>2020-10-28T13:18:52.000Z</time>
      </trkpt>
      <trkpt lat="46.50023" lon="5.30931">
        <ele>211</ele>
        <time>2020-10-28T13:18:56.000Z</time>
      </trkpt>
      <trkpt lat="46.50016" lon="5.30911">
        <ele>212.19999694824</ele>
        <time>2020-10-28T13:19:00.000Z</time>
      </trkpt>
      <trkpt lat="46.50012" lon="5.30901">
        <ele>212.80000305176</ele>
        <time>2020-10-28T13:19:02.000Z</time>
      </trkpt>
      <trkpt lat="46.50006" lon="5.30887">
        <ele>213.19999694824</ele>
        <time>2020-10-28T13:19:05.000Z</time>
      </trkpt>
      <trkpt lat="46.49997" lon="5.30863">
        <ele>214.39999389648</ele>
        <time>2020-10-28T13:19:10.000Z</time>
      </trkpt>
      <trkpt lat="46.49995" lon="5.30858">
        <ele>214.39999389648</ele>
        <time>2020-10-28T13:19:11.000Z</time>
      </trkpt>
      <trkpt lat="46.49986" lon="5.30832">
        <ele>215.80000305176</ele>
        <time>2020-10-28T13:19:16.000Z</time>
      </trkpt>
      <trkpt lat="46.49981" lon="5.30816">
        <ele>216.80000305176</ele>
        <time>2020-10-28T13:19:19.000Z</time>
      </trkpt>
      <trkpt lat="46.49979" lon="5.3081">
        <ele>217</ele>
        <time>2020-10-28T13:19:20.000Z</time>
      </trkpt>
      <trkpt lat="46.49968" lon="5.30763">
        <ele>217.80000305176</ele>
        <time>2020-10-28T13:19:28.000Z</time>
      </trkpt>
      <trkpt lat="46.49962" lon="5.30727">
        <ele>218.19999694824</ele>
        <time>2020-10-28T13:19:34.000Z</time>
      </trkpt>
      <trkpt lat="46.49958" lon="5.30707">
        <ele>218.19999694824</ele>
        <time>2020-10-28T13:19:37.000Z</time>
      </trkpt>
      <trkpt lat="46.49949" lon="5.30659">
        <ele>218.19999694824</ele>
        <time>2020-10-28T13:19:43.000Z</time>
      </trkpt>
      <trkpt lat="46.4994" lon="5.306">
        <ele>217</ele>
        <time>2020-10-28T13:19:49.000Z</time>
      </trkpt>
      <trkpt lat="46.49939" lon="5.30589">
        <ele>216.60000610352</ele>
        <time>2020-10-28T13:19:50.000Z</time>
      </trkpt>
      <trkpt lat="46.49939" lon="5.30545">
        <ele>215.80000305176</ele>
        <time>2020-10-28T13:19:54.000Z</time>
      </trkpt>
      <trkpt lat="46.49941" lon="5.30534">
        <ele>215.39999389648</ele>
        <time>2020-10-28T13:19:55.000Z</time>
      </trkpt>
      <trkpt lat="46.49946" lon="5.30512">
        <ele>214.60000610352</ele>
        <time>2020-10-28T13:19:57.000Z</time>
      </trkpt>
      <trkpt lat="46.4995" lon="5.30501">
        <ele>214</ele>
        <time>2020-10-28T13:19:58.000Z</time>
      </trkpt>
      <trkpt lat="46.49954" lon="5.3049">
        <ele>213.60000610352</ele>
        <time>2020-10-28T13:19:59.000Z</time>
      </trkpt>
      <trkpt lat="46.49958" lon="5.3048">
        <ele>213.39999389648</ele>
        <time>2020-10-28T13:20:00.000Z</time>
      </trkpt>
      <trkpt lat="46.49976" lon="5.30452">
        <ele>212.60000610352</ele>
        <time>2020-10-28T13:20:03.000Z</time>
      </trkpt>
      <trkpt lat="46.4999" lon="5.30437">
        <ele>212.39999389648</ele>
        <time>2020-10-28T13:20:05.000Z</time>
      </trkpt>
      <trkpt lat="46.49998" lon="5.30431">
        <ele>212</ele>
        <time>2020-10-28T13:20:06.000Z</time>
      </trkpt>
      <trkpt lat="46.50014" lon="5.30418">
        <ele>211.39999389648</ele>
        <time>2020-10-28T13:20:08.000Z</time>
      </trkpt>
      <trkpt lat="46.50029" lon="5.30406">
        <ele>210.80000305176</ele>
        <time>2020-10-28T13:20:10.000Z</time>
      </trkpt>
      <trkpt lat="46.50057" lon="5.30376">
        <ele>210</ele>
        <time>2020-10-28T13:20:14.000Z</time>
      </trkpt>
      <trkpt lat="46.50063" lon="5.30368">
        <ele>209.60000610352</ele>
        <time>2020-10-28T13:20:15.000Z</time>
      </trkpt>
      <trkpt lat="46.50077" lon="5.3034">
        <ele>209.39999389648</ele>
        <time>2020-10-28T13:20:18.000Z</time>
      </trkpt>
      <trkpt lat="46.50088" lon="5.30303">
        <ele>209.19999694824</ele>
        <time>2020-10-28T13:20:22.000Z</time>
      </trkpt>
      <trkpt lat="46.50093" lon="5.30248">
        <ele>210.19999694824</ele>
        <time>2020-10-28T13:20:28.000Z</time>
      </trkpt>
      <trkpt lat="46.50093" lon="5.3023">
        <ele>211.19999694824</ele>
        <time>2020-10-28T13:20:30.000Z</time>
      </trkpt>
      <trkpt lat="46.50093" lon="5.30193">
        <ele>212</ele>
        <time>2020-10-28T13:20:34.000Z</time>
      </trkpt>
      <trkpt lat="46.50094" lon="5.3013">
        <ele>212.19999694824</ele>
        <time>2020-10-28T13:20:41.000Z</time>
      </trkpt>
      <trkpt lat="46.50094" lon="5.30122">
        <ele>212.39999389648</ele>
        <time>2020-10-28T13:20:42.000Z</time>
      </trkpt>
      <trkpt lat="46.50094" lon="5.30063">
        <ele>212.80000305176</ele>
        <time>2020-10-28T13:20:49.000Z</time>
      </trkpt>
      <trkpt lat="46.50091" lon="5.29994">
        <ele>213.19999694824</ele>
        <time>2020-10-28T13:20:57.000Z</time>
      </trkpt>
      <trkpt lat="46.50078" lon="5.29942">
        <ele>213.19999694824</ele>
        <time>2020-10-28T13:21:03.000Z</time>
      </trkpt>
      <trkpt lat="46.50053" lon="5.29897">
        <ele>212.80000305176</ele>
        <time>2020-10-28T13:21:09.000Z</time>
      </trkpt>
      <trkpt lat="46.50022" lon="5.29862">
        <ele>212</ele>
        <time>2020-10-28T13:21:15.000Z</time>
      </trkpt>
      <trkpt lat="46.50016" lon="5.29857">
        <ele>211.80000305176</ele>
        <time>2020-10-28T13:21:16.000Z</time>
      </trkpt>
      <trkpt lat="46.49996" lon="5.29849">
        <ele>211.19999694824</ele>
        <time>2020-10-28T13:21:19.000Z</time>
      </trkpt>
      <trkpt lat="46.4999" lon="5.29849">
        <ele>211.19999694824</ele>
        <time>2020-10-28T13:21:20.000Z</time>
      </trkpt>
      <trkpt lat="46.49983" lon="5.29848">
        <ele>211.19999694824</ele>
        <time>2020-10-28T13:21:21.000Z</time>
      </trkpt>
      <trkpt lat="46.49952" lon="5.29843">
        <ele>211</ele>
        <time>2020-10-28T13:21:26.000Z</time>
      </trkpt>
      <trkpt lat="46.49914" lon="5.2983">
        <ele>212</ele>
        <time>2020-10-28T13:21:33.000Z</time>
      </trkpt>
      <trkpt lat="46.49909" lon="5.29828">
        <ele>212.19999694824</ele>
        <time>2020-10-28T13:21:34.000Z</time>
      </trkpt>
      <trkpt lat="46.49884" lon="5.29818">
        <ele>213.39999389648</ele>
        <time>2020-10-28T13:21:39.000Z</time>
      </trkpt>
      <trkpt lat="46.49875" lon="5.29814">
        <ele>214</ele>
        <time>2020-10-28T13:21:41.000Z</time>
      </trkpt>
      <trkpt lat="46.49865" lon="5.2981">
        <ele>214.80000305176</ele>
        <time>2020-10-28T13:21:43.000Z</time>
      </trkpt>
      <trkpt lat="46.4982" lon="5.29794">
        <ele>215.60000610352</ele>
        <time>2020-10-28T13:21:52.000Z</time>
      </trkpt>
      <trkpt lat="46.49794" lon="5.29785">
        <ele>215.60000610352</ele>
        <time>2020-10-28T13:21:57.000Z</time>
      </trkpt>
      <trkpt lat="46.49772" lon="5.29782">
        <ele>215.60000610352</ele>
        <time>2020-10-28T13:22:01.000Z</time>
      </trkpt>
      <trkpt lat="46.49761" lon="5.29781">
        <ele>215.60000610352</ele>
        <time>2020-10-28T13:22:03.000Z</time>
      </trkpt>
      <trkpt lat="46.4975" lon="5.29775">
        <ele>215.60000610352</ele>
        <time>2020-10-28T13:22:05.000Z</time>
      </trkpt>
      <trkpt lat="46.4974" lon="5.29753">
        <ele>215.39999389648</ele>
        <time>2020-10-28T13:22:08.000Z</time>
      </trkpt>
      <trkpt lat="46.49717" lon="5.29709">
        <ele>215</ele>
        <time>2020-10-28T13:22:14.000Z</time>
      </trkpt>
      <trkpt lat="46.49683" lon="5.29646">
        <ele>214.60000610352</ele>
        <time>2020-10-28T13:22:23.000Z</time>
      </trkpt>
      <trkpt lat="46.49679" lon="5.29639">
        <ele>214.60000610352</ele>
        <time>2020-10-28T13:22:24.000Z</time>
      </trkpt>
      <trkpt lat="46.49643" lon="5.29576">
        <ele>215.80000305176</ele>
        <time>2020-10-28T13:22:34.000Z</time>
      </trkpt>
      <trkpt lat="46.49639" lon="5.29569">
        <ele>215.80000305176</ele>
        <time>2020-10-28T13:22:35.000Z</time>
      </trkpt>
      <trkpt lat="46.4961" lon="5.29516">
        <ele>216.19999694824</ele>
        <time>2020-10-28T13:22:43.000Z</time>
      </trkpt>
      <trkpt lat="46.49576" lon="5.29455">
        <ele>216</ele>
        <time>2020-10-28T13:22:52.000Z</time>
      </trkpt>
      <trkpt lat="46.49569" lon="5.29442">
        <ele>216</ele>
        <time>2020-10-28T13:22:54.000Z</time>
      </trkpt>
      <trkpt lat="46.49537" lon="5.29383">
        <ele>215.80000305176</ele>
        <time>2020-10-28T13:23:02.000Z</time>
      </trkpt>
      <trkpt lat="46.49525" lon="5.29355">
        <ele>215.39999389648</ele>
        <time>2020-10-28T13:23:05.000Z</time>
      </trkpt>
      <trkpt lat="46.49522" lon="5.29344">
        <ele>215.39999389648</ele>
        <time>2020-10-28T13:23:06.000Z</time>
      </trkpt>
      <trkpt lat="46.49516" lon="5.29308">
        <ele>214.60000610352</ele>
        <time>2020-10-28T13:23:09.000Z</time>
      </trkpt>
      <trkpt lat="46.49516" lon="5.29295">
        <ele>214</ele>
        <time>2020-10-28T13:23:10.000Z</time>
      </trkpt>
      <trkpt lat="46.49516" lon="5.29282">
        <ele>213.39999389648</ele>
        <time>2020-10-28T13:23:11.000Z</time>
      </trkpt>
      <trkpt lat="46.49519" lon="5.29255">
        <ele>212.39999389648</ele>
        <time>2020-10-28T13:23:13.000Z</time>
      </trkpt>
      <trkpt lat="46.49522" lon="5.29241">
        <ele>211.80000305176</ele>
        <time>2020-10-28T13:23:14.000Z</time>
      </trkpt>
      <trkpt lat="46.49526" lon="5.29228">
        <ele>211.19999694824</ele>
        <time>2020-10-28T13:23:15.000Z</time>
      </trkpt>
      <trkpt lat="46.49537" lon="5.29203">
        <ele>210.19999694824</ele>
        <time>2020-10-28T13:23:17.000Z</time>
      </trkpt>
      <trkpt lat="46.49543" lon="5.29191">
        <ele>209.60000610352</ele>
        <time>2020-10-28T13:23:18.000Z</time>
      </trkpt>
      <trkpt lat="46.49549" lon="5.29178">
        <ele>208.60000610352</ele>
        <time>2020-10-28T13:23:19.000Z</time>
      </trkpt>
      <trkpt lat="46.4956" lon="5.29153">
        <ele>206.80000305176</ele>
        <time>2020-10-28T13:23:21.000Z</time>
      </trkpt>
      <trkpt lat="46.49565" lon="5.29139">
        <ele>206</ele>
        <time>2020-10-28T13:23:22.000Z</time>
      </trkpt>
      <trkpt lat="46.49568" lon="5.29124">
        <ele>205.39999389648</ele>
        <time>2020-10-28T13:23:23.000Z</time>
      </trkpt>
      <trkpt lat="46.49574" lon="5.29094">
        <ele>203.60000610352</ele>
        <time>2020-10-28T13:23:25.000Z</time>
      </trkpt>
      <trkpt lat="46.4958" lon="5.29063">
        <ele>202.39999389648</ele>
        <time>2020-10-28T13:23:27.000Z</time>
      </trkpt>
      <trkpt lat="46.49589" lon="5.29015">
        <ele>201.60000610352</ele>
        <time>2020-10-28T13:23:30.000Z</time>
      </trkpt>
      <trkpt lat="46.49592" lon="5.28999">
        <ele>201</ele>
        <time>2020-10-28T13:23:31.000Z</time>
      </trkpt>
      <trkpt lat="46.49597" lon="5.28968">
        <ele>199.39999389648</ele>
        <time>2020-10-28T13:23:33.000Z</time>
      </trkpt>
      <trkpt lat="46.49603" lon="5.28936">
        <ele>197.60000610352</ele>
        <time>2020-10-28T13:23:35.000Z</time>
      </trkpt>
      <trkpt lat="46.49609" lon="5.28905">
        <ele>196</ele>
        <time>2020-10-28T13:23:37.000Z</time>
      </trkpt>
      <trkpt lat="46.49614" lon="5.28876">
        <ele>194.80000305176</ele>
        <time>2020-10-28T13:23:39.000Z</time>
      </trkpt>
      <trkpt lat="46.49619" lon="5.28847">
        <ele>193.60000610352</ele>
        <time>2020-10-28T13:23:41.000Z</time>
      </trkpt>
      <trkpt lat="46.49624" lon="5.2882">
        <ele>192.60000610352</ele>
        <time>2020-10-28T13:23:43.000Z</time>
      </trkpt>
      <trkpt lat="46.49631" lon="5.2878">
        <ele>192</ele>
        <time>2020-10-28T13:23:46.000Z</time>
      </trkpt>
      <trkpt lat="46.4965" lon="5.28696">
        <ele>192</ele>
        <time>2020-10-28T13:23:53.000Z</time>
      </trkpt>
      <trkpt lat="46.49653" lon="5.28685">
        <ele>192.19999694824</ele>
        <time>2020-10-28T13:23:54.000Z</time>
      </trkpt>
      <trkpt lat="46.49672" lon="5.28608">
        <ele>192.60000610352</ele>
        <time>2020-10-28T13:24:01.000Z</time>
      </trkpt>
      <trkpt lat="46.49674" lon="5.28597">
        <ele>192.80000305176</ele>
        <time>2020-10-28T13:24:02.000Z</time>
      </trkpt>
      <trkpt lat="46.49678" lon="5.28578">
        <ele>193.60000610352</ele>
        <time>2020-10-28T13:24:04.000Z</time>
      </trkpt>
      <trkpt lat="46.49688" lon="5.2853">
        <ele>194.80000305176</ele>
        <time>2020-10-28T13:24:09.000Z</time>
      </trkpt>
      <trkpt lat="46.497" lon="5.28459">
        <ele>195</ele>
        <time>2020-10-28T13:24:16.000Z</time>
      </trkpt>
      <trkpt lat="46.49713" lon="5.28374">
        <ele>194.60000610352</ele>
        <time>2020-10-28T13:24:24.000Z</time>
      </trkpt>
      <trkpt lat="46.49735" lon="5.28297">
        <ele>193.80000305176</ele>
        <time>2020-10-28T13:24:32.000Z</time>
      </trkpt>
      <trkpt lat="46.49737" lon="5.28287">
        <ele>193.80000305176</ele>
        <time>2020-10-28T13:24:33.000Z</time>
      </trkpt>
      <trkpt lat="46.49753" lon="5.2821">
        <ele>194.60000610352</ele>
        <time>2020-10-28T13:24:41.000Z</time>
      </trkpt>
      <trkpt lat="46.49754" lon="5.282">
        <ele>194.60000610352</ele>
        <time>2020-10-28T13:24:42.000Z</time>
      </trkpt>
      <trkpt lat="46.49766" lon="5.28121">
        <ele>194.60000610352</ele>
        <time>2020-10-28T13:24:50.000Z</time>
      </trkpt>
      <trkpt lat="46.49771" lon="5.28082">
        <ele>194.60000610352</ele>
        <time>2020-10-28T13:24:54.000Z</time>
      </trkpt>
      <trkpt lat="46.49772" lon="5.28016">
        <ele>194.60000610352</ele>
        <time>2020-10-28T13:25:01.000Z</time>
      </trkpt>
      <trkpt lat="46.49771" lon="5.27953">
        <ele>194.80000305176</ele>
        <time>2020-10-28T13:25:08.000Z</time>
      </trkpt>
      <trkpt lat="46.4977" lon="5.27928">
        <ele>195.19999694824</ele>
        <time>2020-10-28T13:25:11.000Z</time>
      </trkpt>
      <trkpt lat="46.49769" lon="5.27888">
        <ele>195.60000610352</ele>
        <time>2020-10-28T13:25:16.000Z</time>
      </trkpt>
      <trkpt lat="46.49768" lon="5.27848">
        <ele>196.19999694824</ele>
        <time>2020-10-28T13:25:21.000Z</time>
      </trkpt>
      <trkpt lat="46.49763" lon="5.27816">
        <ele>196.80000305176</ele>
        <time>2020-10-28T13:25:25.000Z</time>
      </trkpt>
      <trkpt lat="46.49753" lon="5.27762">
        <ele>197.19999694824</ele>
        <time>2020-10-28T13:25:32.000Z</time>
      </trkpt>
      <trkpt lat="46.49749" lon="5.2774">
        <ele>197.60000610352</ele>
        <time>2020-10-28T13:25:35.000Z</time>
      </trkpt>
      <trkpt lat="46.49742" lon="5.27697">
        <ele>198.39999389648</ele>
        <time>2020-10-28T13:25:41.000Z</time>
      </trkpt>
      <trkpt lat="46.49738" lon="5.27677">
        <ele>198.80000305176</ele>
        <time>2020-10-28T13:25:44.000Z</time>
      </trkpt>
      <trkpt lat="46.49734" lon="5.27652">
        <ele>199.39999389648</ele>
        <time>2020-10-28T13:25:48.000Z</time>
      </trkpt>
      <trkpt lat="46.4973" lon="5.27622">
        <ele>200.60000610352</ele>
        <time>2020-10-28T13:25:53.000Z</time>
      </trkpt>
      <trkpt lat="46.4973" lon="5.27616">
        <ele>200.80000305176</ele>
        <time>2020-10-28T13:25:54.000Z</time>
      </trkpt>
      <trkpt lat="46.49729" lon="5.27592">
        <ele>201.60000610352</ele>
        <time>2020-10-28T13:25:58.000Z</time>
      </trkpt>
      <trkpt lat="46.49729" lon="5.27563">
        <ele>202.60000610352</ele>
        <time>2020-10-28T13:26:03.000Z</time>
      </trkpt>
      <trkpt lat="46.49729" lon="5.27558">
        <ele>203</ele>
        <time>2020-10-28T13:26:04.000Z</time>
      </trkpt>
      <trkpt lat="46.4973" lon="5.2753">
        <ele>204</ele>
        <time>2020-10-28T13:26:09.000Z</time>
      </trkpt>
      <trkpt lat="46.49731" lon="5.27503">
        <ele>205</ele>
        <time>2020-10-28T13:26:14.000Z</time>
      </trkpt>
      <trkpt lat="46.49731" lon="5.27477">
        <ele>206.19999694824</ele>
        <time>2020-10-28T13:26:19.000Z</time>
      </trkpt>
      <trkpt lat="46.49729" lon="5.27456">
        <ele>206.80000305176</ele>
        <time>2020-10-28T13:26:23.000Z</time>
      </trkpt>
      <trkpt lat="46.49728" lon="5.27446">
        <ele>207.19999694824</ele>
        <time>2020-10-28T13:26:25.000Z</time>
      </trkpt>
      <trkpt lat="46.49722" lon="5.27417">
        <ele>208.19999694824</ele>
        <time>2020-10-28T13:26:31.000Z</time>
      </trkpt>
      <trkpt lat="46.49721" lon="5.27412">
        <ele>208.60000610352</ele>
        <time>2020-10-28T13:26:32.000Z</time>
      </trkpt>
      <trkpt lat="46.49715" lon="5.27393">
        <ele>209.19999694824</ele>
        <time>2020-10-28T13:26:36.000Z</time>
      </trkpt>
      <trkpt lat="46.49705" lon="5.27372">
        <ele>210.19999694824</ele>
        <time>2020-10-28T13:26:41.000Z</time>
      </trkpt>
      <trkpt lat="46.49701" lon="5.27363">
        <ele>210.39999389648</ele>
        <time>2020-10-28T13:26:43.000Z</time>
      </trkpt>
      <trkpt lat="46.49691" lon="5.27343">
        <ele>211.39999389648</ele>
        <time>2020-10-28T13:26:48.000Z</time>
      </trkpt>
      <trkpt lat="46.49686" lon="5.27335">
        <ele>211.60000610352</ele>
        <time>2020-10-28T13:26:50.000Z</time>
      </trkpt>
      <trkpt lat="46.49672" lon="5.27306">
        <ele>212.60000610352</ele>
        <time>2020-10-28T13:26:57.000Z</time>
      </trkpt>
      <trkpt lat="46.49666" lon="5.27294">
        <ele>213.19999694824</ele>
        <time>2020-10-28T13:27:00.000Z</time>
      </trkpt>
      <trkpt lat="46.49664" lon="5.27289">
        <ele>213.39999389648</ele>
        <time>2020-10-28T13:27:01.000Z</time>
      </trkpt>
      <trkpt lat="46.49651" lon="5.27252">
        <ele>214.39999389648</ele>
        <time>2020-10-28T13:27:09.000Z</time>
      </trkpt>
      <trkpt lat="46.4965" lon="5.27247">
        <ele>214.60000610352</ele>
        <time>2020-10-28T13:27:10.000Z</time>
      </trkpt>
      <trkpt lat="46.49645" lon="5.27223">
        <ele>215.60000610352</ele>
        <time>2020-10-28T13:27:15.000Z</time>
      </trkpt>
      <trkpt lat="46.49643" lon="5.27207">
        <ele>216.39999389648</ele>
        <time>2020-10-28T13:27:18.000Z</time>
      </trkpt>
      <trkpt lat="46.49643" lon="5.27197">
        <ele>216.80000305176</ele>
        <time>2020-10-28T13:27:20.000Z</time>
      </trkpt>
      <trkpt lat="46.49642" lon="5.2717">
        <ele>217.80000305176</ele>
        <time>2020-10-28T13:27:25.000Z</time>
      </trkpt>
      <trkpt lat="46.49643" lon="5.27159">
        <ele>218.19999694824</ele>
        <time>2020-10-28T13:27:27.000Z</time>
      </trkpt>
      <trkpt lat="46.49646" lon="5.27143">
        <ele>219</ele>
        <time>2020-10-28T13:27:30.000Z</time>
      </trkpt>
      <trkpt lat="46.49654" lon="5.27108">
        <ele>219.60000610352</ele>
        <time>2020-10-28T13:27:36.000Z</time>
      </trkpt>
      <trkpt lat="46.49665" lon="5.2707">
        <ele>220</ele>
        <time>2020-10-28T13:27:42.000Z</time>
      </trkpt>
      <trkpt lat="46.4967" lon="5.27057">
        <ele>220</ele>
        <time>2020-10-28T13:27:44.000Z</time>
      </trkpt>
      <trkpt lat="46.49683" lon="5.27043">
        <ele>220.19999694824</ele>
        <time>2020-10-28T13:27:47.000Z</time>
      </trkpt>
      <trkpt lat="46.49694" lon="5.27041">
        <ele>220.19999694824</ele>
        <time>2020-10-28T13:27:49.000Z</time>
      </trkpt>
      <trkpt lat="46.49705" lon="5.27039">
        <ele>220</ele>
        <time>2020-10-28T13:27:51.000Z</time>
      </trkpt>
      <trkpt lat="46.49729" lon="5.27033">
        <ele>219.80000305176</ele>
        <time>2020-10-28T13:27:56.000Z</time>
      </trkpt>
      <trkpt lat="46.49765" lon="5.27026">
        <ele>219.60000610352</ele>
        <time>2020-10-28T13:28:02.000Z</time>
      </trkpt>
      <trkpt lat="46.49776" lon="5.27022">
        <ele>219.60000610352</ele>
        <time>2020-10-28T13:28:04.000Z</time>
      </trkpt>
      <trkpt lat="46.49786" lon="5.27013">
        <ele>219.60000610352</ele>
        <time>2020-10-28T13:28:06.000Z</time>
      </trkpt>
      <trkpt lat="46.49797" lon="5.26989">
        <ele>219.39999389648</ele>
        <time>2020-10-28T13:28:09.000Z</time>
      </trkpt>
      <trkpt lat="46.498" lon="5.26981">
        <ele>219.39999389648</ele>
        <time>2020-10-28T13:28:10.000Z</time>
      </trkpt>
      <trkpt lat="46.49802" lon="5.26972">
        <ele>219.39999389648</ele>
        <time>2020-10-28T13:28:11.000Z</time>
      </trkpt>
      <trkpt lat="46.49806" lon="5.26953">
        <ele>219.19999694824</ele>
        <time>2020-10-28T13:28:13.000Z</time>
      </trkpt>
      <trkpt lat="46.49808" lon="5.26936">
        <ele>219</ele>
        <time>2020-10-28T13:28:15.000Z</time>
      </trkpt>
      <trkpt lat="46.49811" lon="5.26927">
        <ele>218.60000610352</ele>
        <time>2020-10-28T13:28:16.000Z</time>
      </trkpt>
      <trkpt lat="46.49818" lon="5.2691">
        <ele>218.19999694824</ele>
        <time>2020-10-28T13:28:18.000Z</time>
      </trkpt>
      <trkpt lat="46.49828" lon="5.26898">
        <ele>218.19999694824</ele>
        <time>2020-10-28T13:28:20.000Z</time>
      </trkpt>
      <trkpt lat="46.49839" lon="5.26886">
        <ele>218.19999694824</ele>
        <time>2020-10-28T13:28:22.000Z</time>
      </trkpt>
      <trkpt lat="46.49883" lon="5.26847">
        <ele>218.39999389648</ele>
        <time>2020-10-28T13:28:30.000Z</time>
      </trkpt>
      <trkpt lat="46.49889" lon="5.26844">
        <ele>218.39999389648</ele>
        <time>2020-10-28T13:28:31.000Z</time>
      </trkpt>
      <trkpt lat="46.49914" lon="5.26832">
        <ele>218.39999389648</ele>
        <time>2020-10-28T13:28:35.000Z</time>
      </trkpt>
      <trkpt lat="46.49926" lon="5.26823">
        <ele>218.39999389648</ele>
        <time>2020-10-28T13:28:37.000Z</time>
      </trkpt>
      <trkpt lat="46.49942" lon="5.26805">
        <ele>218.39999389648</ele>
        <time>2020-10-28T13:28:40.000Z</time>
      </trkpt>
      <trkpt lat="46.49975" lon="5.26766">
        <ele>218.39999389648</ele>
        <time>2020-10-28T13:28:45.000Z</time>
      </trkpt>
      <trkpt lat="46.5" lon="5.26744">
        <ele>217.60000610352</ele>
        <time>2020-10-28T13:28:48.000Z</time>
      </trkpt>
      <trkpt lat="46.50009" lon="5.26739">
        <ele>216.80000305176</ele>
        <time>2020-10-28T13:28:49.000Z</time>
      </trkpt>
      <trkpt lat="46.50019" lon="5.26734">
        <ele>216.19999694824</ele>
        <time>2020-10-28T13:28:50.000Z</time>
      </trkpt>
      <trkpt lat="46.50038" lon="5.26729">
        <ele>215</ele>
        <time>2020-10-28T13:28:52.000Z</time>
      </trkpt>
      <trkpt lat="46.50048" lon="5.26727">
        <ele>214.19999694824</ele>
        <time>2020-10-28T13:28:53.000Z</time>
      </trkpt>
      <trkpt lat="46.50057" lon="5.26724">
        <ele>213.19999694824</ele>
        <time>2020-10-28T13:28:54.000Z</time>
      </trkpt>
      <trkpt lat="46.50074" lon="5.26713">
        <ele>211.60000610352</ele>
        <time>2020-10-28T13:28:56.000Z</time>
      </trkpt>
      <trkpt lat="46.5011" lon="5.26683">
        <ele>211</ele>
        <time>2020-10-28T13:29:01.000Z</time>
      </trkpt>
      <trkpt lat="46.50117" lon="5.26679">
        <ele>211</ele>
        <time>2020-10-28T13:29:02.000Z</time>
      </trkpt>
      <trkpt lat="46.50152" lon="5.26671">
        <ele>211.39999389648</ele>
        <time>2020-10-28T13:29:07.000Z</time>
      </trkpt>
      <trkpt lat="46.50186" lon="5.26664">
        <ele>212.80000305176</ele>
        <time>2020-10-28T13:29:12.000Z</time>
      </trkpt>
      <trkpt lat="46.50199" lon="5.26661">
        <ele>213.60000610352</ele>
        <time>2020-10-28T13:29:14.000Z</time>
      </trkpt>
      <trkpt lat="46.50205" lon="5.26659">
        <ele>214</ele>
        <time>2020-10-28T13:29:15.000Z</time>
      </trkpt>
      <trkpt lat="46.50219" lon="5.26654">
        <ele>214.80000305176</ele>
        <time>2020-10-28T13:29:17.000Z</time>
      </trkpt>
      <trkpt lat="46.50231" lon="5.26643">
        <ele>215</ele>
        <time>2020-10-28T13:29:19.000Z</time>
      </trkpt>
      <trkpt lat="46.50244" lon="5.26617">
        <ele>215</ele>
        <time>2020-10-28T13:29:22.000Z</time>
      </trkpt>
      <trkpt lat="46.50248" lon="5.26608">
        <ele>215</ele>
        <time>2020-10-28T13:29:23.000Z</time>
      </trkpt>
      <trkpt lat="46.50276" lon="5.26546">
        <ele>215.39999389648</ele>
        <time>2020-10-28T13:29:31.000Z</time>
      </trkpt>
      <trkpt lat="46.5028" lon="5.26539">
        <ele>215.60000610352</ele>
        <time>2020-10-28T13:29:32.000Z</time>
      </trkpt>
      <trkpt lat="46.50294" lon="5.26527">
        <ele>216</ele>
        <time>2020-10-28T13:29:35.000Z</time>
      </trkpt>
      <trkpt lat="46.50299" lon="5.26525">
        <ele>216.19999694824</ele>
        <time>2020-10-28T13:29:36.000Z</time>
      </trkpt>
      <trkpt lat="46.5031" lon="5.26526">
        <ele>216.60000610352</ele>
        <time>2020-10-28T13:29:38.000Z</time>
      </trkpt>
      <trkpt lat="46.50317" lon="5.26527">
        <ele>216.80000305176</ele>
        <time>2020-10-28T13:29:39.000Z</time>
      </trkpt>
      <trkpt lat="46.50355" lon="5.26532">
        <ele>217</ele>
        <time>2020-10-28T13:29:45.000Z</time>
      </trkpt>
      <trkpt lat="46.50381" lon="5.26523">
        <ele>217.19999694824</ele>
        <time>2020-10-28T13:29:49.000Z</time>
      </trkpt>
      <trkpt lat="46.50397" lon="5.26506">
        <ele>217.19999694824</ele>
        <time>2020-10-28T13:29:52.000Z</time>
      </trkpt>
      <trkpt lat="46.50407" lon="5.26494">
        <ele>217.19999694824</ele>
        <time>2020-10-28T13:29:54.000Z</time>
      </trkpt>
      <trkpt lat="46.50424" lon="5.26476">
        <ele>217.19999694824</ele>
        <time>2020-10-28T13:29:57.000Z</time>
      </trkpt>
      <trkpt lat="46.50438" lon="5.26471">
        <ele>217</ele>
        <time>2020-10-28T13:29:59.000Z</time>
      </trkpt>
      <trkpt lat="46.5046" lon="5.26479">
        <ele>217</ele>
        <time>2020-10-28T13:30:02.000Z</time>
      </trkpt>
      <trkpt lat="46.50474" lon="5.26484">
        <ele>217</ele>
        <time>2020-10-28T13:30:04.000Z</time>
      </trkpt>
      <trkpt lat="46.50491" lon="5.26484">
        <ele>217</ele>
        <time>2020-10-28T13:30:06.000Z</time>
      </trkpt>
      <trkpt lat="46.50533" lon="5.2648">
        <ele>216.60000610352</ele>
        <time>2020-10-28T13:30:11.000Z</time>
      </trkpt>
      <trkpt lat="46.50542" lon="5.26482">
        <ele>216.19999694824</ele>
        <time>2020-10-28T13:30:12.000Z</time>
      </trkpt>
      <trkpt lat="46.50566" lon="5.26493">
        <ele>215</ele>
        <time>2020-10-28T13:30:15.000Z</time>
      </trkpt>
      <trkpt lat="46.50574" lon="5.26497">
        <ele>214.80000305176</ele>
        <time>2020-10-28T13:30:16.000Z</time>
      </trkpt>
      <trkpt lat="46.50619" lon="5.26516">
        <ele>214.19999694824</ele>
        <time>2020-10-28T13:30:22.000Z</time>
      </trkpt>
      <trkpt lat="46.5064" lon="5.26527">
        <ele>214.19999694824</ele>
        <time>2020-10-28T13:30:25.000Z</time>
      </trkpt>
      <trkpt lat="46.50652" lon="5.26538">
        <ele>214.39999389648</ele>
        <time>2020-10-28T13:30:27.000Z</time>
      </trkpt>
      <trkpt lat="46.50667" lon="5.2656">
        <ele>215.19999694824</ele>
        <time>2020-10-28T13:30:30.000Z</time>
      </trkpt>
      <trkpt lat="46.50676" lon="5.26577">
        <ele>215.60000610352</ele>
        <time>2020-10-28T13:30:32.000Z</time>
      </trkpt>
      <trkpt lat="46.50702" lon="5.26618">
        <ele>215.60000610352</ele>
        <time>2020-10-28T13:30:37.000Z</time>
      </trkpt>
      <trkpt lat="46.50708" lon="5.26625">
        <ele>215.60000610352</ele>
        <time>2020-10-28T13:30:38.000Z</time>
      </trkpt>
      <trkpt lat="46.50736" lon="5.26652">
        <ele>215</ele>
        <time>2020-10-28T13:30:42.000Z</time>
      </trkpt>
      <trkpt lat="46.50745" lon="5.26671">
        <ele>214.60000610352</ele>
        <time>2020-10-28T13:30:44.000Z</time>
      </trkpt>
      <trkpt lat="46.50751" lon="5.26704">
        <ele>213.80000305176</ele>
        <time>2020-10-28T13:30:47.000Z</time>
      </trkpt>
      <trkpt lat="46.50751" lon="5.26716">
        <ele>213.80000305176</ele>
        <time>2020-10-28T13:30:48.000Z</time>
      </trkpt>
      <trkpt lat="46.50753" lon="5.26727">
        <ele>213.80000305176</ele>
        <time>2020-10-28T13:30:49.000Z</time>
      </trkpt>
      <trkpt lat="46.5076" lon="5.26747">
        <ele>213.39999389648</ele>
        <time>2020-10-28T13:30:51.000Z</time>
      </trkpt>
      <trkpt lat="46.50778" lon="5.2677">
        <ele>213.19999694824</ele>
        <time>2020-10-28T13:30:54.000Z</time>
      </trkpt>
      <trkpt lat="46.50785" lon="5.26776">
        <ele>213.19999694824</ele>
        <time>2020-10-28T13:30:55.000Z</time>
      </trkpt>
      <trkpt lat="46.508" lon="5.26788">
        <ele>213</ele>
        <time>2020-10-28T13:30:57.000Z</time>
      </trkpt>
      <trkpt lat="46.50822" lon="5.26809">
        <ele>212.80000305176</ele>
        <time>2020-10-28T13:31:00.000Z</time>
      </trkpt>
      <trkpt lat="46.50849" lon="5.26839">
        <ele>212</ele>
        <time>2020-10-28T13:31:04.000Z</time>
      </trkpt>
      <trkpt lat="46.50856" lon="5.26843">
        <ele>212</ele>
        <time>2020-10-28T13:31:05.000Z</time>
      </trkpt>
      <trkpt lat="46.50881" lon="5.26846">
        <ele>211.39999389648</ele>
        <time>2020-10-28T13:31:08.000Z</time>
      </trkpt>
      <trkpt lat="46.5089" lon="5.26845">
        <ele>211.39999389648</ele>
        <time>2020-10-28T13:31:09.000Z</time>
      </trkpt>
      <trkpt lat="46.50942" lon="5.26842">
        <ele>211</ele>
        <time>2020-10-28T13:31:15.000Z</time>
      </trkpt>
      <trkpt lat="46.5095" lon="5.26843">
        <ele>210.80000305176</ele>
        <time>2020-10-28T13:31:16.000Z</time>
      </trkpt>
      <trkpt lat="46.50977" lon="5.26848">
        <ele>209.80000305176</ele>
        <time>2020-10-28T13:31:19.000Z</time>
      </trkpt>
      <trkpt lat="46.51003" lon="5.26856">
        <ele>209.39999389648</ele>
        <time>2020-10-28T13:31:22.000Z</time>
      </trkpt>
      <trkpt lat="46.51011" lon="5.26857">
        <ele>209.39999389648</ele>
        <time>2020-10-28T13:31:23.000Z</time>
      </trkpt>
      <trkpt lat="46.51037" lon="5.26855">
        <ele>209</ele>
        <time>2020-10-28T13:31:26.000Z</time>
      </trkpt>
      <trkpt lat="46.51046" lon="5.26854">
        <ele>208.60000610352</ele>
        <time>2020-10-28T13:31:27.000Z</time>
      </trkpt>
      <trkpt lat="46.51087" lon="5.26845">
        <ele>207.80000305176</ele>
        <time>2020-10-28T13:31:32.000Z</time>
      </trkpt>
      <trkpt lat="46.51133" lon="5.26847">
        <ele>207.80000305176</ele>
        <time>2020-10-28T13:31:38.000Z</time>
      </trkpt>
      <trkpt lat="46.51188" lon="5.26855">
        <ele>208.80000305176</ele>
        <time>2020-10-28T13:31:46.000Z</time>
      </trkpt>
      <trkpt lat="46.51194" lon="5.26855">
        <ele>209</ele>
        <time>2020-10-28T13:31:47.000Z</time>
      </trkpt>
      <trkpt lat="46.51223" lon="5.26859">
        <ele>209.60000610352</ele>
        <time>2020-10-28T13:31:52.000Z</time>
      </trkpt>
      <trkpt lat="46.51234" lon="5.26863">
        <ele>210.60000610352</ele>
        <time>2020-10-28T13:31:54.000Z</time>
      </trkpt>
      <trkpt lat="46.51239" lon="5.26866">
        <ele>211</ele>
        <time>2020-10-28T13:31:55.000Z</time>
      </trkpt>
      <trkpt lat="46.51249" lon="5.26876">
        <ele>212.19999694824</ele>
        <time>2020-10-28T13:31:57.000Z</time>
      </trkpt>
      <trkpt lat="46.51252" lon="5.26884">
        <ele>212.60000610352</ele>
        <time>2020-10-28T13:31:58.000Z</time>
      </trkpt>
      <trkpt lat="46.51257" lon="5.2691">
        <ele>213.39999389648</ele>
        <time>2020-10-28T13:32:01.000Z</time>
      </trkpt>
      <trkpt lat="46.51259" lon="5.2692">
        <ele>213.39999389648</ele>
        <time>2020-10-28T13:32:02.000Z</time>
      </trkpt>
      <trkpt lat="46.51265" lon="5.26972">
        <ele>213.60000610352</ele>
        <time>2020-10-28T13:32:07.000Z</time>
      </trkpt>
      <trkpt lat="46.51268" lon="5.26983">
        <ele>213.60000610352</ele>
        <time>2020-10-28T13:32:08.000Z</time>
      </trkpt>
      <trkpt lat="46.51287" lon="5.27019">
        <ele>213.19999694824</ele>
        <time>2020-10-28T13:32:12.000Z</time>
      </trkpt>
      <trkpt lat="46.51314" lon="5.27041">
        <ele>212.39999389648</ele>
        <time>2020-10-28T13:32:16.000Z</time>
      </trkpt>
      <trkpt lat="46.51342" lon="5.27046">
        <ele>211.80000305176</ele>
        <time>2020-10-28T13:32:20.000Z</time>
      </trkpt>
      <trkpt lat="46.51363" lon="5.27038">
        <ele>211.60000610352</ele>
        <time>2020-10-28T13:32:23.000Z</time>
      </trkpt>
      <trkpt lat="46.51369" lon="5.27035">
        <ele>211.60000610352</ele>
        <time>2020-10-28T13:32:24.000Z</time>
      </trkpt>
      <trkpt lat="46.5142" lon="5.27008">
        <ele>212.60000610352</ele>
        <time>2020-10-28T13:32:32.000Z</time>
      </trkpt>
      <trkpt lat="46.51447" lon="5.26994">
        <ele>213.19999694824</ele>
        <time>2020-10-28T13:32:36.000Z</time>
      </trkpt>
      <trkpt lat="46.51462" lon="5.26991">
        <ele>213.19999694824</ele>
        <time>2020-10-28T13:32:38.000Z</time>
      </trkpt>
      <trkpt lat="46.51477" lon="5.26991">
        <ele>213.19999694824</ele>
        <time>2020-10-28T13:32:40.000Z</time>
      </trkpt>
      <trkpt lat="46.51507" lon="5.26994">
        <ele>213.19999694824</ele>
        <time>2020-10-28T13:32:44.000Z</time>
      </trkpt>
      <trkpt lat="46.51558" lon="5.27">
        <ele>212.60000610352</ele>
        <time>2020-10-28T13:32:51.000Z</time>
      </trkpt>
      <trkpt lat="46.51566" lon="5.26999">
        <ele>212.39999389648</ele>
        <time>2020-10-28T13:32:52.000Z</time>
      </trkpt>
      <trkpt lat="46.51581" lon="5.26996">
        <ele>212.39999389648</ele>
        <time>2020-10-28T13:32:54.000Z</time>
      </trkpt>
      <trkpt lat="46.51603" lon="5.26989">
        <ele>211.80000305176</ele>
        <time>2020-10-28T13:32:57.000Z</time>
      </trkpt>
      <trkpt lat="46.51626" lon="5.2698">
        <ele>211.19999694824</ele>
        <time>2020-10-28T13:33:00.000Z</time>
      </trkpt>
      <trkpt lat="46.51661" lon="5.26965">
        <ele>210.39999389648</ele>
        <time>2020-10-28T13:33:05.000Z</time>
      </trkpt>
      <trkpt lat="46.51707" lon="5.2695">
        <ele>210.80000305176</ele>
        <time>2020-10-28T13:33:12.000Z</time>
      </trkpt>
      <trkpt lat="46.51713" lon="5.26949">
        <ele>211</ele>
        <time>2020-10-28T13:33:13.000Z</time>
      </trkpt>
      <trkpt lat="46.51726" lon="5.26948">
        <ele>211.39999389648</ele>
        <time>2020-10-28T13:33:15.000Z</time>
      </trkpt>
      <trkpt lat="46.51745" lon="5.2695">
        <ele>211.80000305176</ele>
        <time>2020-10-28T13:33:18.000Z</time>
      </trkpt>
      <trkpt lat="46.51765" lon="5.26954">
        <ele>212.19999694824</ele>
        <time>2020-10-28T13:33:21.000Z</time>
      </trkpt>
      <trkpt lat="46.51793" lon="5.2696">
        <ele>212.60000610352</ele>
        <time>2020-10-28T13:33:25.000Z</time>
      </trkpt>
      <trkpt lat="46.51851" lon="5.26972">
        <ele>213</ele>
        <time>2020-10-28T13:33:33.000Z</time>
      </trkpt>
      <trkpt lat="46.51879" lon="5.26975">
        <ele>213</ele>
        <time>2020-10-28T13:33:37.000Z</time>
      </trkpt>
      <trkpt lat="46.51927" lon="5.26972">
        <ele>212.80000305176</ele>
        <time>2020-10-28T13:33:44.000Z</time>
      </trkpt>
      <trkpt lat="46.51958" lon="5.26969">
        <ele>212.80000305176</ele>
        <time>2020-10-28T13:33:49.000Z</time>
      </trkpt>
      <trkpt lat="46.51975" lon="5.26967">
        <ele>213</ele>
        <time>2020-10-28T13:33:52.000Z</time>
      </trkpt>
      <trkpt lat="46.51979" lon="5.26966">
        <ele>213</ele>
        <time>2020-10-28T13:33:53.000Z</time>
      </trkpt>
      <trkpt lat="46.51983" lon="5.26955">
        <ele>213</ele>
        <time>2020-10-28T13:33:56.000Z</time>
      </trkpt>
      <trkpt lat="46.5198" lon="5.26937">
        <ele>213</ele>
        <time>2020-10-28T13:33:59.000Z</time>
      </trkpt>
      <trkpt lat="46.51977" lon="5.2693">
        <ele>213</ele>
        <time>2020-10-28T13:34:00.000Z</time>
      </trkpt>
      <trkpt lat="46.51961" lon="5.26881">
        <ele>212.80000305176</ele>
        <time>2020-10-28T13:34:06.000Z</time>
      </trkpt>
      <trkpt lat="46.51956" lon="5.2686">
        <ele>212.80000305176</ele>
        <time>2020-10-28T13:34:08.000Z</time>
      </trkpt>
      <trkpt lat="46.51955" lon="5.26837">
        <ele>212.39999389648</ele>
        <time>2020-10-28T13:34:10.000Z</time>
      </trkpt>
      <trkpt lat="46.51964" lon="5.26803">
        <ele>211.80000305176</ele>
        <time>2020-10-28T13:34:13.000Z</time>
      </trkpt>
      <trkpt lat="46.51978" lon="5.26785">
        <ele>210.80000305176</ele>
        <time>2020-10-28T13:34:15.000Z</time>
      </trkpt>
      <trkpt lat="46.51986" lon="5.26777">
        <ele>210.19999694824</ele>
        <time>2020-10-28T13:34:16.000Z</time>
      </trkpt>
      <trkpt lat="46.51994" lon="5.2677">
        <ele>209.60000610352</ele>
        <time>2020-10-28T13:34:17.000Z</time>
      </trkpt>
      <trkpt lat="46.52011" lon="5.26756">
        <ele>207.60000610352</ele>
        <time>2020-10-28T13:34:19.000Z</time>
      </trkpt>
      <trkpt lat="46.52029" lon="5.2674">
        <ele>206.39999389648</ele>
        <time>2020-10-28T13:34:21.000Z</time>
      </trkpt>
      <trkpt lat="46.52047" lon="5.26725">
        <ele>205</ele>
        <time>2020-10-28T13:34:23.000Z</time>
      </trkpt>
      <trkpt lat="46.52065" lon="5.2671">
        <ele>203.80000305176</ele>
        <time>2020-10-28T13:34:25.000Z</time>
      </trkpt>
      <trkpt lat="46.52083" lon="5.26694">
        <ele>202.80000305176</ele>
        <time>2020-10-28T13:34:27.000Z</time>
      </trkpt>
      <trkpt lat="46.52101" lon="5.26677">
        <ele>201.60000610352</ele>
        <time>2020-10-28T13:34:29.000Z</time>
      </trkpt>
      <trkpt lat="46.5212" lon="5.2666">
        <ele>200.39999389648</ele>
        <time>2020-10-28T13:34:31.000Z</time>
      </trkpt>
      <trkpt lat="46.52136" lon="5.26639">
        <ele>199.19999694824</ele>
        <time>2020-10-28T13:34:33.000Z</time>
      </trkpt>
      <trkpt lat="46.5215" lon="5.26616">
        <ele>198.19999694824</ele>
        <time>2020-10-28T13:34:35.000Z</time>
      </trkpt>
      <trkpt lat="46.52163" lon="5.26592">
        <ele>197.19999694824</ele>
        <time>2020-10-28T13:34:37.000Z</time>
      </trkpt>
      <trkpt lat="46.52169" lon="5.26581">
        <ele>196.80000305176</ele>
        <time>2020-10-28T13:34:38.000Z</time>
      </trkpt>
      <trkpt lat="46.52183" lon="5.2656">
        <ele>195.80000305176</ele>
        <time>2020-10-28T13:34:40.000Z</time>
      </trkpt>
      <trkpt lat="46.5219" lon="5.2655">
        <ele>195.60000610352</ele>
        <time>2020-10-28T13:34:41.000Z</time>
      </trkpt>
      <trkpt lat="46.52199" lon="5.26542">
        <ele>195.39999389648</ele>
        <time>2020-10-28T13:34:42.000Z</time>
      </trkpt>
      <trkpt lat="46.52225" lon="5.26525">
        <ele>195.19999694824</ele>
        <time>2020-10-28T13:34:45.000Z</time>
      </trkpt>
      <trkpt lat="46.52234" lon="5.26521">
        <ele>195</ele>
        <time>2020-10-28T13:34:46.000Z</time>
      </trkpt>
      <trkpt lat="46.52243" lon="5.26516">
        <ele>194.80000305176</ele>
        <time>2020-10-28T13:34:47.000Z</time>
      </trkpt>
      <trkpt lat="46.5229" lon="5.26495">
        <ele>193.60000610352</ele>
        <time>2020-10-28T13:34:52.000Z</time>
      </trkpt>
      <trkpt lat="46.52309" lon="5.26486">
        <ele>193</ele>
        <time>2020-10-28T13:34:54.000Z</time>
      </trkpt>
      <trkpt lat="46.52338" lon="5.26473">
        <ele>192.39999389648</ele>
        <time>2020-10-28T13:34:57.000Z</time>
      </trkpt>
      <trkpt lat="46.52367" lon="5.26461">
        <ele>191.19999694824</ele>
        <time>2020-10-28T13:35:00.000Z</time>
      </trkpt>
      <trkpt lat="46.52376" lon="5.26455">
        <ele>190.80000305176</ele>
        <time>2020-10-28T13:35:01.000Z</time>
      </trkpt>
      <trkpt lat="46.52385" lon="5.26447">
        <ele>190.60000610352</ele>
        <time>2020-10-28T13:35:02.000Z</time>
      </trkpt>
      <trkpt lat="46.52404" lon="5.26415">
        <ele>190.19999694824</ele>
        <time>2020-10-28T13:35:05.000Z</time>
      </trkpt>
      <trkpt lat="46.52409" lon="5.26403">
        <ele>189.80000305176</ele>
        <time>2020-10-28T13:35:06.000Z</time>
      </trkpt>
      <trkpt lat="46.52414" lon="5.2639">
        <ele>189.19999694824</ele>
        <time>2020-10-28T13:35:07.000Z</time>
      </trkpt>
      <trkpt lat="46.52423" lon="5.26366">
        <ele>188.60000610352</ele>
        <time>2020-10-28T13:35:09.000Z</time>
      </trkpt>
      <trkpt lat="46.52432" lon="5.26342">
        <ele>187.80000305176</ele>
        <time>2020-10-28T13:35:11.000Z</time>
      </trkpt>
      <trkpt lat="46.52441" lon="5.26318">
        <ele>187.39999389648</ele>
        <time>2020-10-28T13:35:13.000Z</time>
      </trkpt>
      <trkpt lat="46.5247" lon="5.2624">
        <ele>186.80000305176</ele>
        <time>2020-10-28T13:35:20.000Z</time>
      </trkpt>
      <trkpt lat="46.52497" lon="5.26169">
        <ele>186.80000305176</ele>
        <time>2020-10-28T13:35:27.000Z</time>
      </trkpt>
      <trkpt lat="46.52512" lon="5.26131">
        <ele>186.80000305176</ele>
        <time>2020-10-28T13:35:31.000Z</time>
      </trkpt>
      <trkpt lat="46.52517" lon="5.26123">
        <ele>187</ele>
        <time>2020-10-28T13:35:32.000Z</time>
      </trkpt>
      <trkpt lat="46.52537" lon="5.26114">
        <ele>187.39999389648</ele>
        <time>2020-10-28T13:35:35.000Z</time>
      </trkpt>
      <trkpt lat="46.52565" lon="5.26123">
        <ele>187.80000305176</ele>
        <time>2020-10-28T13:35:39.000Z</time>
      </trkpt>
      <trkpt lat="46.52579" lon="5.26148">
        <ele>188.19999694824</ele>
        <time>2020-10-28T13:35:42.000Z</time>
      </trkpt>
      <trkpt lat="46.52583" lon="5.26157">
        <ele>188.39999389648</ele>
        <time>2020-10-28T13:35:43.000Z</time>
      </trkpt>
      <trkpt lat="46.52587" lon="5.26166">
        <ele>188.60000610352</ele>
        <time>2020-10-28T13:35:44.000Z</time>
      </trkpt>
      <trkpt lat="46.52602" lon="5.2619">
        <ele>188.80000305176</ele>
        <time>2020-10-28T13:35:47.000Z</time>
      </trkpt>
      <trkpt lat="46.52619" lon="5.2621">
        <ele>189</ele>
        <time>2020-10-28T13:35:50.000Z</time>
      </trkpt>
      <trkpt lat="46.52631" lon="5.26221">
        <ele>189.39999389648</ele>
        <time>2020-10-28T13:35:52.000Z</time>
      </trkpt>
      <trkpt lat="46.52637" lon="5.26226">
        <ele>189.60000610352</ele>
        <time>2020-10-28T13:35:53.000Z</time>
      </trkpt>
      <trkpt lat="46.52673" lon="5.26249">
        <ele>190</ele>
        <time>2020-10-28T13:35:59.000Z</time>
      </trkpt>
      <trkpt lat="46.52717" lon="5.2627">
        <ele>190.60000610352</ele>
        <time>2020-10-28T13:36:06.000Z</time>
      </trkpt>
      <trkpt lat="46.52748" lon="5.26284">
        <ele>191</ele>
        <time>2020-10-28T13:36:11.000Z</time>
      </trkpt>
      <trkpt lat="46.52766" lon="5.26292">
        <ele>191.60000610352</ele>
        <time>2020-10-28T13:36:14.000Z</time>
      </trkpt>
      <trkpt lat="46.52803" lon="5.26307">
        <ele>192</ele>
        <time>2020-10-28T13:36:20.000Z</time>
      </trkpt>
      <trkpt lat="46.52843" lon="5.2631">
        <ele>192.39999389648</ele>
        <time>2020-10-28T13:36:26.000Z</time>
      </trkpt>
      <trkpt lat="46.52893" lon="5.2631">
        <ele>192.39999389648</ele>
        <time>2020-10-28T13:36:33.000Z</time>
      </trkpt>
      <trkpt lat="46.52936" lon="5.26332">
        <ele>191.80000305176</ele>
        <time>2020-10-28T13:36:39.000Z</time>
      </trkpt>
      <trkpt lat="46.52987" lon="5.26361">
        <ele>191.19999694824</ele>
        <time>2020-10-28T13:36:46.000Z</time>
      </trkpt>
      <trkpt lat="46.53001" lon="5.26369">
        <ele>191</ele>
        <time>2020-10-28T13:36:48.000Z</time>
      </trkpt>
      <trkpt lat="46.53031" lon="5.26386">
        <ele>190.60000610352</ele>
        <time>2020-10-28T13:36:52.000Z</time>
      </trkpt>
      <trkpt lat="46.53068" lon="5.26408">
        <ele>190.19999694824</ele>
        <time>2020-10-28T13:36:57.000Z</time>
      </trkpt>
      <trkpt lat="46.53121" lon="5.26431">
        <ele>190</ele>
        <time>2020-10-28T13:37:04.000Z</time>
      </trkpt>
      <trkpt lat="46.53177" lon="5.26439">
        <ele>189.80000305176</ele>
        <time>2020-10-28T13:37:11.000Z</time>
      </trkpt>
      <trkpt lat="46.53192" lon="5.26442">
        <ele>189.80000305176</ele>
        <time>2020-10-28T13:37:13.000Z</time>
      </trkpt>
      <trkpt lat="46.53246" lon="5.2645">
        <ele>189.39999389648</ele>
        <time>2020-10-28T13:37:20.000Z</time>
      </trkpt>
      <trkpt lat="46.53262" lon="5.26452">
        <ele>189.19999694824</ele>
        <time>2020-10-28T13:37:22.000Z</time>
      </trkpt>
      <trkpt lat="46.53322" lon="5.2646">
        <ele>189</ele>
        <time>2020-10-28T13:37:30.000Z</time>
      </trkpt>
      <trkpt lat="46.5333" lon="5.26461">
        <ele>189</ele>
        <time>2020-10-28T13:37:31.000Z</time>
      </trkpt>
      <trkpt lat="46.53368" lon="5.26466">
        <ele>188.80000305176</ele>
        <time>2020-10-28T13:37:36.000Z</time>
      </trkpt>
      <trkpt lat="46.53383" lon="5.26465">
        <ele>188.60000610352</ele>
        <time>2020-10-28T13:37:38.000Z</time>
      </trkpt>
      <trkpt lat="46.53442" lon="5.26466">
        <ele>188.39999389648</ele>
        <time>2020-10-28T13:37:46.000Z</time>
      </trkpt>
      <trkpt lat="46.53457" lon="5.26467">
        <ele>188.39999389648</ele>
        <time>2020-10-28T13:37:48.000Z</time>
      </trkpt>
      <trkpt lat="46.53514" lon="5.26472">
        <ele>188.39999389648</ele>
        <time>2020-10-28T13:37:56.000Z</time>
      </trkpt>
      <trkpt lat="46.53528" lon="5.26474">
        <ele>188.60000610352</ele>
        <time>2020-10-28T13:37:58.000Z</time>
      </trkpt>
      <trkpt lat="46.53579" lon="5.26479">
        <ele>189</ele>
        <time>2020-10-28T13:38:05.000Z</time>
      </trkpt>
      <trkpt lat="46.53631" lon="5.26479">
        <ele>188.80000305176</ele>
        <time>2020-10-28T13:38:12.000Z</time>
      </trkpt>
      <trkpt lat="46.53679" lon="5.2648">
        <ele>189</ele>
        <time>2020-10-28T13:38:19.000Z</time>
      </trkpt>
      <trkpt lat="46.53724" lon="5.26463">
        <ele>189.39999389648</ele>
        <time>2020-10-28T13:38:26.000Z</time>
      </trkpt>
      <trkpt lat="46.53743" lon="5.26455">
        <ele>190</ele>
        <time>2020-10-28T13:38:29.000Z</time>
      </trkpt>
      <trkpt lat="46.53778" lon="5.26439">
        <ele>190.39999389648</ele>
        <time>2020-10-28T13:38:35.000Z</time>
      </trkpt>
      <trkpt lat="46.53784" lon="5.26438">
        <ele>190.39999389648</ele>
        <time>2020-10-28T13:38:36.000Z</time>
      </trkpt>
      <trkpt lat="46.53793" lon="5.26438">
        <ele>190.39999389648</ele>
        <time>2020-10-28T13:38:38.000Z</time>
      </trkpt>
      <trkpt lat="46.538" lon="5.26443">
        <ele>190.60000610352</ele>
        <time>2020-10-28T13:38:40.000Z</time>
      </trkpt>
      <trkpt lat="46.53808" lon="5.26464">
        <ele>190.60000610352</ele>
        <time>2020-10-28T13:38:43.000Z</time>
      </trkpt>
      <trkpt lat="46.5381" lon="5.26492">
        <ele>190.60000610352</ele>
        <time>2020-10-28T13:38:46.000Z</time>
      </trkpt>
      <trkpt lat="46.53811" lon="5.26501">
        <ele>190.60000610352</ele>
        <time>2020-10-28T13:38:47.000Z</time>
      </trkpt>
      <trkpt lat="46.53816" lon="5.26553">
        <ele>190.19999694824</ele>
        <time>2020-10-28T13:38:52.000Z</time>
      </trkpt>
      <trkpt lat="46.53825" lon="5.26592">
        <ele>189.19999694824</ele>
        <time>2020-10-28T13:38:56.000Z</time>
      </trkpt>
      <trkpt lat="46.53827" lon="5.26602">
        <ele>189.19999694824</ele>
        <time>2020-10-28T13:38:57.000Z</time>
      </trkpt>
      <trkpt lat="46.53832" lon="5.26623">
        <ele>189</ele>
        <time>2020-10-28T13:38:59.000Z</time>
      </trkpt>
      <trkpt lat="46.53834" lon="5.26634">
        <ele>188.80000305176</ele>
        <time>2020-10-28T13:39:00.000Z</time>
      </trkpt>
      <trkpt lat="46.53834" lon="5.26655">
        <ele>188.60000610352</ele>
        <time>2020-10-28T13:39:02.000Z</time>
      </trkpt>
      <trkpt lat="46.53831" lon="5.26674">
        <ele>188.19999694824</ele>
        <time>2020-10-28T13:39:04.000Z</time>
      </trkpt>
      <trkpt lat="46.5383" lon="5.26683">
        <ele>188</ele>
        <time>2020-10-28T13:39:05.000Z</time>
      </trkpt>
      <trkpt lat="46.5383" lon="5.26693">
        <ele>187.80000305176</ele>
        <time>2020-10-28T13:39:06.000Z</time>
      </trkpt>
      <trkpt lat="46.5383" lon="5.26704">
        <ele>187.60000610352</ele>
        <time>2020-10-28T13:39:07.000Z</time>
      </trkpt>
      <trkpt lat="46.53837" lon="5.26743">
        <ele>187.39999389648</ele>
        <time>2020-10-28T13:39:11.000Z</time>
      </trkpt>
      <trkpt lat="46.53841" lon="5.26751">
        <ele>187.19999694824</ele>
        <time>2020-10-28T13:39:12.000Z</time>
      </trkpt>
      <trkpt lat="46.53865" lon="5.268">
        <ele>187.19999694824</ele>
        <time>2020-10-28T13:39:18.000Z</time>
      </trkpt>
      <trkpt lat="46.53904" lon="5.2686">
        <ele>187.19999694824</ele>
        <time>2020-10-28T13:39:26.000Z</time>
      </trkpt>
      <trkpt lat="46.53918" lon="5.26883">
        <ele>187.19999694824</ele>
        <time>2020-10-28T13:39:29.000Z</time>
      </trkpt>
      <trkpt lat="46.53955" lon="5.26943">
        <ele>187.19999694824</ele>
        <time>2020-10-28T13:39:37.000Z</time>
      </trkpt>
      <trkpt lat="46.53959" lon="5.26951">
        <ele>187.19999694824</ele>
        <time>2020-10-28T13:39:38.000Z</time>
      </trkpt>
      <trkpt lat="46.53977" lon="5.26994">
        <ele>187.60000610352</ele>
        <time>2020-10-28T13:39:43.000Z</time>
      </trkpt>
      <trkpt lat="46.54001" lon="5.27052">
        <ele>189</ele>
        <time>2020-10-28T13:39:51.000Z</time>
      </trkpt>
      <trkpt lat="46.54003" lon="5.27059">
        <ele>189.19999694824</ele>
        <time>2020-10-28T13:39:52.000Z</time>
      </trkpt>
      <trkpt lat="46.54012" lon="5.27077">
        <ele>190</ele>
        <time>2020-10-28T13:39:55.000Z</time>
      </trkpt>
      <trkpt lat="46.54014" lon="5.27083">
        <ele>190.39999389648</ele>
        <time>2020-10-28T13:39:56.000Z</time>
      </trkpt>
      <trkpt lat="46.54016" lon="5.27089">
        <ele>190.60000610352</ele>
        <time>2020-10-28T13:39:57.000Z</time>
      </trkpt>
      <trkpt lat="46.54022" lon="5.27106">
        <ele>191.60000610352</ele>
        <time>2020-10-28T13:40:00.000Z</time>
      </trkpt>
      <trkpt lat="46.5403" lon="5.27128">
        <ele>192.60000610352</ele>
        <time>2020-10-28T13:40:04.000Z</time>
      </trkpt>
      <trkpt lat="46.54032" lon="5.27134">
        <ele>192.80000305176</ele>
        <time>2020-10-28T13:40:05.000Z</time>
      </trkpt>
      <trkpt lat="46.54046" lon="5.27168">
        <ele>193.60000610352</ele>
        <time>2020-10-28T13:40:11.000Z</time>
      </trkpt>
      <trkpt lat="46.54051" lon="5.2718">
        <ele>193.80000305176</ele>
        <time>2020-10-28T13:40:13.000Z</time>
      </trkpt>
      <trkpt lat="46.54061" lon="5.27204">
        <ele>194.60000610352</ele>
        <time>2020-10-28T13:40:17.000Z</time>
      </trkpt>
      <trkpt lat="46.54074" lon="5.27234">
        <ele>195.80000305176</ele>
        <time>2020-10-28T13:40:22.000Z</time>
      </trkpt>
      <trkpt lat="46.54092" lon="5.27274">
        <ele>196.80000305176</ele>
        <time>2020-10-28T13:40:29.000Z</time>
      </trkpt>
      <trkpt lat="46.54097" lon="5.27286">
        <ele>197.19999694824</ele>
        <time>2020-10-28T13:40:31.000Z</time>
      </trkpt>
      <trkpt lat="46.54101" lon="5.27297">
        <ele>197.80000305176</ele>
        <time>2020-10-28T13:40:33.000Z</time>
      </trkpt>
      <trkpt lat="46.54116" lon="5.2733">
        <ele>199</ele>
        <time>2020-10-28T13:40:39.000Z</time>
      </trkpt>
      <trkpt lat="46.54118" lon="5.27336">
        <ele>199.19999694824</ele>
        <time>2020-10-28T13:40:40.000Z</time>
      </trkpt>
      <trkpt lat="46.54126" lon="5.27356">
        <ele>200.19999694824</ele>
        <time>2020-10-28T13:40:44.000Z</time>
      </trkpt>
      <trkpt lat="46.54135" lon="5.27376">
        <ele>201.19999694824</ele>
        <time>2020-10-28T13:40:48.000Z</time>
      </trkpt>
      <trkpt lat="46.54137" lon="5.27381">
        <ele>201.39999389648</ele>
        <time>2020-10-28T13:40:49.000Z</time>
      </trkpt>
      <trkpt lat="46.5415" lon="5.27414">
        <ele>202.39999389648</ele>
        <time>2020-10-28T13:40:55.000Z</time>
      </trkpt>
      <trkpt lat="46.54157" lon="5.27431">
        <ele>203</ele>
        <time>2020-10-28T13:40:58.000Z</time>
      </trkpt>
      <trkpt lat="46.54161" lon="5.27442">
        <ele>203.39999389648</ele>
        <time>2020-10-28T13:41:00.000Z</time>
      </trkpt>
      <trkpt lat="46.54174" lon="5.27473">
        <ele>204.60000610352</ele>
        <time>2020-10-28T13:41:06.000Z</time>
      </trkpt>
      <trkpt lat="46.54176" lon="5.27479">
        <ele>204.80000305176</ele>
        <time>2020-10-28T13:41:07.000Z</time>
      </trkpt>
      <trkpt lat="46.54184" lon="5.27494">
        <ele>205.60000610352</ele>
        <time>2020-10-28T13:41:10.000Z</time>
      </trkpt>
      <trkpt lat="46.54187" lon="5.27499">
        <ele>205.80000305176</ele>
        <time>2020-10-28T13:41:11.000Z</time>
      </trkpt>
      <trkpt lat="46.54194" lon="5.27513">
        <ele>206.80000305176</ele>
        <time>2020-10-28T13:41:14.000Z</time>
      </trkpt>
      <trkpt lat="46.542" lon="5.27523">
        <ele>207.19999694824</ele>
        <time>2020-10-28T13:41:16.000Z</time>
      </trkpt>
      <trkpt lat="46.54209" lon="5.27536">
        <ele>207.80000305176</ele>
        <time>2020-10-28T13:41:19.000Z</time>
      </trkpt>
      <trkpt lat="46.54219" lon="5.2755">
        <ele>208.39999389648</ele>
        <time>2020-10-28T13:41:22.000Z</time>
      </trkpt>
      <trkpt lat="46.54234" lon="5.2757">
        <ele>209</ele>
        <time>2020-10-28T13:41:26.000Z</time>
      </trkpt>
      <trkpt lat="46.54253" lon="5.27594">
        <ele>209.39999389648</ele>
        <time>2020-10-28T13:41:31.000Z</time>
      </trkpt>
      <trkpt lat="46.54265" lon="5.27609">
        <ele>210</ele>
        <time>2020-10-28T13:41:34.000Z</time>
      </trkpt>
      <trkpt lat="46.54295" lon="5.27646">
        <ele>210.60000610352</ele>
        <time>2020-10-28T13:41:41.000Z</time>
      </trkpt>
      <trkpt lat="46.54337" lon="5.277">
        <ele>210.60000610352</ele>
        <time>2020-10-28T13:41:50.000Z</time>
      </trkpt>
      <trkpt lat="46.54382" lon="5.27756">
        <ele>210.80000305176</ele>
        <time>2020-10-28T13:41:59.000Z</time>
      </trkpt>
      <trkpt lat="46.54391" lon="5.27769">
        <ele>210.80000305176</ele>
        <time>2020-10-28T13:42:01.000Z</time>
      </trkpt>
      <trkpt lat="46.54427" lon="5.27823">
        <ele>210.80000305176</ele>
        <time>2020-10-28T13:42:09.000Z</time>
      </trkpt>
      <trkpt lat="46.54454" lon="5.27859">
        <ele>210.80000305176</ele>
        <time>2020-10-28T13:42:15.000Z</time>
      </trkpt>
      <trkpt lat="46.54487" lon="5.27895">
        <ele>210.39999389648</ele>
        <time>2020-10-28T13:42:21.000Z</time>
      </trkpt>
      <trkpt lat="46.54522" lon="5.27943">
        <ele>210.19999694824</ele>
        <time>2020-10-28T13:42:28.000Z</time>
      </trkpt>
      <trkpt lat="46.5455" lon="5.27997">
        <ele>210</ele>
        <time>2020-10-28T13:42:34.000Z</time>
      </trkpt>
      <trkpt lat="46.54564" lon="5.28025">
        <ele>209.19999694824</ele>
        <time>2020-10-28T13:42:37.000Z</time>
      </trkpt>
      <trkpt lat="46.54582" lon="5.28052">
        <ele>208.39999389648</ele>
        <time>2020-10-28T13:42:40.000Z</time>
      </trkpt>
      <trkpt lat="46.54588" lon="5.2806">
        <ele>208</ele>
        <time>2020-10-28T13:42:41.000Z</time>
      </trkpt>
      <trkpt lat="46.54618" lon="5.28101">
        <ele>207</ele>
        <time>2020-10-28T13:42:46.000Z</time>
      </trkpt>
      <trkpt lat="46.54631" lon="5.28117">
        <ele>206.60000610352</ele>
        <time>2020-10-28T13:42:48.000Z</time>
      </trkpt>
      <trkpt lat="46.54668" lon="5.2815">
        <ele>205.80000305176</ele>
        <time>2020-10-28T13:42:53.000Z</time>
      </trkpt>
      <trkpt lat="46.54715" lon="5.28191">
        <ele>204.60000610352</ele>
        <time>2020-10-28T13:42:59.000Z</time>
      </trkpt>
      <trkpt lat="46.54734" lon="5.28219">
        <ele>203.80000305176</ele>
        <time>2020-10-28T13:43:02.000Z</time>
      </trkpt>
      <trkpt lat="46.5474" lon="5.2823">
        <ele>203.19999694824</ele>
        <time>2020-10-28T13:43:03.000Z</time>
      </trkpt>
      <trkpt lat="46.54751" lon="5.28253">
        <ele>201.80000305176</ele>
        <time>2020-10-28T13:43:05.000Z</time>
      </trkpt>
      <trkpt lat="46.5476" lon="5.28276">
        <ele>200.60000610352</ele>
        <time>2020-10-28T13:43:07.000Z</time>
      </trkpt>
      <trkpt lat="46.54765" lon="5.28287">
        <ele>200</ele>
        <time>2020-10-28T13:43:08.000Z</time>
      </trkpt>
      <trkpt lat="46.5477" lon="5.28298">
        <ele>199.60000610352</ele>
        <time>2020-10-28T13:43:09.000Z</time>
      </trkpt>
      <trkpt lat="46.5479" lon="5.28344">
        <ele>199</ele>
        <time>2020-10-28T13:43:14.000Z</time>
      </trkpt>
      <trkpt lat="46.54794" lon="5.28352">
        <ele>199</ele>
        <time>2020-10-28T13:43:16.000Z</time>
      </trkpt>
      <trkpt lat="46.54794" lon="5.28353">
        <ele>199</ele>
        <time>2020-10-28T13:43:17.000Z</time>
      </trkpt>
      <trkpt lat="46.54794" lon="5.28353">
        <ele>199</ele>
        <time>2020-10-28T13:43:18.000Z</time>
      </trkpt>
      <trkpt lat="46.54794" lon="5.28356">
        <ele>199.39999389648</ele>
        <time>2020-10-28T13:43:21.000Z</time>
      </trkpt>
      <trkpt lat="46.54797" lon="5.2836">
        <ele>200.39999389648</ele>
        <time>2020-10-28T13:43:23.000Z</time>
      </trkpt>
      <trkpt lat="46.54799" lon="5.2836">
        <ele>201</ele>
        <time>2020-10-28T13:43:24.000Z</time>
      </trkpt>
      <trkpt lat="46.54808" lon="5.28366">
        <ele>201.60000610352</ele>
        <time>2020-10-28T13:43:27.000Z</time>
      </trkpt>
      <trkpt lat="46.54812" lon="5.28369">
        <ele>201.60000610352</ele>
        <time>2020-10-28T13:43:28.000Z</time>
      </trkpt>
      <trkpt lat="46.54838" lon="5.28385">
        <ele>201.60000610352</ele>
        <time>2020-10-28T13:43:33.000Z</time>
      </trkpt>
      <trkpt lat="46.54872" lon="5.28406">
        <ele>200.80000305176</ele>
        <time>2020-10-28T13:43:38.000Z</time>
      </trkpt>
      <trkpt lat="46.54886" lon="5.28417">
        <ele>199.80000305176</ele>
        <time>2020-10-28T13:43:40.000Z</time>
      </trkpt>
      <trkpt lat="46.54907" lon="5.28435">
        <ele>198.80000305176</ele>
        <time>2020-10-28T13:43:43.000Z</time>
      </trkpt>
      <trkpt lat="46.54929" lon="5.28447">
        <ele>197.39999389648</ele>
        <time>2020-10-28T13:43:46.000Z</time>
      </trkpt>
      <trkpt lat="46.54945" lon="5.28454">
        <ele>196.39999389648</ele>
        <time>2020-10-28T13:43:48.000Z</time>
      </trkpt>
      <trkpt lat="46.54952" lon="5.28458">
        <ele>196</ele>
        <time>2020-10-28T13:43:49.000Z</time>
      </trkpt>
      <trkpt lat="46.5496" lon="5.28463">
        <ele>195.80000305176</ele>
        <time>2020-10-28T13:43:50.000Z</time>
      </trkpt>
      <trkpt lat="46.54975" lon="5.28476">
        <ele>195.39999389648</ele>
        <time>2020-10-28T13:43:52.000Z</time>
      </trkpt>
      <trkpt lat="46.54982" lon="5.28485">
        <ele>195.19999694824</ele>
        <time>2020-10-28T13:43:53.000Z</time>
      </trkpt>
      <trkpt lat="46.54993" lon="5.28504">
        <ele>195</ele>
        <time>2020-10-28T13:43:55.000Z</time>
      </trkpt>
      <trkpt lat="46.5501" lon="5.28535">
        <ele>194.39999389648</ele>
        <time>2020-10-28T13:43:58.000Z</time>
      </trkpt>
      <trkpt lat="46.55016" lon="5.28546">
        <ele>194.19999694824</ele>
        <time>2020-10-28T13:43:59.000Z</time>
      </trkpt>
      <trkpt lat="46.55028" lon="5.28567">
        <ele>193</ele>
        <time>2020-10-28T13:44:01.000Z</time>
      </trkpt>
      <trkpt lat="46.55057" lon="5.2862">
        <ele>191.80000305176</ele>
        <time>2020-10-28T13:44:06.000Z</time>
      </trkpt>
      <trkpt lat="46.55063" lon="5.2863">
        <ele>191.39999389648</ele>
        <time>2020-10-28T13:44:07.000Z</time>
      </trkpt>
      <trkpt lat="46.55081" lon="5.28662">
        <ele>190.60000610352</ele>
        <time>2020-10-28T13:44:10.000Z</time>
      </trkpt>
      <trkpt lat="46.55103" lon="5.28703">
        <ele>189.60000610352</ele>
        <time>2020-10-28T13:44:14.000Z</time>
      </trkpt>
      <trkpt lat="46.55109" lon="5.28713">
        <ele>189.60000610352</ele>
        <time>2020-10-28T13:44:15.000Z</time>
      </trkpt>
      <trkpt lat="46.55138" lon="5.28757">
        <ele>189</ele>
        <time>2020-10-28T13:44:20.000Z</time>
      </trkpt>
      <trkpt lat="46.55144" lon="5.28766">
        <ele>189</ele>
        <time>2020-10-28T13:44:21.000Z</time>
      </trkpt>
      <trkpt lat="46.55152" lon="5.28786">
        <ele>189</ele>
        <time>2020-10-28T13:44:23.000Z</time>
      </trkpt>
      <trkpt lat="46.55155" lon="5.28821">
        <ele>188.80000305176</ele>
        <time>2020-10-28T13:44:26.000Z</time>
      </trkpt>
      <trkpt lat="46.55154" lon="5.28833">
        <ele>188.80000305176</ele>
        <time>2020-10-28T13:44:27.000Z</time>
      </trkpt>
      <trkpt lat="46.55147" lon="5.28913">
        <ele>188.80000305176</ele>
        <time>2020-10-28T13:44:34.000Z</time>
      </trkpt>
      <trkpt lat="46.55147" lon="5.28924">
        <ele>188.80000305176</ele>
        <time>2020-10-28T13:44:35.000Z</time>
      </trkpt>
      <trkpt lat="46.55157" lon="5.28965">
        <ele>188.80000305176</ele>
        <time>2020-10-28T13:44:39.000Z</time>
      </trkpt>
      <trkpt lat="46.55164" lon="5.28981">
        <ele>188.80000305176</ele>
        <time>2020-10-28T13:44:41.000Z</time>
      </trkpt>
      <trkpt lat="46.55176" lon="5.29002">
        <ele>189.19999694824</ele>
        <time>2020-10-28T13:44:44.000Z</time>
      </trkpt>
      <trkpt lat="46.55198" lon="5.2904">
        <ele>190.80000305176</ele>
        <time>2020-10-28T13:44:51.000Z</time>
      </trkpt>
      <trkpt lat="46.55204" lon="5.2905">
        <ele>191.80000305176</ele>
        <time>2020-10-28T13:44:53.000Z</time>
      </trkpt>
      <trkpt lat="46.55212" lon="5.29064">
        <ele>193.39999389648</ele>
        <time>2020-10-28T13:44:56.000Z</time>
      </trkpt>
      <trkpt lat="46.5522" lon="5.29078">
        <ele>194.60000610352</ele>
        <time>2020-10-28T13:44:59.000Z</time>
      </trkpt>
      <trkpt lat="46.55223" lon="5.29082">
        <ele>195</ele>
        <time>2020-10-28T13:45:00.000Z</time>
      </trkpt>
      <trkpt lat="46.55231" lon="5.29094">
        <ele>196</ele>
        <time>2020-10-28T13:45:03.000Z</time>
      </trkpt>
      <trkpt lat="46.55241" lon="5.29109">
        <ele>197</ele>
        <time>2020-10-28T13:45:07.000Z</time>
      </trkpt>
      <trkpt lat="46.5525" lon="5.29124">
        <ele>198.19999694824</ele>
        <time>2020-10-28T13:45:11.000Z</time>
      </trkpt>
      <trkpt lat="46.5526" lon="5.29139">
        <ele>199.80000305176</ele>
        <time>2020-10-28T13:45:15.000Z</time>
      </trkpt>
      <trkpt lat="46.55263" lon="5.29142">
        <ele>199.80000305176</ele>
        <time>2020-10-28T13:45:16.000Z</time>
      </trkpt>
      <trkpt lat="46.55273" lon="5.29157">
        <ele>200.60000610352</ele>
        <time>2020-10-28T13:45:20.000Z</time>
      </trkpt>
      <trkpt lat="46.55282" lon="5.2917">
        <ele>201.60000610352</ele>
        <time>2020-10-28T13:45:23.000Z</time>
      </trkpt>
      <trkpt lat="46.55286" lon="5.2918">
        <ele>202</ele>
        <time>2020-10-28T13:45:25.000Z</time>
      </trkpt>
      <trkpt lat="46.55288" lon="5.29198">
        <ele>202.60000610352</ele>
        <time>2020-10-28T13:45:28.000Z</time>
      </trkpt>
      <trkpt lat="46.55288" lon="5.29204">
        <ele>203</ele>
        <time>2020-10-28T13:45:29.000Z</time>
      </trkpt>
      <trkpt lat="46.55283" lon="5.29227">
        <ele>203.39999389648</ele>
        <time>2020-10-28T13:45:33.000Z</time>
      </trkpt>
      <trkpt lat="46.55275" lon="5.29261">
        <ele>204</ele>
        <time>2020-10-28T13:45:39.000Z</time>
      </trkpt>
      <trkpt lat="46.55269" lon="5.29281">
        <ele>204.60000610352</ele>
        <time>2020-10-28T13:45:43.000Z</time>
      </trkpt>
      <trkpt lat="46.55265" lon="5.29297">
        <ele>205</ele>
        <time>2020-10-28T13:45:46.000Z</time>
      </trkpt>
      <trkpt lat="46.55261" lon="5.29317">
        <ele>206</ele>
        <time>2020-10-28T13:45:50.000Z</time>
      </trkpt>
      <trkpt lat="46.5526" lon="5.29322">
        <ele>206.39999389648</ele>
        <time>2020-10-28T13:45:51.000Z</time>
      </trkpt>
      <trkpt lat="46.55254" lon="5.29343">
        <ele>207.60000610352</ele>
        <time>2020-10-28T13:45:55.000Z</time>
      </trkpt>
      <trkpt lat="46.55254" lon="5.29348">
        <ele>207.60000610352</ele>
        <time>2020-10-28T13:45:56.000Z</time>
      </trkpt>
      <trkpt lat="46.55253" lon="5.2936">
        <ele>208.39999389648</ele>
        <time>2020-10-28T13:45:58.000Z</time>
      </trkpt>
      <trkpt lat="46.55253" lon="5.29366">
        <ele>208.60000610352</ele>
        <time>2020-10-28T13:45:59.000Z</time>
      </trkpt>
      <trkpt lat="46.55255" lon="5.29372">
        <ele>209</ele>
        <time>2020-10-28T13:46:00.000Z</time>
      </trkpt>
      <trkpt lat="46.55258" lon="5.29394">
        <ele>209.80000305176</ele>
        <time>2020-10-28T13:46:03.000Z</time>
      </trkpt>
      <trkpt lat="46.55263" lon="5.29419">
        <ele>210</ele>
        <time>2020-10-28T13:46:06.000Z</time>
      </trkpt>
      <trkpt lat="46.55276" lon="5.2947">
        <ele>210</ele>
        <time>2020-10-28T13:46:11.000Z</time>
      </trkpt>
      <trkpt lat="46.55294" lon="5.29494">
        <ele>209</ele>
        <time>2020-10-28T13:46:14.000Z</time>
      </trkpt>
      <trkpt lat="46.55302" lon="5.29499">
        <ele>208.60000610352</ele>
        <time>2020-10-28T13:46:15.000Z</time>
      </trkpt>
      <trkpt lat="46.55319" lon="5.29505">
        <ele>207.60000610352</ele>
        <time>2020-10-28T13:46:17.000Z</time>
      </trkpt>
      <trkpt lat="46.55337" lon="5.29507">
        <ele>205.39999389648</ele>
        <time>2020-10-28T13:46:19.000Z</time>
      </trkpt>
      <trkpt lat="46.55362" lon="5.29512">
        <ele>204.19999694824</ele>
        <time>2020-10-28T13:46:22.000Z</time>
      </trkpt>
      <trkpt lat="46.55371" lon="5.29515">
        <ele>203.60000610352</ele>
        <time>2020-10-28T13:46:23.000Z</time>
      </trkpt>
      <trkpt lat="46.55379" lon="5.29517">
        <ele>203</ele>
        <time>2020-10-28T13:46:24.000Z</time>
      </trkpt>
      <trkpt lat="46.55418" lon="5.29537">
        <ele>202.19999694824</ele>
        <time>2020-10-28T13:46:29.000Z</time>
      </trkpt>
      <trkpt lat="46.55455" lon="5.29562">
        <ele>202</ele>
        <time>2020-10-28T13:46:34.000Z</time>
      </trkpt>
      <trkpt lat="46.55469" lon="5.29573">
        <ele>202</ele>
        <time>2020-10-28T13:46:36.000Z</time>
      </trkpt>
      <trkpt lat="46.55523" lon="5.29613">
        <ele>202.39999389648</ele>
        <time>2020-10-28T13:46:44.000Z</time>
      </trkpt>
      <trkpt lat="46.55543" lon="5.29628">
        <ele>202.80000305176</ele>
        <time>2020-10-28T13:46:47.000Z</time>
      </trkpt>
      <trkpt lat="46.55575" lon="5.29651">
        <ele>203</ele>
        <time>2020-10-28T13:46:52.000Z</time>
      </trkpt>
      <trkpt lat="46.55601" lon="5.29665">
        <ele>203.39999389648</ele>
        <time>2020-10-28T13:46:56.000Z</time>
      </trkpt>
      <trkpt lat="46.55639" lon="5.29684">
        <ele>204.19999694824</ele>
        <time>2020-10-28T13:47:02.000Z</time>
      </trkpt>
      <trkpt lat="46.55658" lon="5.29691">
        <ele>204.60000610352</ele>
        <time>2020-10-28T13:47:05.000Z</time>
      </trkpt>
      <trkpt lat="46.55671" lon="5.29694">
        <ele>204.60000610352</ele>
        <time>2020-10-28T13:47:07.000Z</time>
      </trkpt>
      <trkpt lat="46.55689" lon="5.29694">
        <ele>204.80000305176</ele>
        <time>2020-10-28T13:47:10.000Z</time>
      </trkpt>
      <trkpt lat="46.55706" lon="5.29695">
        <ele>205.39999389648</ele>
        <time>2020-10-28T13:47:13.000Z</time>
      </trkpt>
      <trkpt lat="46.55728" lon="5.297">
        <ele>206</ele>
        <time>2020-10-28T13:47:17.000Z</time>
      </trkpt>
      <trkpt lat="46.55738" lon="5.29704">
        <ele>206.60000610352</ele>
        <time>2020-10-28T13:47:19.000Z</time>
      </trkpt>
      <trkpt lat="46.55756" lon="5.29716">
        <ele>208</ele>
        <time>2020-10-28T13:47:23.000Z</time>
      </trkpt>
      <trkpt lat="46.55769" lon="5.29728">
        <ele>208.80000305176</ele>
        <time>2020-10-28T13:47:26.000Z</time>
      </trkpt>
      <trkpt lat="46.55773" lon="5.29733">
        <ele>209.19999694824</ele>
        <time>2020-10-28T13:47:27.000Z</time>
      </trkpt>
      <trkpt lat="46.55781" lon="5.29745">
        <ele>209.80000305176</ele>
        <time>2020-10-28T13:47:29.000Z</time>
      </trkpt>
      <trkpt lat="46.5579" lon="5.29757">
        <ele>210.39999389648</ele>
        <time>2020-10-28T13:47:31.000Z</time>
      </trkpt>
      <trkpt lat="46.55816" lon="5.29793">
        <ele>210.80000305176</ele>
        <time>2020-10-28T13:47:37.000Z</time>
      </trkpt>
      <trkpt lat="46.55838" lon="5.29823">
        <ele>211.39999389648</ele>
        <time>2020-10-28T13:47:42.000Z</time>
      </trkpt>
      <trkpt lat="46.55851" lon="5.29841">
        <ele>211.60000610352</ele>
        <time>2020-10-28T13:47:45.000Z</time>
      </trkpt>
      <trkpt lat="46.55888" lon="5.2989">
        <ele>211.80000305176</ele>
        <time>2020-10-28T13:47:52.000Z</time>
      </trkpt>
      <trkpt lat="46.55919" lon="5.29931">
        <ele>210.19999694824</ele>
        <time>2020-10-28T13:47:57.000Z</time>
      </trkpt>
      <trkpt lat="46.55932" lon="5.29949">
        <ele>209.39999389648</ele>
        <time>2020-10-28T13:47:59.000Z</time>
      </trkpt>
      <trkpt lat="46.55939" lon="5.29958">
        <ele>209</ele>
        <time>2020-10-28T13:48:00.000Z</time>
      </trkpt>
      <trkpt lat="46.55958" lon="5.29984">
        <ele>207.60000610352</ele>
        <time>2020-10-28T13:48:03.000Z</time>
      </trkpt>
      <trkpt lat="46.55977" lon="5.30008">
        <ele>206.60000610352</ele>
        <time>2020-10-28T13:48:06.000Z</time>
      </trkpt>
      <trkpt lat="46.55982" lon="5.30016">
        <ele>206.39999389648</ele>
        <time>2020-10-28T13:48:07.000Z</time>
      </trkpt>
      <trkpt lat="46.56012" lon="5.30056">
        <ele>206.19999694824</ele>
        <time>2020-10-28T13:48:13.000Z</time>
      </trkpt>
      <trkpt lat="46.56034" lon="5.30084">
        <ele>207.60000610352</ele>
        <time>2020-10-28T13:48:18.000Z</time>
      </trkpt>
      <trkpt lat="46.5605" lon="5.30106">
        <ele>209</ele>
        <time>2020-10-28T13:48:22.000Z</time>
      </trkpt>
      <trkpt lat="46.56066" lon="5.30126">
        <ele>210</ele>
        <time>2020-10-28T13:48:26.000Z</time>
      </trkpt>
      <trkpt lat="46.56075" lon="5.30137">
        <ele>210.80000305176</ele>
        <time>2020-10-28T13:48:28.000Z</time>
      </trkpt>
      <trkpt lat="46.56079" lon="5.30142">
        <ele>211.19999694824</ele>
        <time>2020-10-28T13:48:29.000Z</time>
      </trkpt>
      <trkpt lat="46.56106" lon="5.30179">
        <ele>212.19999694824</ele>
        <time>2020-10-28T13:48:35.000Z</time>
      </trkpt>
      <trkpt lat="46.5611" lon="5.30185">
        <ele>212.39999389648</ele>
        <time>2020-10-28T13:48:36.000Z</time>
      </trkpt>
      <trkpt lat="46.56151" lon="5.30241">
        <ele>212.60000610352</ele>
        <time>2020-10-28T13:48:45.000Z</time>
      </trkpt>
      <trkpt lat="46.5616" lon="5.30254">
        <ele>212.60000610352</ele>
        <time>2020-10-28T13:48:47.000Z</time>
      </trkpt>
      <trkpt lat="46.56202" lon="5.30313">
        <ele>212.80000305176</ele>
        <time>2020-10-28T13:48:56.000Z</time>
      </trkpt>
      <trkpt lat="46.56206" lon="5.3032">
        <ele>212.80000305176</ele>
        <time>2020-10-28T13:48:57.000Z</time>
      </trkpt>
      <trkpt lat="46.56234" lon="5.30372">
        <ele>212.60000610352</ele>
        <time>2020-10-28T13:49:04.000Z</time>
      </trkpt>
      <trkpt lat="46.56272" lon="5.30425">
        <ele>212.80000305176</ele>
        <time>2020-10-28T13:49:12.000Z</time>
      </trkpt>
      <trkpt lat="46.5631" lon="5.30477">
        <ele>213.39999389648</ele>
        <time>2020-10-28T13:49:20.000Z</time>
      </trkpt>
      <trkpt lat="46.56325" lon="5.30497">
        <ele>213.39999389648</ele>
        <time>2020-10-28T13:49:23.000Z</time>
      </trkpt>
      <trkpt lat="46.56363" lon="5.30549">
        <ele>213.39999389648</ele>
        <time>2020-10-28T13:49:31.000Z</time>
      </trkpt>
      <trkpt lat="46.56397" lon="5.30596">
        <ele>213.39999389648</ele>
        <time>2020-10-28T13:49:38.000Z</time>
      </trkpt>
      <trkpt lat="46.56405" lon="5.30609">
        <ele>213.39999389648</ele>
        <time>2020-10-28T13:49:40.000Z</time>
      </trkpt>
      <trkpt lat="46.56409" lon="5.3062">
        <ele>213.39999389648</ele>
        <time>2020-10-28T13:49:42.000Z</time>
      </trkpt>
      <trkpt lat="46.56416" lon="5.30629">
        <ele>213.19999694824</ele>
        <time>2020-10-28T13:49:45.000Z</time>
      </trkpt>
      <trkpt lat="46.56436" lon="5.30629">
        <ele>213</ele>
        <time>2020-10-28T13:49:49.000Z</time>
      </trkpt>
      <trkpt lat="46.56455" lon="5.30624">
        <ele>213</ele>
        <time>2020-10-28T13:49:52.000Z</time>
      </trkpt>
      <trkpt lat="46.56462" lon="5.30621">
        <ele>212.80000305176</ele>
        <time>2020-10-28T13:49:53.000Z</time>
      </trkpt>
      <trkpt lat="46.5651" lon="5.30611">
        <ele>212.39999389648</ele>
        <time>2020-10-28T13:50:00.000Z</time>
      </trkpt>
      <trkpt lat="46.56517" lon="5.30609">
        <ele>212.19999694824</ele>
        <time>2020-10-28T13:50:01.000Z</time>
      </trkpt>
      <trkpt lat="46.56572" lon="5.30601">
        <ele>211.39999389648</ele>
        <time>2020-10-28T13:50:09.000Z</time>
      </trkpt>
      <trkpt lat="46.56586" lon="5.30601">
        <ele>211.39999389648</ele>
        <time>2020-10-28T13:50:11.000Z</time>
      </trkpt>
      <trkpt lat="46.56641" lon="5.30609">
        <ele>211.39999389648</ele>
        <time>2020-10-28T13:50:19.000Z</time>
      </trkpt>
      <trkpt lat="46.56675" lon="5.30627">
        <ele>211.60000610352</ele>
        <time>2020-10-28T13:50:24.000Z</time>
      </trkpt>
      <trkpt lat="46.56682" lon="5.30632">
        <ele>211.60000610352</ele>
        <time>2020-10-28T13:50:25.000Z</time>
      </trkpt>
      <trkpt lat="46.5672" lon="5.30671">
        <ele>211.39999389648</ele>
        <time>2020-10-28T13:50:31.000Z</time>
      </trkpt>
      <trkpt lat="46.56725" lon="5.30679">
        <ele>211.19999694824</ele>
        <time>2020-10-28T13:50:32.000Z</time>
      </trkpt>
      <trkpt lat="46.56757" lon="5.30736">
        <ele>210.39999389648</ele>
        <time>2020-10-28T13:50:38.000Z</time>
      </trkpt>
      <trkpt lat="46.56776" lon="5.30777">
        <ele>209.19999694824</ele>
        <time>2020-10-28T13:50:42.000Z</time>
      </trkpt>
      <trkpt lat="46.56793" lon="5.30822">
        <ele>208.19999694824</ele>
        <time>2020-10-28T13:50:46.000Z</time>
      </trkpt>
      <trkpt lat="46.56796" lon="5.30834">
        <ele>208</ele>
        <time>2020-10-28T13:50:47.000Z</time>
      </trkpt>
      <trkpt lat="46.56804" lon="5.30883">
        <ele>206.80000305176</ele>
        <time>2020-10-28T13:50:51.000Z</time>
      </trkpt>
      <trkpt lat="46.56809" lon="5.30919">
        <ele>205.60000610352</ele>
        <time>2020-10-28T13:50:54.000Z</time>
      </trkpt>
      <trkpt lat="46.56811" lon="5.30955">
        <ele>205.39999389648</ele>
        <time>2020-10-28T13:50:57.000Z</time>
      </trkpt>
      <trkpt lat="46.56808" lon="5.3102">
        <ele>205.39999389648</ele>
        <time>2020-10-28T13:51:03.000Z</time>
      </trkpt>
      <trkpt lat="46.5681" lon="5.31061">
        <ele>205.80000305176</ele>
        <time>2020-10-28T13:51:07.000Z</time>
      </trkpt>
      <trkpt lat="46.56812" lon="5.31071">
        <ele>206</ele>
        <time>2020-10-28T13:51:08.000Z</time>
      </trkpt>
      <trkpt lat="46.56821" lon="5.31099">
        <ele>206.80000305176</ele>
        <time>2020-10-28T13:51:11.000Z</time>
      </trkpt>
      <trkpt lat="46.56829" lon="5.31115">
        <ele>207</ele>
        <time>2020-10-28T13:51:13.000Z</time>
      </trkpt>
      <trkpt lat="46.56847" lon="5.31142">
        <ele>207.19999694824</ele>
        <time>2020-10-28T13:51:17.000Z</time>
      </trkpt>
      <trkpt lat="46.56845" lon="5.31157">
        <ele>207.60000610352</ele>
        <time>2020-10-28T13:51:19.000Z</time>
      </trkpt>
      <trkpt lat="46.56834" lon="5.31162">
        <ele>207.60000610352</ele>
        <time>2020-10-28T13:51:21.000Z</time>
      </trkpt>
      <trkpt lat="46.5682" lon="5.31161">
        <ele>207.60000610352</ele>
        <time>2020-10-28T13:51:23.000Z</time>
      </trkpt>
      <trkpt lat="46.56798" lon="5.31163">
        <ele>207.60000610352</ele>
        <time>2020-10-28T13:51:26.000Z</time>
      </trkpt>
      <trkpt lat="46.5676" lon="5.3117">
        <ele>206.60000610352</ele>
        <time>2020-10-28T13:51:31.000Z</time>
      </trkpt>
      <trkpt lat="46.56745" lon="5.31173">
        <ele>206.39999389648</ele>
        <time>2020-10-28T13:51:33.000Z</time>
      </trkpt>
      <trkpt lat="46.56732" lon="5.31182">
        <ele>206.19999694824</ele>
        <time>2020-10-28T13:51:35.000Z</time>
      </trkpt>
      <trkpt lat="46.56725" lon="5.31201">
        <ele>205.60000610352</ele>
        <time>2020-10-28T13:51:37.000Z</time>
      </trkpt>
      <trkpt lat="46.56723" lon="5.31212">
        <ele>205.60000610352</ele>
        <time>2020-10-28T13:51:38.000Z</time>
      </trkpt>
      <trkpt lat="46.56722" lon="5.31233">
        <ele>205.39999389648</ele>
        <time>2020-10-28T13:51:40.000Z</time>
      </trkpt>
      <trkpt lat="46.56718" lon="5.31276">
        <ele>205.39999389648</ele>
        <time>2020-10-28T13:51:44.000Z</time>
      </trkpt>
      <trkpt lat="46.56711" lon="5.31358">
        <ele>205.80000305176</ele>
        <time>2020-10-28T13:51:52.000Z</time>
      </trkpt>
      <trkpt lat="46.56705" lon="5.31441">
        <ele>206.60000610352</ele>
        <time>2020-10-28T13:52:01.000Z</time>
      </trkpt>
      <trkpt lat="46.56704" lon="5.31449">
        <ele>206.80000305176</ele>
        <time>2020-10-28T13:52:02.000Z</time>
      </trkpt>
      <trkpt lat="46.56698" lon="5.31486">
        <ele>207.60000610352</ele>
        <time>2020-10-28T13:52:07.000Z</time>
      </trkpt>
      <trkpt lat="46.56696" lon="5.31492">
        <ele>208</ele>
        <time>2020-10-28T13:52:08.000Z</time>
      </trkpt>
      <trkpt lat="46.56692" lon="5.31512">
        <ele>209</ele>
        <time>2020-10-28T13:52:11.000Z</time>
      </trkpt>
      <trkpt lat="46.56688" lon="5.31531">
        <ele>210.19999694824</ele>
        <time>2020-10-28T13:52:14.000Z</time>
      </trkpt>
      <trkpt lat="46.56686" lon="5.31542">
        <ele>211</ele>
        <time>2020-10-28T13:52:16.000Z</time>
      </trkpt>
      <trkpt lat="46.56685" lon="5.31548">
        <ele>211.80000305176</ele>
        <time>2020-10-28T13:52:17.000Z</time>
      </trkpt>
      <trkpt lat="46.56682" lon="5.3156">
        <ele>212.19999694824</ele>
        <time>2020-10-28T13:52:19.000Z</time>
      </trkpt>
      <trkpt lat="46.56679" lon="5.31572">
        <ele>212.80000305176</ele>
        <time>2020-10-28T13:52:21.000Z</time>
      </trkpt>
      <trkpt lat="46.56678" lon="5.31577">
        <ele>213</ele>
        <time>2020-10-28T13:52:22.000Z</time>
      </trkpt>
      <trkpt lat="46.56675" lon="5.31583">
        <ele>213.19999694824</ele>
        <time>2020-10-28T13:52:23.000Z</time>
      </trkpt>
      <trkpt lat="46.56669" lon="5.31592">
        <ele>213.80000305176</ele>
        <time>2020-10-28T13:52:25.000Z</time>
      </trkpt>
      <trkpt lat="46.56661" lon="5.31598">
        <ele>214.60000610352</ele>
        <time>2020-10-28T13:52:27.000Z</time>
      </trkpt>
      <trkpt lat="46.56656" lon="5.31601">
        <ele>215</ele>
        <time>2020-10-28T13:52:28.000Z</time>
      </trkpt>
      <trkpt lat="46.56641" lon="5.31602">
        <ele>215.80000305176</ele>
        <time>2020-10-28T13:52:31.000Z</time>
      </trkpt>
      <trkpt lat="46.56635" lon="5.31601">
        <ele>215.80000305176</ele>
        <time>2020-10-28T13:52:32.000Z</time>
      </trkpt>
      <trkpt lat="46.5663" lon="5.31601">
        <ele>215.80000305176</ele>
        <time>2020-10-28T13:52:33.000Z</time>
      </trkpt>
      <trkpt lat="46.56607" lon="5.31603">
        <ele>215.80000305176</ele>
        <time>2020-10-28T13:52:37.000Z</time>
      </trkpt>
      <trkpt lat="46.56592" lon="5.31617">
        <ele>215.80000305176</ele>
        <time>2020-10-28T13:52:40.000Z</time>
      </trkpt>
      <trkpt lat="46.56585" lon="5.31631">
        <ele>215.80000305176</ele>
        <time>2020-10-28T13:52:42.000Z</time>
      </trkpt>
      <trkpt lat="46.56566" lon="5.3167">
        <ele>215.60000610352</ele>
        <time>2020-10-28T13:52:47.000Z</time>
      </trkpt>
      <trkpt lat="46.56537" lon="5.31732">
        <ele>215.60000610352</ele>
        <time>2020-10-28T13:52:55.000Z</time>
      </trkpt>
      <trkpt lat="46.56521" lon="5.31779">
        <ele>215.60000610352</ele>
        <time>2020-10-28T13:53:01.000Z</time>
      </trkpt>
      <trkpt lat="46.56513" lon="5.31817">
        <ele>216.19999694824</ele>
        <time>2020-10-28T13:53:06.000Z</time>
      </trkpt>
      <trkpt lat="46.56509" lon="5.31838">
        <ele>217</ele>
        <time>2020-10-28T13:53:09.000Z</time>
      </trkpt>
      <trkpt lat="46.56505" lon="5.31852">
        <ele>217.19999694824</ele>
        <time>2020-10-28T13:53:11.000Z</time>
      </trkpt>
      <trkpt lat="46.56496" lon="5.31881">
        <ele>217.60000610352</ele>
        <time>2020-10-28T13:53:15.000Z</time>
      </trkpt>
      <trkpt lat="46.5648" lon="5.31931">
        <ele>217.80000305176</ele>
        <time>2020-10-28T13:53:22.000Z</time>
      </trkpt>
      <trkpt lat="46.56474" lon="5.31944">
        <ele>218</ele>
        <time>2020-10-28T13:53:26.000Z</time>
      </trkpt>
      <trkpt lat="46.56464" lon="5.31946">
        <ele>218</ele>
        <time>2020-10-28T13:53:30.000Z</time>
      </trkpt>
      <trkpt lat="46.56454" lon="5.31946">
        <ele>218</ele>
        <time>2020-10-28T13:53:32.000Z</time>
      </trkpt>
      <trkpt lat="46.56443" lon="5.31947">
        <ele>218</ele>
        <time>2020-10-28T13:53:34.000Z</time>
      </trkpt>
      <trkpt lat="46.56404" lon="5.31955">
        <ele>217.39999389648</ele>
        <time>2020-10-28T13:53:40.000Z</time>
      </trkpt>
      <trkpt lat="46.5639" lon="5.31961">
        <ele>217.19999694824</ele>
        <time>2020-10-28T13:53:42.000Z</time>
      </trkpt>
      <trkpt lat="46.56377" lon="5.3197">
        <ele>216.80000305176</ele>
        <time>2020-10-28T13:53:44.000Z</time>
      </trkpt>
      <trkpt lat="46.56359" lon="5.31983">
        <ele>216.19999694824</ele>
        <time>2020-10-28T13:53:47.000Z</time>
      </trkpt>
      <trkpt lat="46.56334" lon="5.32">
        <ele>215.60000610352</ele>
        <time>2020-10-28T13:53:51.000Z</time>
      </trkpt>
      <trkpt lat="46.56286" lon="5.32036">
        <ele>215.60000610352</ele>
        <time>2020-10-28T13:53:59.000Z</time>
      </trkpt>
      <trkpt lat="46.56274" lon="5.32046">
        <ele>215.80000305176</ele>
        <time>2020-10-28T13:54:01.000Z</time>
      </trkpt>
      <trkpt lat="46.56237" lon="5.32087">
        <ele>216.39999389648</ele>
        <time>2020-10-28T13:54:08.000Z</time>
      </trkpt>
      <trkpt lat="46.56196" lon="5.32142">
        <ele>216.60000610352</ele>
        <time>2020-10-28T13:54:16.000Z</time>
      </trkpt>
      <trkpt lat="46.5615" lon="5.32201">
        <ele>216</ele>
        <time>2020-10-28T13:54:24.000Z</time>
      </trkpt>
      <trkpt lat="46.56107" lon="5.32254">
        <ele>215.19999694824</ele>
        <time>2020-10-28T13:54:31.000Z</time>
      </trkpt>
      <trkpt lat="46.56101" lon="5.32262">
        <ele>215.19999694824</ele>
        <time>2020-10-28T13:54:32.000Z</time>
      </trkpt>
      <trkpt lat="46.56068" lon="5.32302">
        <ele>214</ele>
        <time>2020-10-28T13:54:37.000Z</time>
      </trkpt>
      <trkpt lat="46.56061" lon="5.3231">
        <ele>213.80000305176</ele>
        <time>2020-10-28T13:54:38.000Z</time>
      </trkpt>
      <trkpt lat="46.56026" lon="5.32353">
        <ele>212.60000610352</ele>
        <time>2020-10-28T13:54:43.000Z</time>
      </trkpt>
      <trkpt lat="46.56007" lon="5.32384">
        <ele>211.19999694824</ele>
        <time>2020-10-28T13:54:46.000Z</time>
      </trkpt>
      <trkpt lat="46.55997" lon="5.32406">
        <ele>210.39999389648</ele>
        <time>2020-10-28T13:54:48.000Z</time>
      </trkpt>
      <trkpt lat="46.55992" lon="5.32417">
        <ele>210.19999694824</ele>
        <time>2020-10-28T13:54:49.000Z</time>
      </trkpt>
      <trkpt lat="46.55973" lon="5.32462">
        <ele>209</ele>
        <time>2020-10-28T13:54:53.000Z</time>
      </trkpt>
      <trkpt lat="46.5596" lon="5.32495">
        <ele>208.39999389648</ele>
        <time>2020-10-28T13:54:56.000Z</time>
      </trkpt>
      <trkpt lat="46.55947" lon="5.32526">
        <ele>208</ele>
        <time>2020-10-28T13:54:59.000Z</time>
      </trkpt>
      <trkpt lat="46.55929" lon="5.32567">
        <ele>207.60000610352</ele>
        <time>2020-10-28T13:55:03.000Z</time>
      </trkpt>
      <trkpt lat="46.55901" lon="5.32624">
        <ele>207.39999389648</ele>
        <time>2020-10-28T13:55:09.000Z</time>
      </trkpt>
      <trkpt lat="46.55874" lon="5.32649">
        <ele>207.19999694824</ele>
        <time>2020-10-28T13:55:13.000Z</time>
      </trkpt>
      <trkpt lat="46.55852" lon="5.32657">
        <ele>207</ele>
        <time>2020-10-28T13:55:16.000Z</time>
      </trkpt>
      <trkpt lat="46.55845" lon="5.32658">
        <ele>207</ele>
        <time>2020-10-28T13:55:17.000Z</time>
      </trkpt>
      <trkpt lat="46.558" lon="5.32662">
        <ele>207</ele>
        <time>2020-10-28T13:55:23.000Z</time>
      </trkpt>
      <trkpt lat="46.55772" lon="5.32675">
        <ele>207</ele>
        <time>2020-10-28T13:55:27.000Z</time>
      </trkpt>
      <trkpt lat="46.55766" lon="5.3268">
        <ele>207</ele>
        <time>2020-10-28T13:55:28.000Z</time>
      </trkpt>
      <trkpt lat="46.55751" lon="5.32701">
        <ele>207.39999389648</ele>
        <time>2020-10-28T13:55:31.000Z</time>
      </trkpt>
      <trkpt lat="46.55742" lon="5.32729">
        <ele>207.39999389648</ele>
        <time>2020-10-28T13:55:34.000Z</time>
      </trkpt>
      <trkpt lat="46.55738" lon="5.32749">
        <ele>207.39999389648</ele>
        <time>2020-10-28T13:55:36.000Z</time>
      </trkpt>
      <trkpt lat="46.5572" lon="5.32829">
        <ele>208.39999389648</ele>
        <time>2020-10-28T13:55:44.000Z</time>
      </trkpt>
      <trkpt lat="46.55715" lon="5.3286">
        <ele>208.60000610352</ele>
        <time>2020-10-28T13:55:47.000Z</time>
      </trkpt>
      <trkpt lat="46.55701" lon="5.32943">
        <ele>208.60000610352</ele>
        <time>2020-10-28T13:55:55.000Z</time>
      </trkpt>
      <trkpt lat="46.55695" lon="5.32976">
        <ele>208.39999389648</ele>
        <time>2020-10-28T13:55:58.000Z</time>
      </trkpt>
      <trkpt lat="46.55682" lon="5.33053">
        <ele>207.60000610352</ele>
        <time>2020-10-28T13:56:05.000Z</time>
      </trkpt>
      <trkpt lat="46.55677" lon="5.33074">
        <ele>207.39999389648</ele>
        <time>2020-10-28T13:56:07.000Z</time>
      </trkpt>
      <trkpt lat="46.55658" lon="5.33156">
        <ele>207</ele>
        <time>2020-10-28T13:56:15.000Z</time>
      </trkpt>
      <trkpt lat="46.55656" lon="5.33166">
        <ele>207</ele>
        <time>2020-10-28T13:56:16.000Z</time>
      </trkpt>
      <trkpt lat="46.55654" lon="5.33176">
        <ele>207</ele>
        <time>2020-10-28T13:56:17.000Z</time>
      </trkpt>
      <trkpt lat="46.5564" lon="5.33224">
        <ele>207</ele>
        <time>2020-10-28T13:56:22.000Z</time>
      </trkpt>
      <trkpt lat="46.55617" lon="5.333">
        <ele>207.39999389648</ele>
        <time>2020-10-28T13:56:30.000Z</time>
      </trkpt>
      <trkpt lat="46.55614" lon="5.3331">
        <ele>207.39999389648</ele>
        <time>2020-10-28T13:56:31.000Z</time>
      </trkpt>
      <trkpt lat="46.55598" lon="5.33376">
        <ele>207.80000305176</ele>
        <time>2020-10-28T13:56:38.000Z</time>
      </trkpt>
      <trkpt lat="46.55593" lon="5.33431">
        <ele>208</ele>
        <time>2020-10-28T13:56:44.000Z</time>
      </trkpt>
      <trkpt lat="46.55592" lon="5.33449">
        <ele>208.39999389648</ele>
        <time>2020-10-28T13:56:46.000Z</time>
      </trkpt>
      <trkpt lat="46.55588" lon="5.33474">
        <ele>208.80000305176</ele>
        <time>2020-10-28T13:56:49.000Z</time>
      </trkpt>
      <trkpt lat="46.55584" lon="5.33489">
        <ele>209.19999694824</ele>
        <time>2020-10-28T13:56:51.000Z</time>
      </trkpt>
      <trkpt lat="46.55575" lon="5.33509">
        <ele>209.80000305176</ele>
        <time>2020-10-28T13:56:54.000Z</time>
      </trkpt>
      <trkpt lat="46.55572" lon="5.33515">
        <ele>210</ele>
        <time>2020-10-28T13:56:55.000Z</time>
      </trkpt>
      <trkpt lat="46.5556" lon="5.33531">
        <ele>210.39999389648</ele>
        <time>2020-10-28T13:56:58.000Z</time>
      </trkpt>
      <trkpt lat="46.55548" lon="5.33546">
        <ele>211.19999694824</ele>
        <time>2020-10-28T13:57:01.000Z</time>
      </trkpt>
      <trkpt lat="46.55545" lon="5.33551">
        <ele>211.60000610352</ele>
        <time>2020-10-28T13:57:02.000Z</time>
      </trkpt>
      <trkpt lat="46.55533" lon="5.33566">
        <ele>212.60000610352</ele>
        <time>2020-10-28T13:57:05.000Z</time>
      </trkpt>
      <trkpt lat="46.5552" lon="5.33585">
        <ele>213.60000610352</ele>
        <time>2020-10-28T13:57:09.000Z</time>
      </trkpt>
      <trkpt lat="46.55517" lon="5.33589">
        <ele>214</ele>
        <time>2020-10-28T13:57:10.000Z</time>
      </trkpt>
      <trkpt lat="46.55511" lon="5.33596">
        <ele>214.60000610352</ele>
        <time>2020-10-28T13:57:12.000Z</time>
      </trkpt>
      <trkpt lat="46.5549" lon="5.33623">
        <ele>215.80000305176</ele>
        <time>2020-10-28T13:57:18.000Z</time>
      </trkpt>
      <trkpt lat="46.55486" lon="5.33628">
        <ele>216</ele>
        <time>2020-10-28T13:57:19.000Z</time>
      </trkpt>
      <trkpt lat="46.55457" lon="5.3367">
        <ele>217</ele>
        <time>2020-10-28T13:57:27.000Z</time>
      </trkpt>
      <trkpt lat="46.55453" lon="5.33675">
        <ele>217</ele>
        <time>2020-10-28T13:57:28.000Z</time>
      </trkpt>
      <trkpt lat="46.55428" lon="5.33709">
        <ele>217.19999694824</ele>
        <time>2020-10-28T13:57:34.000Z</time>
      </trkpt>
      <trkpt lat="46.55402" lon="5.33739">
        <ele>217.19999694824</ele>
        <time>2020-10-28T13:57:40.000Z</time>
      </trkpt>
      <trkpt lat="46.5537" lon="5.33762">
        <ele>217.19999694824</ele>
        <time>2020-10-28T13:57:46.000Z</time>
      </trkpt>
      <trkpt lat="46.55341" lon="5.33791">
        <ele>217</ele>
        <time>2020-10-28T13:57:52.000Z</time>
      </trkpt>
      <trkpt lat="46.55304" lon="5.33831">
        <ele>217.19999694824</ele>
        <time>2020-10-28T13:58:00.000Z</time>
      </trkpt>
      <trkpt lat="46.55279" lon="5.33866">
        <ele>217.39999389648</ele>
        <time>2020-10-28T13:58:06.000Z</time>
      </trkpt>
      <trkpt lat="46.55265" lon="5.33893">
        <ele>218</ele>
        <time>2020-10-28T13:58:10.000Z</time>
      </trkpt>
      <trkpt lat="46.55249" lon="5.33921">
        <ele>218.19999694824</ele>
        <time>2020-10-28T13:58:14.000Z</time>
      </trkpt>
      <trkpt lat="46.55221" lon="5.33959">
        <ele>218.19999694824</ele>
        <time>2020-10-28T13:58:20.000Z</time>
      </trkpt>
      <trkpt lat="46.55194" lon="5.33994">
        <ele>218</ele>
        <time>2020-10-28T13:58:26.000Z</time>
      </trkpt>
      <trkpt lat="46.55191" lon="5.33999">
        <ele>218</ele>
        <time>2020-10-28T13:58:27.000Z</time>
      </trkpt>
      <trkpt lat="46.55185" lon="5.3402">
        <ele>218</ele>
        <time>2020-10-28T13:58:30.000Z</time>
      </trkpt>
      <trkpt lat="46.55179" lon="5.34053">
        <ele>218</ele>
        <time>2020-10-28T13:58:34.000Z</time>
      </trkpt>
      <trkpt lat="46.55165" lon="5.34078">
        <ele>218</ele>
        <time>2020-10-28T13:58:38.000Z</time>
      </trkpt>
      <trkpt lat="46.55159" lon="5.34083">
        <ele>218.19999694824</ele>
        <time>2020-10-28T13:58:39.000Z</time>
      </trkpt>
      <trkpt lat="46.55132" lon="5.34118">
        <ele>218.39999389648</ele>
        <time>2020-10-28T13:58:45.000Z</time>
      </trkpt>
      <trkpt lat="46.55093" lon="5.34164">
        <ele>218.80000305176</ele>
        <time>2020-10-28T13:58:53.000Z</time>
      </trkpt>
      <trkpt lat="46.55073" lon="5.34184">
        <ele>218.80000305176</ele>
        <time>2020-10-28T13:58:57.000Z</time>
      </trkpt>
      <trkpt lat="46.55054" lon="5.34205">
        <ele>219</ele>
        <time>2020-10-28T13:59:01.000Z</time>
      </trkpt>
      <trkpt lat="46.55027" lon="5.34233">
        <ele>219</ele>
        <time>2020-10-28T13:59:07.000Z</time>
      </trkpt>
      <trkpt lat="46.55001" lon="5.34265">
        <ele>219</ele>
        <time>2020-10-28T13:59:13.000Z</time>
      </trkpt>
      <trkpt lat="46.54967" lon="5.34307">
        <ele>219.80000305176</ele>
        <time>2020-10-28T13:59:20.000Z</time>
      </trkpt>
      <trkpt lat="46.54935" lon="5.34338">
        <ele>219.80000305176</ele>
        <time>2020-10-28T13:59:26.000Z</time>
      </trkpt>
      <trkpt lat="46.54891" lon="5.34378">
        <ele>220.19999694824</ele>
        <time>2020-10-28T13:59:34.000Z</time>
      </trkpt>
      <trkpt lat="46.54853" lon="5.34406">
        <ele>220.19999694824</ele>
        <time>2020-10-28T13:59:40.000Z</time>
      </trkpt>
      <trkpt lat="46.54811" lon="5.34426">
        <ele>219.39999389648</ele>
        <time>2020-10-28T13:59:46.000Z</time>
      </trkpt>
      <trkpt lat="46.54783" lon="5.34435">
        <ele>218.80000305176</ele>
        <time>2020-10-28T13:59:50.000Z</time>
      </trkpt>
      <trkpt lat="46.54754" lon="5.34443">
        <ele>218.60000610352</ele>
        <time>2020-10-28T13:59:54.000Z</time>
      </trkpt>
      <trkpt lat="46.54698" lon="5.34465">
        <ele>218.80000305176</ele>
        <time>2020-10-28T14:00:02.000Z</time>
      </trkpt>
      <trkpt lat="46.54666" lon="5.34487">
        <ele>219.80000305176</ele>
        <time>2020-10-28T14:00:07.000Z</time>
      </trkpt>
      <trkpt lat="46.54647" lon="5.34503">
        <ele>219.80000305176</ele>
        <time>2020-10-28T14:00:10.000Z</time>
      </trkpt>
      <trkpt lat="46.54603" lon="5.34542">
        <ele>219.80000305176</ele>
        <time>2020-10-28T14:00:17.000Z</time>
      </trkpt>
      <trkpt lat="46.54563" lon="5.34577">
        <ele>219.39999389648</ele>
        <time>2020-10-28T14:00:22.000Z</time>
      </trkpt>
      <trkpt lat="46.54537" lon="5.346">
        <ele>218.39999389648</ele>
        <time>2020-10-28T14:00:25.000Z</time>
      </trkpt>
      <trkpt lat="46.54522" lon="5.34618">
        <ele>217</ele>
        <time>2020-10-28T14:00:27.000Z</time>
      </trkpt>
      <trkpt lat="46.54509" lon="5.34637">
        <ele>215.19999694824</ele>
        <time>2020-10-28T14:00:29.000Z</time>
      </trkpt>
      <trkpt lat="46.54497" lon="5.34656">
        <ele>213.80000305176</ele>
        <time>2020-10-28T14:00:31.000Z</time>
      </trkpt>
      <trkpt lat="46.5449" lon="5.34664">
        <ele>213.19999694824</ele>
        <time>2020-10-28T14:00:32.000Z</time>
      </trkpt>
      <trkpt lat="46.54483" lon="5.34671">
        <ele>212.39999389648</ele>
        <time>2020-10-28T14:00:33.000Z</time>
      </trkpt>
      <trkpt lat="46.54453" lon="5.34693">
        <ele>212</ele>
        <time>2020-10-28T14:00:37.000Z</time>
      </trkpt>
      <trkpt lat="46.544" lon="5.34724">
        <ele>212</ele>
        <time>2020-10-28T14:00:44.000Z</time>
      </trkpt>
      <trkpt lat="46.54354" lon="5.34738">
        <ele>212.39999389648</ele>
        <time>2020-10-28T14:00:50.000Z</time>
      </trkpt>
      <trkpt lat="46.54347" lon="5.34742">
        <ele>212.39999389648</ele>
        <time>2020-10-28T14:00:51.000Z</time>
      </trkpt>
      <trkpt lat="46.54325" lon="5.34758">
        <ele>212.39999389648</ele>
        <time>2020-10-28T14:00:54.000Z</time>
      </trkpt>
      <trkpt lat="46.54286" lon="5.34798">
        <ele>211.80000305176</ele>
        <time>2020-10-28T14:01:00.000Z</time>
      </trkpt>
      <trkpt lat="46.54253" lon="5.34842">
        <ele>211.80000305176</ele>
        <time>2020-10-28T14:01:06.000Z</time>
      </trkpt>
      <trkpt lat="46.54229" lon="5.34882">
        <ele>212</ele>
        <time>2020-10-28T14:01:11.000Z</time>
      </trkpt>
      <trkpt lat="46.54224" lon="5.34888">
        <ele>212</ele>
        <time>2020-10-28T14:01:12.000Z</time>
      </trkpt>
      <trkpt lat="46.54186" lon="5.34925">
        <ele>212.60000610352</ele>
        <time>2020-10-28T14:01:19.000Z</time>
      </trkpt>
      <trkpt lat="46.54152" lon="5.34964">
        <ele>213.19999694824</ele>
        <time>2020-10-28T14:01:26.000Z</time>
      </trkpt>
      <trkpt lat="46.54143" lon="5.34974">
        <ele>213.80000305176</ele>
        <time>2020-10-28T14:01:28.000Z</time>
      </trkpt>
      <trkpt lat="46.54128" lon="5.34985">
        <ele>214.19999694824</ele>
        <time>2020-10-28T14:01:31.000Z</time>
      </trkpt>
      <trkpt lat="46.54113" lon="5.34993">
        <ele>214.80000305176</ele>
        <time>2020-10-28T14:01:34.000Z</time>
      </trkpt>
      <trkpt lat="46.54092" lon="5.35002">
        <ele>215.39999389648</ele>
        <time>2020-10-28T14:01:38.000Z</time>
      </trkpt>
      <trkpt lat="46.54073" lon="5.3501">
        <ele>216</ele>
        <time>2020-10-28T14:01:42.000Z</time>
      </trkpt>
      <trkpt lat="46.54058" lon="5.35017">
        <ele>216.60000610352</ele>
        <time>2020-10-28T14:01:45.000Z</time>
      </trkpt>
      <trkpt lat="46.54031" lon="5.35036">
        <ele>217.19999694824</ele>
        <time>2020-10-28T14:01:51.000Z</time>
      </trkpt>
      <trkpt lat="46.54022" lon="5.35043">
        <ele>217.60000610352</ele>
        <time>2020-10-28T14:01:53.000Z</time>
      </trkpt>
      <trkpt lat="46.54008" lon="5.35056">
        <ele>218.39999389648</ele>
        <time>2020-10-28T14:01:56.000Z</time>
      </trkpt>
      <trkpt lat="46.53995" lon="5.35071">
        <ele>218.80000305176</ele>
        <time>2020-10-28T14:01:59.000Z</time>
      </trkpt>
      <trkpt lat="46.53982" lon="5.35087">
        <ele>219.39999389648</ele>
        <time>2020-10-28T14:02:02.000Z</time>
      </trkpt>
      <trkpt lat="46.53964" lon="5.35109">
        <ele>219.80000305176</ele>
        <time>2020-10-28T14:02:06.000Z</time>
      </trkpt>
      <trkpt lat="46.53937" lon="5.35138">
        <ele>220.60000610352</ele>
        <time>2020-10-28T14:02:12.000Z</time>
      </trkpt>
      <trkpt lat="46.53932" lon="5.35142">
        <ele>220.80000305176</ele>
        <time>2020-10-28T14:02:13.000Z</time>
      </trkpt>
      <trkpt lat="46.53896" lon="5.35168">
        <ele>221.19999694824</ele>
        <time>2020-10-28T14:02:20.000Z</time>
      </trkpt>
      <trkpt lat="46.53856" lon="5.35196">
        <ele>221.60000610352</ele>
        <time>2020-10-28T14:02:28.000Z</time>
      </trkpt>
      <trkpt lat="46.53813" lon="5.35229">
        <ele>222.39999389648</ele>
        <time>2020-10-28T14:02:37.000Z</time>
      </trkpt>
      <trkpt lat="46.53799" lon="5.35243">
        <ele>222.80000305176</ele>
        <time>2020-10-28T14:02:40.000Z</time>
      </trkpt>
      <trkpt lat="46.53782" lon="5.35264">
        <ele>223.19999694824</ele>
        <time>2020-10-28T14:02:44.000Z</time>
      </trkpt>
      <trkpt lat="46.53766" lon="5.35289">
        <ele>223.80000305176</ele>
        <time>2020-10-28T14:02:48.000Z</time>
      </trkpt>
      <trkpt lat="46.53754" lon="5.35312">
        <ele>224</ele>
        <time>2020-10-28T14:02:51.000Z</time>
      </trkpt>
      <trkpt lat="46.53738" lon="5.3536">
        <ele>223.80000305176</ele>
        <time>2020-10-28T14:02:56.000Z</time>
      </trkpt>
      <trkpt lat="46.53729" lon="5.35418">
        <ele>222.80000305176</ele>
        <time>2020-10-28T14:03:01.000Z</time>
      </trkpt>
      <trkpt lat="46.53728" lon="5.3543">
        <ele>222.39999389648</ele>
        <time>2020-10-28T14:03:02.000Z</time>
      </trkpt>
      <trkpt lat="46.53726" lon="5.35456">
        <ele>221.39999389648</ele>
        <time>2020-10-28T14:03:04.000Z</time>
      </trkpt>
      <trkpt lat="46.53727" lon="5.35493">
        <ele>220.19999694824</ele>
        <time>2020-10-28T14:03:07.000Z</time>
      </trkpt>
      <trkpt lat="46.53732" lon="5.3553">
        <ele>219.19999694824</ele>
        <time>2020-10-28T14:03:10.000Z</time>
      </trkpt>
      <trkpt lat="46.53737" lon="5.35553">
        <ele>218.60000610352</ele>
        <time>2020-10-28T14:03:12.000Z</time>
      </trkpt>
      <trkpt lat="46.5375" lon="5.35598">
        <ele>218.19999694824</ele>
        <time>2020-10-28T14:03:16.000Z</time>
      </trkpt>
      <trkpt lat="46.53752" lon="5.3561">
        <ele>218.19999694824</ele>
        <time>2020-10-28T14:03:17.000Z</time>
      </trkpt>
      <trkpt lat="46.53753" lon="5.35622">
        <ele>218.19999694824</ele>
        <time>2020-10-28T14:03:18.000Z</time>
      </trkpt>
      <trkpt lat="46.53752" lon="5.35679">
        <ele>218</ele>
        <time>2020-10-28T14:03:23.000Z</time>
      </trkpt>
      <trkpt lat="46.53739" lon="5.35732">
        <ele>217.80000305176</ele>
        <time>2020-10-28T14:03:28.000Z</time>
      </trkpt>
      <trkpt lat="46.53724" lon="5.35768">
        <ele>217.80000305176</ele>
        <time>2020-10-28T14:03:32.000Z</time>
      </trkpt>
      <trkpt lat="46.53719" lon="5.35776">
        <ele>217.80000305176</ele>
        <time>2020-10-28T14:03:33.000Z</time>
      </trkpt>
      <trkpt lat="46.53683" lon="5.35829">
        <ele>218.19999694824</ele>
        <time>2020-10-28T14:03:41.000Z</time>
      </trkpt>
      <trkpt lat="46.53663" lon="5.35857">
        <ele>219.39999389648</ele>
        <time>2020-10-28T14:03:46.000Z</time>
      </trkpt>
      <trkpt lat="46.53651" lon="5.35873">
        <ele>220.19999694824</ele>
        <time>2020-10-28T14:03:49.000Z</time>
      </trkpt>
      <trkpt lat="46.53647" lon="5.35877">
        <ele>220.80000305176</ele>
        <time>2020-10-28T14:03:50.000Z</time>
      </trkpt>
      <trkpt lat="46.53636" lon="5.35878">
        <ele>221.39999389648</ele>
        <time>2020-10-28T14:03:52.000Z</time>
      </trkpt>
      <trkpt lat="46.5363" lon="5.35876">
        <ele>221.80000305176</ele>
        <time>2020-10-28T14:03:53.000Z</time>
      </trkpt>
      <trkpt lat="46.53624" lon="5.35874">
        <ele>222.39999389648</ele>
        <time>2020-10-28T14:03:54.000Z</time>
      </trkpt>
      <trkpt lat="46.53618" lon="5.35871">
        <ele>223.19999694824</ele>
        <time>2020-10-28T14:03:55.000Z</time>
      </trkpt>
      <trkpt lat="46.53607" lon="5.35866">
        <ele>224.19999694824</ele>
        <time>2020-10-28T14:03:57.000Z</time>
      </trkpt>
      <trkpt lat="46.53603" lon="5.35865">
        <ele>224.39999389648</ele>
        <time>2020-10-28T14:03:58.000Z</time>
      </trkpt>
      <trkpt lat="46.53598" lon="5.35863">
        <ele>225</ele>
        <time>2020-10-28T14:04:00.000Z</time>
      </trkpt>
      <trkpt lat="46.53591" lon="5.3586">
        <ele>225.39999389648</ele>
        <time>2020-10-28T14:04:04.000Z</time>
      </trkpt>
      <trkpt lat="46.53587" lon="5.3586">
        <ele>226.80000305176</ele>
        <time>2020-10-28T14:04:07.000Z</time>
      </trkpt>
      <trkpt lat="46.53576" lon="5.35857">
        <ele>227.80000305176</ele>
        <time>2020-10-28T14:04:13.000Z</time>
      </trkpt>
      <trkpt lat="46.53573" lon="5.35856">
        <ele>227.80000305176</ele>
        <time>2020-10-28T14:04:14.000Z</time>
      </trkpt>
      <trkpt lat="46.53557" lon="5.35852">
        <ele>228</ele>
        <time>2020-10-28T14:04:19.000Z</time>
      </trkpt>
      <trkpt lat="46.53545" lon="5.35849">
        <ele>228</ele>
        <time>2020-10-28T14:04:22.000Z</time>
      </trkpt>
      <trkpt lat="46.53536" lon="5.35847">
        <ele>228</ele>
        <time>2020-10-28T14:04:24.000Z</time>
      </trkpt>
      <trkpt lat="46.53512" lon="5.35844">
        <ele>227.60000610352</ele>
        <time>2020-10-28T14:04:29.000Z</time>
      </trkpt>
      <trkpt lat="46.53507" lon="5.35845">
        <ele>227.60000610352</ele>
        <time>2020-10-28T14:04:30.000Z</time>
      </trkpt>
      <trkpt lat="46.53474" lon="5.35859">
        <ele>227.39999389648</ele>
        <time>2020-10-28T14:04:36.000Z</time>
      </trkpt>
      <trkpt lat="46.53468" lon="5.35862">
        <ele>227.39999389648</ele>
        <time>2020-10-28T14:04:37.000Z</time>
      </trkpt>
      <trkpt lat="46.53448" lon="5.35863">
        <ele>227.39999389648</ele>
        <time>2020-10-28T14:04:40.000Z</time>
      </trkpt>
      <trkpt lat="46.53426" lon="5.35861">
        <ele>226.60000610352</ele>
        <time>2020-10-28T14:04:43.000Z</time>
      </trkpt>
      <trkpt lat="46.53387" lon="5.35857">
        <ele>225.60000610352</ele>
        <time>2020-10-28T14:04:48.000Z</time>
      </trkpt>
      <trkpt lat="46.53354" lon="5.35857">
        <ele>224.39999389648</ele>
        <time>2020-10-28T14:04:52.000Z</time>
      </trkpt>
      <trkpt lat="46.53338" lon="5.35861">
        <ele>223.39999389648</ele>
        <time>2020-10-28T14:04:54.000Z</time>
      </trkpt>
      <trkpt lat="46.53304" lon="5.35873">
        <ele>222</ele>
        <time>2020-10-28T14:04:58.000Z</time>
      </trkpt>
      <trkpt lat="46.53272" lon="5.35888">
        <ele>221.19999694824</ele>
        <time>2020-10-28T14:05:02.000Z</time>
      </trkpt>
      <trkpt lat="46.53256" lon="5.35895">
        <ele>220.80000305176</ele>
        <time>2020-10-28T14:05:04.000Z</time>
      </trkpt>
      <trkpt lat="46.53218" lon="5.35911">
        <ele>220.39999389648</ele>
        <time>2020-10-28T14:05:09.000Z</time>
      </trkpt>
      <trkpt lat="46.5319" lon="5.35925">
        <ele>220.39999389648</ele>
        <time>2020-10-28T14:05:13.000Z</time>
      </trkpt>
      <trkpt lat="46.53184" lon="5.35931">
        <ele>220.39999389648</ele>
        <time>2020-10-28T14:05:14.000Z</time>
      </trkpt>
      <trkpt lat="46.5317" lon="5.35954">
        <ele>220.80000305176</ele>
        <time>2020-10-28T14:05:17.000Z</time>
      </trkpt>
      <trkpt lat="46.53166" lon="5.35963">
        <ele>220.80000305176</ele>
        <time>2020-10-28T14:05:18.000Z</time>
      </trkpt>
      <trkpt lat="46.53131" lon="5.36026">
        <ele>220.80000305176</ele>
        <time>2020-10-28T14:05:25.000Z</time>
      </trkpt>
      <trkpt lat="46.53107" lon="5.36072">
        <ele>219.80000305176</ele>
        <time>2020-10-28T14:05:30.000Z</time>
      </trkpt>
      <trkpt lat="46.53102" lon="5.36082">
        <ele>219.60000610352</ele>
        <time>2020-10-28T14:05:31.000Z</time>
      </trkpt>
      <trkpt lat="46.53085" lon="5.3611">
        <ele>219.19999694824</ele>
        <time>2020-10-28T14:05:34.000Z</time>
      </trkpt>
      <trkpt lat="46.53078" lon="5.36118">
        <ele>219.19999694824</ele>
        <time>2020-10-28T14:05:35.000Z</time>
      </trkpt>
      <trkpt lat="46.53071" lon="5.36126">
        <ele>218.80000305176</ele>
        <time>2020-10-28T14:05:36.000Z</time>
      </trkpt>
      <trkpt lat="46.53046" lon="5.3614">
        <ele>218.19999694824</ele>
        <time>2020-10-28T14:05:39.000Z</time>
      </trkpt>
      <trkpt lat="46.53029" lon="5.3614">
        <ele>217.39999389648</ele>
        <time>2020-10-28T14:05:41.000Z</time>
      </trkpt>
      <trkpt lat="46.5302" lon="5.36139">
        <ele>216.80000305176</ele>
        <time>2020-10-28T14:05:42.000Z</time>
      </trkpt>
      <trkpt lat="46.53011" lon="5.36138">
        <ele>216.39999389648</ele>
        <time>2020-10-28T14:05:43.000Z</time>
      </trkpt>
      <trkpt lat="46.52994" lon="5.36134">
        <ele>215</ele>
        <time>2020-10-28T14:05:45.000Z</time>
      </trkpt>
      <trkpt lat="46.52986" lon="5.3613">
        <ele>214.39999389648</ele>
        <time>2020-10-28T14:05:46.000Z</time>
      </trkpt>
      <trkpt lat="46.52978" lon="5.36123">
        <ele>214</ele>
        <time>2020-10-28T14:05:47.000Z</time>
      </trkpt>
      <trkpt lat="46.52962" lon="5.36094">
        <ele>213.39999389648</ele>
        <time>2020-10-28T14:05:50.000Z</time>
      </trkpt>
      <trkpt lat="46.52948" lon="5.36078">
        <ele>212.60000610352</ele>
        <time>2020-10-28T14:05:52.000Z</time>
      </trkpt>
      <trkpt lat="46.52939" lon="5.36074">
        <ele>211.80000305176</ele>
        <time>2020-10-28T14:05:53.000Z</time>
      </trkpt>
      <trkpt lat="46.52931" lon="5.3607">
        <ele>211.19999694824</ele>
        <time>2020-10-28T14:05:54.000Z</time>
      </trkpt>
      <trkpt lat="46.52922" lon="5.36068">
        <ele>211</ele>
        <time>2020-10-28T14:05:55.000Z</time>
      </trkpt>
      <trkpt lat="46.52896" lon="5.36062">
        <ele>210.19999694824</ele>
        <time>2020-10-28T14:05:58.000Z</time>
      </trkpt>
      <trkpt lat="46.52865" lon="5.36058">
        <ele>209.19999694824</ele>
        <time>2020-10-28T14:06:02.000Z</time>
      </trkpt>
      <trkpt lat="46.52858" lon="5.36058">
        <ele>208.80000305176</ele>
        <time>2020-10-28T14:06:03.000Z</time>
      </trkpt>
      <trkpt lat="46.52845" lon="5.36057">
        <ele>208.19999694824</ele>
        <time>2020-10-28T14:06:06.000Z</time>
      </trkpt>
      <trkpt lat="46.52838" lon="5.36053">
        <ele>208.19999694824</ele>
        <time>2020-10-28T14:06:10.000Z</time>
      </trkpt>
      <trkpt lat="46.52834" lon="5.36053">
        <ele>208.19999694824</ele>
        <time>2020-10-28T14:06:12.000Z</time>
      </trkpt>
      <trkpt lat="46.52828" lon="5.36055">
        <ele>208.39999389648</ele>
        <time>2020-10-28T14:06:14.000Z</time>
      </trkpt>
      <trkpt lat="46.52816" lon="5.36053">
        <ele>208.60000610352</ele>
        <time>2020-10-28T14:06:16.000Z</time>
      </trkpt>
      <trkpt lat="46.52804" lon="5.36049">
        <ele>208.60000610352</ele>
        <time>2020-10-28T14:06:18.000Z</time>
      </trkpt>
      <trkpt lat="46.52775" lon="5.36041">
        <ele>208.60000610352</ele>
        <time>2020-10-28T14:06:22.000Z</time>
      </trkpt>
      <trkpt lat="46.52768" lon="5.36043">
        <ele>208.19999694824</ele>
        <time>2020-10-28T14:06:23.000Z</time>
      </trkpt>
      <trkpt lat="46.52756" lon="5.36056">
        <ele>207.19999694824</ele>
        <time>2020-10-28T14:06:25.000Z</time>
      </trkpt>
      <trkpt lat="46.52748" lon="5.36076">
        <ele>205.80000305176</ele>
        <time>2020-10-28T14:06:27.000Z</time>
      </trkpt>
      <trkpt lat="46.5274" lon="5.36098">
        <ele>204.80000305176</ele>
        <time>2020-10-28T14:06:29.000Z</time>
      </trkpt>
      <trkpt lat="46.52737" lon="5.36108">
        <ele>204.60000610352</ele>
        <time>2020-10-28T14:06:30.000Z</time>
      </trkpt>
      <trkpt lat="46.52714" lon="5.36182">
        <ele>203.80000305176</ele>
        <time>2020-10-28T14:06:37.000Z</time>
      </trkpt>
      <trkpt lat="46.5271" lon="5.36192">
        <ele>203.60000610352</ele>
        <time>2020-10-28T14:06:38.000Z</time>
      </trkpt>
      <trkpt lat="46.527" lon="5.3621">
        <ele>203.60000610352</ele>
        <time>2020-10-28T14:06:40.000Z</time>
      </trkpt>
      <trkpt lat="46.52694" lon="5.36217">
        <ele>203.39999389648</ele>
        <time>2020-10-28T14:06:41.000Z</time>
      </trkpt>
      <trkpt lat="46.52675" lon="5.36235">
        <ele>203.19999694824</ele>
        <time>2020-10-28T14:06:44.000Z</time>
      </trkpt>
      <trkpt lat="46.52662" lon="5.36244">
        <ele>203</ele>
        <time>2020-10-28T14:06:46.000Z</time>
      </trkpt>
      <trkpt lat="46.52612" lon="5.36275">
        <ele>202.60000610352</ele>
        <time>2020-10-28T14:06:54.000Z</time>
      </trkpt>
      <trkpt lat="46.5258" lon="5.36308">
        <ele>203</ele>
        <time>2020-10-28T14:07:00.000Z</time>
      </trkpt>
      <trkpt lat="46.52574" lon="5.36312">
        <ele>203.19999694824</ele>
        <time>2020-10-28T14:07:01.000Z</time>
      </trkpt>
      <trkpt lat="46.52563" lon="5.36316">
        <ele>203.39999389648</ele>
        <time>2020-10-28T14:07:03.000Z</time>
      </trkpt>
      <trkpt lat="46.52537" lon="5.36316">
        <ele>203.60000610352</ele>
        <time>2020-10-28T14:07:07.000Z</time>
      </trkpt>
      <trkpt lat="46.52518" lon="5.36328">
        <ele>203.80000305176</ele>
        <time>2020-10-28T14:07:10.000Z</time>
      </trkpt>
      <trkpt lat="46.52513" lon="5.36333">
        <ele>203.80000305176</ele>
        <time>2020-10-28T14:07:11.000Z</time>
      </trkpt>
      <trkpt lat="46.52503" lon="5.36355">
        <ele>203.80000305176</ele>
        <time>2020-10-28T14:07:14.000Z</time>
      </trkpt>
      <trkpt lat="46.52498" lon="5.36372">
        <ele>203.80000305176</ele>
        <time>2020-10-28T14:07:16.000Z</time>
      </trkpt>
      <trkpt lat="46.52492" lon="5.36409">
        <ele>204.19999694824</ele>
        <time>2020-10-28T14:07:20.000Z</time>
      </trkpt>
      <trkpt lat="46.52486" lon="5.36466">
        <ele>204.60000610352</ele>
        <time>2020-10-28T14:07:26.000Z</time>
      </trkpt>
      <trkpt lat="46.52482" lon="5.36493">
        <ele>205</ele>
        <time>2020-10-28T14:07:29.000Z</time>
      </trkpt>
      <trkpt lat="46.52476" lon="5.36565">
        <ele>205.19999694824</ele>
        <time>2020-10-28T14:07:37.000Z</time>
      </trkpt>
      <trkpt lat="46.52473" lon="5.36601">
        <ele>205.80000305176</ele>
        <time>2020-10-28T14:07:41.000Z</time>
      </trkpt>
      <trkpt lat="46.5247" lon="5.36657">
        <ele>206.19999694824</ele>
        <time>2020-10-28T14:07:47.000Z</time>
      </trkpt>
      <trkpt lat="46.52466" lon="5.36731">
        <ele>206.39999389648</ele>
        <time>2020-10-28T14:07:55.000Z</time>
      </trkpt>
      <trkpt lat="46.52462" lon="5.36804">
        <ele>206.39999389648</ele>
        <time>2020-10-28T14:08:03.000Z</time>
      </trkpt>
      <trkpt lat="46.52455" lon="5.36869">
        <ele>206.60000610352</ele>
        <time>2020-10-28T14:08:10.000Z</time>
      </trkpt>
      <trkpt lat="46.52443" lon="5.36953">
        <ele>206.80000305176</ele>
        <time>2020-10-28T14:08:19.000Z</time>
      </trkpt>
      <trkpt lat="46.52441" lon="5.36962">
        <ele>206.80000305176</ele>
        <time>2020-10-28T14:08:20.000Z</time>
      </trkpt>
      <trkpt lat="46.52426" lon="5.3701">
        <ele>207</ele>
        <time>2020-10-28T14:08:26.000Z</time>
      </trkpt>
      <trkpt lat="46.52398" lon="5.37058">
        <ele>207.60000610352</ele>
        <time>2020-10-28T14:08:33.000Z</time>
      </trkpt>
      <trkpt lat="46.52364" lon="5.37098">
        <ele>207.80000305176</ele>
        <time>2020-10-28T14:08:40.000Z</time>
      </trkpt>
      <trkpt lat="46.5235" lon="5.37113">
        <ele>208</ele>
        <time>2020-10-28T14:08:43.000Z</time>
      </trkpt>
      <trkpt lat="46.52334" lon="5.3713">
        <ele>208.60000610352</ele>
        <time>2020-10-28T14:08:47.000Z</time>
      </trkpt>
      <trkpt lat="46.52326" lon="5.37139">
        <ele>209.39999389648</ele>
        <time>2020-10-28T14:08:49.000Z</time>
      </trkpt>
      <trkpt lat="46.52307" lon="5.37158">
        <ele>210.60000610352</ele>
        <time>2020-10-28T14:08:54.000Z</time>
      </trkpt>
      <trkpt lat="46.52296" lon="5.3717">
        <ele>211.80000305176</ele>
        <time>2020-10-28T14:08:57.000Z</time>
      </trkpt>
      <trkpt lat="46.52279" lon="5.37189">
        <ele>212.39999389648</ele>
        <time>2020-10-28T14:09:02.000Z</time>
      </trkpt>
      <trkpt lat="46.52272" lon="5.37196">
        <ele>213</ele>
        <time>2020-10-28T14:09:04.000Z</time>
      </trkpt>
      <trkpt lat="46.52255" lon="5.37214">
        <ele>214.19999694824</ele>
        <time>2020-10-28T14:09:09.000Z</time>
      </trkpt>
      <trkpt lat="46.52248" lon="5.37221">
        <ele>214.39999389648</ele>
        <time>2020-10-28T14:09:11.000Z</time>
      </trkpt>
      <trkpt lat="46.52229" lon="5.37239">
        <ele>215.19999694824</ele>
        <time>2020-10-28T14:09:17.000Z</time>
      </trkpt>
      <trkpt lat="46.52219" lon="5.37246">
        <ele>216.19999694824</ele>
        <time>2020-10-28T14:09:20.000Z</time>
      </trkpt>
      <trkpt lat="46.52216" lon="5.37248">
        <ele>216.19999694824</ele>
        <time>2020-10-28T14:09:21.000Z</time>
      </trkpt>
      <trkpt lat="46.52202" lon="5.37255">
        <ele>216.80000305176</ele>
        <time>2020-10-28T14:09:26.000Z</time>
      </trkpt>
      <trkpt lat="46.52188" lon="5.37263">
        <ele>217.60000610352</ele>
        <time>2020-10-28T14:09:30.000Z</time>
      </trkpt>
      <trkpt lat="46.52185" lon="5.37265">
        <ele>217.60000610352</ele>
        <time>2020-10-28T14:09:31.000Z</time>
      </trkpt>
      <trkpt lat="46.52166" lon="5.37275">
        <ele>218.39999389648</ele>
        <time>2020-10-28T14:09:37.000Z</time>
      </trkpt>
      <trkpt lat="46.52161" lon="5.37279">
        <ele>218.60000610352</ele>
        <time>2020-10-28T14:09:39.000Z</time>
      </trkpt>
      <trkpt lat="46.52148" lon="5.37287">
        <ele>219.39999389648</ele>
        <time>2020-10-28T14:09:43.000Z</time>
      </trkpt>
      <trkpt lat="46.52136" lon="5.37296">
        <ele>220.60000610352</ele>
        <time>2020-10-28T14:09:47.000Z</time>
      </trkpt>
      <trkpt lat="46.52114" lon="5.37315">
        <ele>221.60000610352</ele>
        <time>2020-10-28T14:09:53.000Z</time>
      </trkpt>
      <trkpt lat="46.52111" lon="5.37319">
        <ele>221.80000305176</ele>
        <time>2020-10-28T14:09:54.000Z</time>
      </trkpt>
      <trkpt lat="46.52105" lon="5.37325">
        <ele>222.19999694824</ele>
        <time>2020-10-28T14:09:56.000Z</time>
      </trkpt>
      <trkpt lat="46.52098" lon="5.37328">
        <ele>222.39999389648</ele>
        <time>2020-10-28T14:09:58.000Z</time>
      </trkpt>
      <trkpt lat="46.52098" lon="5.37323">
        <ele>222.80000305176</ele>
        <time>2020-10-28T14:10:00.000Z</time>
      </trkpt>
      <trkpt lat="46.52098" lon="5.37319">
        <ele>223.39999389648</ele>
        <time>2020-10-28T14:10:02.000Z</time>
      </trkpt>
      <trkpt lat="46.52097" lon="5.37318">
        <ele>224</ele>
        <time>2020-10-28T14:10:04.000Z</time>
      </trkpt>
      <trkpt lat="46.52096" lon="5.3732">
        <ele>224.19999694824</ele>
        <time>2020-10-28T14:10:05.000Z</time>
      </trkpt>
      <trkpt lat="46.52095" lon="5.37323">
        <ele>224.60000610352</ele>
        <time>2020-10-28T14:10:06.000Z</time>
      </trkpt>
      <trkpt lat="46.52092" lon="5.37337">
        <ele>225</ele>
        <time>2020-10-28T14:10:09.000Z</time>
      </trkpt>
      <trkpt lat="46.52085" lon="5.37361">
        <ele>225</ele>
        <time>2020-10-28T14:10:13.000Z</time>
      </trkpt>
      <trkpt lat="46.52082" lon="5.37375">
        <ele>225.39999389648</ele>
        <time>2020-10-28T14:10:15.000Z</time>
      </trkpt>
      <trkpt lat="46.5207" lon="5.37427">
        <ele>225.39999389648</ele>
        <time>2020-10-28T14:10:22.000Z</time>
      </trkpt>
      <trkpt lat="46.52056" lon="5.37484">
        <ele>225.39999389648</ele>
        <time>2020-10-28T14:10:29.000Z</time>
      </trkpt>
      <trkpt lat="46.52038" lon="5.37563">
        <ele>224.80000305176</ele>
        <time>2020-10-28T14:10:38.000Z</time>
      </trkpt>
      <trkpt lat="46.52036" lon="5.37572">
        <ele>224.80000305176</ele>
        <time>2020-10-28T14:10:39.000Z</time>
      </trkpt>
      <trkpt lat="46.52025" lon="5.37614">
        <ele>224.80000305176</ele>
        <time>2020-10-28T14:10:44.000Z</time>
      </trkpt>
      <trkpt lat="46.52021" lon="5.3762">
        <ele>224.80000305176</ele>
        <time>2020-10-28T14:10:45.000Z</time>
      </trkpt>
      <trkpt lat="46.52004" lon="5.37626">
        <ele>224.80000305176</ele>
        <time>2020-10-28T14:10:48.000Z</time>
      </trkpt>
      <trkpt lat="46.51984" lon="5.3763">
        <ele>224.80000305176</ele>
        <time>2020-10-28T14:10:51.000Z</time>
      </trkpt>
      <trkpt lat="46.51971" lon="5.37632">
        <ele>224.80000305176</ele>
        <time>2020-10-28T14:10:53.000Z</time>
      </trkpt>
      <trkpt lat="46.51919" lon="5.37641">
        <ele>225</ele>
        <time>2020-10-28T14:11:01.000Z</time>
      </trkpt>
      <trkpt lat="46.51869" lon="5.37644">
        <ele>225.19999694824</ele>
        <time>2020-10-28T14:11:09.000Z</time>
      </trkpt>
      <trkpt lat="46.51809" lon="5.37645">
        <ele>225.60000610352</ele>
        <time>2020-10-28T14:11:18.000Z</time>
      </trkpt>
      <trkpt lat="46.51765" lon="5.37637">
        <ele>225.39999389648</ele>
        <time>2020-10-28T14:11:24.000Z</time>
      </trkpt>
      <trkpt lat="46.51726" lon="5.37626">
        <ele>224</ele>
        <time>2020-10-28T14:11:29.000Z</time>
      </trkpt>
      <trkpt lat="46.5171" lon="5.37623">
        <ele>223.39999389648</ele>
        <time>2020-10-28T14:11:31.000Z</time>
      </trkpt>
      <trkpt lat="46.51702" lon="5.37625">
        <ele>223</ele>
        <time>2020-10-28T14:11:32.000Z</time>
      </trkpt>
      <trkpt lat="46.51694" lon="5.37628">
        <ele>222.80000305176</ele>
        <time>2020-10-28T14:11:33.000Z</time>
      </trkpt>
      <trkpt lat="46.5168" lon="5.37638">
        <ele>222</ele>
        <time>2020-10-28T14:11:35.000Z</time>
      </trkpt>
      <trkpt lat="46.51674" lon="5.37642">
        <ele>221.80000305176</ele>
        <time>2020-10-28T14:11:36.000Z</time>
      </trkpt>
      <trkpt lat="46.51667" lon="5.37647">
        <ele>221.60000610352</ele>
        <time>2020-10-28T14:11:37.000Z</time>
      </trkpt>
      <trkpt lat="46.51646" lon="5.37657">
        <ele>221</ele>
        <time>2020-10-28T14:11:40.000Z</time>
      </trkpt>
      <trkpt lat="46.51605" lon="5.37671">
        <ele>221</ele>
        <time>2020-10-28T14:11:46.000Z</time>
      </trkpt>
      <trkpt lat="46.51553" lon="5.37679">
        <ele>221.39999389648</ele>
        <time>2020-10-28T14:11:54.000Z</time>
      </trkpt>
      <trkpt lat="46.51546" lon="5.3768">
        <ele>221.60000610352</ele>
        <time>2020-10-28T14:11:55.000Z</time>
      </trkpt>
      <trkpt lat="46.51534" lon="5.37684">
        <ele>222</ele>
        <time>2020-10-28T14:11:57.000Z</time>
      </trkpt>
      <trkpt lat="46.51523" lon="5.37687">
        <ele>222.19999694824</ele>
        <time>2020-10-28T14:11:59.000Z</time>
      </trkpt>
      <trkpt lat="46.51506" lon="5.37692">
        <ele>223</ele>
        <time>2020-10-28T14:12:02.000Z</time>
      </trkpt>
      <trkpt lat="46.51484" lon="5.37697">
        <ele>223.80000305176</ele>
        <time>2020-10-28T14:12:06.000Z</time>
      </trkpt>
      <trkpt lat="46.51479" lon="5.37698">
        <ele>224</ele>
        <time>2020-10-28T14:12:07.000Z</time>
      </trkpt>
      <trkpt lat="46.51441" lon="5.37708">
        <ele>225.19999694824</ele>
        <time>2020-10-28T14:12:15.000Z</time>
      </trkpt>
      <trkpt lat="46.51437" lon="5.37709">
        <ele>225.19999694824</ele>
        <time>2020-10-28T14:12:16.000Z</time>
      </trkpt>
      <trkpt lat="46.51422" lon="5.37713">
        <ele>225.80000305176</ele>
        <time>2020-10-28T14:12:20.000Z</time>
      </trkpt>
      <trkpt lat="46.5142" lon="5.37714">
        <ele>226.19999694824</ele>
        <time>2020-10-28T14:12:22.000Z</time>
      </trkpt>
      <trkpt lat="46.5142" lon="5.37714">
        <ele>226.39999389648</ele>
        <time>2020-10-28T14:12:23.000Z</time>
      </trkpt>
      <trkpt lat="46.51416" lon="5.37717">
        <ele>228.19999694824</ele>
        <time>2020-10-28T14:13:06.000Z</time>
      </trkpt>
      <trkpt lat="46.51405" lon="5.3772">
        <ele>228</ele>
        <time>2020-10-28T14:13:11.000Z</time>
      </trkpt>
      <trkpt lat="46.51381" lon="5.3773">
        <ele>228</ele>
        <time>2020-10-28T14:13:17.000Z</time>
      </trkpt>
      <trkpt lat="46.51333" lon="5.37755">
        <ele>228.39999389648</ele>
        <time>2020-10-28T14:13:28.000Z</time>
      </trkpt>
      <trkpt lat="46.51291" lon="5.37777">
        <ele>229.39999389648</ele>
        <time>2020-10-28T14:13:38.000Z</time>
      </trkpt>
      <trkpt lat="46.51286" lon="5.37779">
        <ele>229.60000610352</ele>
        <time>2020-10-28T14:13:39.000Z</time>
      </trkpt>
      <trkpt lat="46.5125" lon="5.37796">
        <ele>230.60000610352</ele>
        <time>2020-10-28T14:13:47.000Z</time>
      </trkpt>
      <trkpt lat="46.51235" lon="5.378">
        <ele>230.80000305176</ele>
        <time>2020-10-28T14:13:50.000Z</time>
      </trkpt>
      <trkpt lat="46.51192" lon="5.37806">
        <ele>231.60000610352</ele>
        <time>2020-10-28T14:13:59.000Z</time>
      </trkpt>
      <trkpt lat="46.51187" lon="5.37807">
        <ele>231.60000610352</ele>
        <time>2020-10-28T14:14:00.000Z</time>
      </trkpt>
      <trkpt lat="46.51166" lon="5.37817">
        <ele>232.39999389648</ele>
        <time>2020-10-28T14:14:05.000Z</time>
      </trkpt>
      <trkpt lat="46.51162" lon="5.37819">
        <ele>232.60000610352</ele>
        <time>2020-10-28T14:14:06.000Z</time>
      </trkpt>
      <trkpt lat="46.51128" lon="5.37845">
        <ele>233.60000610352</ele>
        <time>2020-10-28T14:14:14.000Z</time>
      </trkpt>
      <trkpt lat="46.51094" lon="5.37863">
        <ele>234.19999694824</ele>
        <time>2020-10-28T14:14:22.000Z</time>
      </trkpt>
      <trkpt lat="46.51076" lon="5.37868">
        <ele>234.80000305176</ele>
        <time>2020-10-28T14:14:26.000Z</time>
      </trkpt>
      <trkpt lat="46.51058" lon="5.37869">
        <ele>235.60000610352</ele>
        <time>2020-10-28T14:14:30.000Z</time>
      </trkpt>
      <trkpt lat="46.51049" lon="5.3787">
        <ele>235.80000305176</ele>
        <time>2020-10-28T14:14:32.000Z</time>
      </trkpt>
      <trkpt lat="46.51023" lon="5.37873">
        <ele>236.60000610352</ele>
        <time>2020-10-28T14:14:38.000Z</time>
      </trkpt>
      <trkpt lat="46.51014" lon="5.37875">
        <ele>237</ele>
        <time>2020-10-28T14:14:40.000Z</time>
      </trkpt>
      <trkpt lat="46.50983" lon="5.3788">
        <ele>238</ele>
        <time>2020-10-28T14:14:47.000Z</time>
      </trkpt>
      <trkpt lat="46.50979" lon="5.37881">
        <ele>238.39999389648</ele>
        <time>2020-10-28T14:14:48.000Z</time>
      </trkpt>
      <trkpt lat="46.50935" lon="5.37894">
        <ele>239</ele>
        <time>2020-10-28T14:14:57.000Z</time>
      </trkpt>
      <trkpt lat="46.50895" lon="5.37901">
        <ele>239</ele>
        <time>2020-10-28T14:15:04.000Z</time>
      </trkpt>
      <trkpt lat="46.50839" lon="5.37897">
        <ele>238.39999389648</ele>
        <time>2020-10-28T14:15:13.000Z</time>
      </trkpt>
      <trkpt lat="46.5082" lon="5.37891">
        <ele>238.39999389648</ele>
        <time>2020-10-28T14:15:16.000Z</time>
      </trkpt>
      <trkpt lat="46.50808" lon="5.37882">
        <ele>238.19999694824</ele>
        <time>2020-10-28T14:15:18.000Z</time>
      </trkpt>
      <trkpt lat="46.50797" lon="5.37871">
        <ele>238.19999694824</ele>
        <time>2020-10-28T14:15:20.000Z</time>
      </trkpt>
      <trkpt lat="46.50779" lon="5.37845">
        <ele>238</ele>
        <time>2020-10-28T14:15:24.000Z</time>
      </trkpt>
      <trkpt lat="46.50757" lon="5.37797">
        <ele>237</ele>
        <time>2020-10-28T14:15:30.000Z</time>
      </trkpt>
      <trkpt lat="46.50746" lon="5.37739">
        <ele>236.19999694824</ele>
        <time>2020-10-28T14:15:36.000Z</time>
      </trkpt>
      <trkpt lat="46.50745" lon="5.37729">
        <ele>236</ele>
        <time>2020-10-28T14:15:37.000Z</time>
      </trkpt>
      <trkpt lat="46.5074" lon="5.37669">
        <ele>235.60000610352</ele>
        <time>2020-10-28T14:15:43.000Z</time>
      </trkpt>
      <trkpt lat="46.50736" lon="5.37623">
        <ele>235.39999389648</ele>
        <time>2020-10-28T14:15:47.000Z</time>
      </trkpt>
      <trkpt lat="46.50733" lon="5.37612">
        <ele>235.19999694824</ele>
        <time>2020-10-28T14:15:48.000Z</time>
      </trkpt>
      <trkpt lat="46.50729" lon="5.37601">
        <ele>234.60000610352</ele>
        <time>2020-10-28T14:15:49.000Z</time>
      </trkpt>
      <trkpt lat="46.50719" lon="5.37583">
        <ele>233.80000305176</ele>
        <time>2020-10-28T14:15:51.000Z</time>
      </trkpt>
      <trkpt lat="46.50713" lon="5.37576">
        <ele>233</ele>
        <time>2020-10-28T14:15:52.000Z</time>
      </trkpt>
      <trkpt lat="46.50705" lon="5.37566">
        <ele>231.80000305176</ele>
        <time>2020-10-28T14:15:54.000Z</time>
      </trkpt>
      <trkpt lat="46.50691" lon="5.37558">
        <ele>231.39999389648</ele>
        <time>2020-10-28T14:15:59.000Z</time>
      </trkpt>
      <trkpt lat="46.50688" lon="5.3756">
        <ele>231.39999389648</ele>
        <time>2020-10-28T14:16:00.000Z</time>
      </trkpt>
      <trkpt lat="46.50681" lon="5.37569">
        <ele>231.39999389648</ele>
        <time>2020-10-28T14:16:02.000Z</time>
      </trkpt>
      <trkpt lat="46.50649" lon="5.3762">
        <ele>232.39999389648</ele>
        <time>2020-10-28T14:16:11.000Z</time>
      </trkpt>
      <trkpt lat="46.5061" lon="5.3768">
        <ele>232.39999389648</ele>
        <time>2020-10-28T14:16:21.000Z</time>
      </trkpt>
      <trkpt lat="46.50585" lon="5.37718">
        <ele>233</ele>
        <time>2020-10-28T14:16:28.000Z</time>
      </trkpt>
      <trkpt lat="46.50581" lon="5.37724">
        <ele>233.19999694824</ele>
        <time>2020-10-28T14:16:29.000Z</time>
      </trkpt>
      <trkpt lat="46.50565" lon="5.37749">
        <ele>234</ele>
        <time>2020-10-28T14:16:34.000Z</time>
      </trkpt>
      <trkpt lat="46.50548" lon="5.37774">
        <ele>235</ele>
        <time>2020-10-28T14:16:39.000Z</time>
      </trkpt>
      <trkpt lat="46.50536" lon="5.37793">
        <ele>236.19999694824</ele>
        <time>2020-10-28T14:16:43.000Z</time>
      </trkpt>
      <trkpt lat="46.50518" lon="5.3782">
        <ele>237</ele>
        <time>2020-10-28T14:16:49.000Z</time>
      </trkpt>
      <trkpt lat="46.50515" lon="5.37825">
        <ele>237.39999389648</ele>
        <time>2020-10-28T14:16:50.000Z</time>
      </trkpt>
      <trkpt lat="46.50502" lon="5.37846">
        <ele>238.39999389648</ele>
        <time>2020-10-28T14:16:55.000Z</time>
      </trkpt>
      <trkpt lat="46.50491" lon="5.37863">
        <ele>239.19999694824</ele>
        <time>2020-10-28T14:16:59.000Z</time>
      </trkpt>
      <trkpt lat="46.50485" lon="5.37871">
        <ele>239.60000610352</ele>
        <time>2020-10-28T14:17:01.000Z</time>
      </trkpt>
      <trkpt lat="46.50468" lon="5.37897">
        <ele>240.60000610352</ele>
        <time>2020-10-28T14:17:07.000Z</time>
      </trkpt>
      <trkpt lat="46.50465" lon="5.37902">
        <ele>241.19999694824</ele>
        <time>2020-10-28T14:17:08.000Z</time>
      </trkpt>
      <trkpt lat="46.50456" lon="5.37915">
        <ele>241.80000305176</ele>
        <time>2020-10-28T14:17:11.000Z</time>
      </trkpt>
      <trkpt lat="46.50442" lon="5.37936">
        <ele>242.39999389648</ele>
        <time>2020-10-28T14:17:16.000Z</time>
      </trkpt>
      <trkpt lat="46.50435" lon="5.37946">
        <ele>242.80000305176</ele>
        <time>2020-10-28T14:17:19.000Z</time>
      </trkpt>
      <trkpt lat="46.50425" lon="5.3796">
        <ele>243.39999389648</ele>
        <time>2020-10-28T14:17:23.000Z</time>
      </trkpt>
      <trkpt lat="46.50419" lon="5.37969">
        <ele>244</ele>
        <time>2020-10-28T14:17:25.000Z</time>
      </trkpt>
      <trkpt lat="46.50405" lon="5.37991">
        <ele>245</ele>
        <time>2020-10-28T14:17:30.000Z</time>
      </trkpt>
      <trkpt lat="46.50399" lon="5.38001">
        <ele>245.39999389648</ele>
        <time>2020-10-28T14:17:32.000Z</time>
      </trkpt>
      <trkpt lat="46.50388" lon="5.38019">
        <ele>246.39999389648</ele>
        <time>2020-10-28T14:17:36.000Z</time>
      </trkpt>
      <trkpt lat="46.50385" lon="5.38023">
        <ele>246.60000610352</ele>
        <time>2020-10-28T14:17:37.000Z</time>
      </trkpt>
      <trkpt lat="46.50378" lon="5.38028">
        <ele>246.80000305176</ele>
        <time>2020-10-28T14:17:39.000Z</time>
      </trkpt>
      <trkpt lat="46.50368" lon="5.38018">
        <ele>247.60000610352</ele>
        <time>2020-10-28T14:17:42.000Z</time>
      </trkpt>
      <trkpt lat="46.50364" lon="5.37995">
        <ele>248.19999694824</ele>
        <time>2020-10-28T14:17:46.000Z</time>
      </trkpt>
      <trkpt lat="46.50365" lon="5.37983">
        <ele>248.39999389648</ele>
        <time>2020-10-28T14:17:48.000Z</time>
      </trkpt>
      <trkpt lat="46.50366" lon="5.3796">
        <ele>248.60000610352</ele>
        <time>2020-10-28T14:17:52.000Z</time>
      </trkpt>
      <trkpt lat="46.50365" lon="5.37947">
        <ele>248.80000305176</ele>
        <time>2020-10-28T14:17:54.000Z</time>
      </trkpt>
      <trkpt lat="46.50361" lon="5.37919">
        <ele>249</ele>
        <time>2020-10-28T14:17:58.000Z</time>
      </trkpt>
      <trkpt lat="46.50359" lon="5.37912">
        <ele>249</ele>
        <time>2020-10-28T14:17:59.000Z</time>
      </trkpt>
      <trkpt lat="46.50344" lon="5.37885">
        <ele>249</ele>
        <time>2020-10-28T14:18:03.000Z</time>
      </trkpt>
      <trkpt lat="46.50339" lon="5.37879">
        <ele>249</ele>
        <time>2020-10-28T14:18:04.000Z</time>
      </trkpt>
      <trkpt lat="46.50309" lon="5.37848">
        <ele>248</ele>
        <time>2020-10-28T14:18:10.000Z</time>
      </trkpt>
      <trkpt lat="46.50261" lon="5.37801">
        <ele>247.80000305176</ele>
        <time>2020-10-28T14:18:19.000Z</time>
      </trkpt>
      <trkpt lat="46.50213" lon="5.37761">
        <ele>247.80000305176</ele>
        <time>2020-10-28T14:18:27.000Z</time>
      </trkpt>
      <trkpt lat="46.50185" lon="5.37749">
        <ele>247.39999389648</ele>
        <time>2020-10-28T14:18:31.000Z</time>
      </trkpt>
      <trkpt lat="46.50171" lon="5.37745">
        <ele>246.60000610352</ele>
        <time>2020-10-28T14:18:33.000Z</time>
      </trkpt>
      <trkpt lat="46.50128" lon="5.37735">
        <ele>246.39999389648</ele>
        <time>2020-10-28T14:18:40.000Z</time>
      </trkpt>
      <trkpt lat="46.50081" lon="5.37721">
        <ele>248</ele>
        <time>2020-10-28T14:18:48.000Z</time>
      </trkpt>
      <trkpt lat="46.50069" lon="5.37716">
        <ele>248.39999389648</ele>
        <time>2020-10-28T14:18:50.000Z</time>
      </trkpt>
      <trkpt lat="46.5004" lon="5.37702">
        <ele>249.19999694824</ele>
        <time>2020-10-28T14:18:55.000Z</time>
      </trkpt>
      <trkpt lat="46.49983" lon="5.37675">
        <ele>248.80000305176</ele>
        <time>2020-10-28T14:19:04.000Z</time>
      </trkpt>
      <trkpt lat="46.49931" lon="5.37653">
        <ele>247.80000305176</ele>
        <time>2020-10-28T14:19:12.000Z</time>
      </trkpt>
      <trkpt lat="46.49924" lon="5.3765">
        <ele>247.80000305176</ele>
        <time>2020-10-28T14:19:13.000Z</time>
      </trkpt>
      <trkpt lat="46.49869" lon="5.37633">
        <ele>247.60000610352</ele>
        <time>2020-10-28T14:19:21.000Z</time>
      </trkpt>
      <trkpt lat="46.49856" lon="5.37627">
        <ele>247.39999389648</ele>
        <time>2020-10-28T14:19:23.000Z</time>
      </trkpt>
      <trkpt lat="46.49824" lon="5.37612">
        <ele>246.80000305176</ele>
        <time>2020-10-28T14:19:28.000Z</time>
      </trkpt>
      <trkpt lat="46.49782" lon="5.37586">
        <ele>246.39999389648</ele>
        <time>2020-10-28T14:19:35.000Z</time>
      </trkpt>
      <trkpt lat="46.4977" lon="5.37578">
        <ele>246.39999389648</ele>
        <time>2020-10-28T14:19:37.000Z</time>
      </trkpt>
      <trkpt lat="46.49715" lon="5.37544">
        <ele>246</ele>
        <time>2020-10-28T14:19:46.000Z</time>
      </trkpt>
      <trkpt lat="46.49709" lon="5.3754">
        <ele>246</ele>
        <time>2020-10-28T14:19:47.000Z</time>
      </trkpt>
      <trkpt lat="46.49659" lon="5.37517">
        <ele>246</ele>
        <time>2020-10-28T14:19:55.000Z</time>
      </trkpt>
      <trkpt lat="46.49638" lon="5.37507">
        <ele>246</ele>
        <time>2020-10-28T14:19:59.000Z</time>
      </trkpt>
      <trkpt lat="46.49634" lon="5.37504">
        <ele>246</ele>
        <time>2020-10-28T14:20:00.000Z</time>
      </trkpt>
      <trkpt lat="46.49628" lon="5.37495">
        <ele>246.19999694824</ele>
        <time>2020-10-28T14:20:03.000Z</time>
      </trkpt>
      <trkpt lat="46.49617" lon="5.375">
        <ele>246.39999389648</ele>
        <time>2020-10-28T14:20:06.000Z</time>
      </trkpt>
      <trkpt lat="46.49584" lon="5.37527">
        <ele>247.39999389648</ele>
        <time>2020-10-28T14:20:14.000Z</time>
      </trkpt>
      <trkpt lat="46.4958" lon="5.3753">
        <ele>247.39999389648</ele>
        <time>2020-10-28T14:20:15.000Z</time>
      </trkpt>
      <trkpt lat="46.49557" lon="5.37551">
        <ele>248.60000610352</ele>
        <time>2020-10-28T14:20:21.000Z</time>
      </trkpt>
      <trkpt lat="46.49544" lon="5.37561">
        <ele>249.60000610352</ele>
        <time>2020-10-28T14:20:24.000Z</time>
      </trkpt>
      <trkpt lat="46.49519" lon="5.37583">
        <ele>250.60000610352</ele>
        <time>2020-10-28T14:20:30.000Z</time>
      </trkpt>
      <trkpt lat="46.49506" lon="5.37594">
        <ele>251</ele>
        <time>2020-10-28T14:20:33.000Z</time>
      </trkpt>
      <trkpt lat="46.49473" lon="5.37622">
        <ele>251.60000610352</ele>
        <time>2020-10-28T14:20:41.000Z</time>
      </trkpt>
      <trkpt lat="46.49465" lon="5.37628">
        <ele>251.60000610352</ele>
        <time>2020-10-28T14:20:43.000Z</time>
      </trkpt>
      <trkpt lat="46.49448" lon="5.37643">
        <ele>252.80000305176</ele>
        <time>2020-10-28T14:20:48.000Z</time>
      </trkpt>
      <trkpt lat="46.49444" lon="5.37646">
        <ele>253</ele>
        <time>2020-10-28T14:20:49.000Z</time>
      </trkpt>
      <trkpt lat="46.49438" lon="5.37652">
        <ele>254</ele>
        <time>2020-10-28T14:20:51.000Z</time>
      </trkpt>
      <trkpt lat="46.49426" lon="5.37664">
        <ele>255</ele>
        <time>2020-10-28T14:20:55.000Z</time>
      </trkpt>
      <trkpt lat="46.49423" lon="5.37667">
        <ele>255.19999694824</ele>
        <time>2020-10-28T14:20:56.000Z</time>
      </trkpt>
      <trkpt lat="46.49412" lon="5.37683">
        <ele>256.20001220703</ele>
        <time>2020-10-28T14:21:00.000Z</time>
      </trkpt>
      <trkpt lat="46.49405" lon="5.37699">
        <ele>257.20001220703</ele>
        <time>2020-10-28T14:21:03.000Z</time>
      </trkpt>
      <trkpt lat="46.494" lon="5.37709">
        <ele>257.39999389648</ele>
        <time>2020-10-28T14:21:05.000Z</time>
      </trkpt>
      <trkpt lat="46.49388" lon="5.37743">
        <ele>258.39999389648</ele>
        <time>2020-10-28T14:21:11.000Z</time>
      </trkpt>
      <trkpt lat="46.49386" lon="5.37749">
        <ele>258.60000610352</ele>
        <time>2020-10-28T14:21:12.000Z</time>
      </trkpt>
      <trkpt lat="46.49376" lon="5.3778">
        <ele>259.60000610352</ele>
        <time>2020-10-28T14:21:17.000Z</time>
      </trkpt>
      <trkpt lat="46.4937" lon="5.37799">
        <ele>260.39999389648</ele>
        <time>2020-10-28T14:21:20.000Z</time>
      </trkpt>
      <trkpt lat="46.49363" lon="5.37819">
        <ele>260.60000610352</ele>
        <time>2020-10-28T14:21:23.000Z</time>
      </trkpt>
      <trkpt lat="46.4935" lon="5.37856">
        <ele>260.79998779297</ele>
        <time>2020-10-28T14:21:28.000Z</time>
      </trkpt>
      <trkpt lat="46.49336" lon="5.37912">
        <ele>260.79998779297</ele>
        <time>2020-10-28T14:21:34.000Z</time>
      </trkpt>
      <trkpt lat="46.49326" lon="5.37966">
        <ele>259.60000610352</ele>
        <time>2020-10-28T14:21:39.000Z</time>
      </trkpt>
      <trkpt lat="46.4932" lon="5.37998">
        <ele>258.79998779297</ele>
        <time>2020-10-28T14:21:42.000Z</time>
      </trkpt>
      <trkpt lat="46.49315" lon="5.38018">
        <ele>258.60000610352</ele>
        <time>2020-10-28T14:21:44.000Z</time>
      </trkpt>
      <trkpt lat="46.49313" lon="5.38028">
        <ele>258.60000610352</ele>
        <time>2020-10-28T14:21:45.000Z</time>
      </trkpt>
      <trkpt lat="46.49309" lon="5.38047">
        <ele>258.60000610352</ele>
        <time>2020-10-28T14:21:47.000Z</time>
      </trkpt>
      <trkpt lat="46.49298" lon="5.38109">
        <ele>258.79998779297</ele>
        <time>2020-10-28T14:21:54.000Z</time>
      </trkpt>
      <trkpt lat="46.49292" lon="5.38143">
        <ele>259.60000610352</ele>
        <time>2020-10-28T14:21:58.000Z</time>
      </trkpt>
      <trkpt lat="46.49287" lon="5.38168">
        <ele>260</ele>
        <time>2020-10-28T14:22:01.000Z</time>
      </trkpt>
      <trkpt lat="46.49281" lon="5.38199">
        <ele>260.79998779297</ele>
        <time>2020-10-28T14:22:05.000Z</time>
      </trkpt>
      <trkpt lat="46.49274" lon="5.38237">
        <ele>261.20001220703</ele>
        <time>2020-10-28T14:22:10.000Z</time>
      </trkpt>
      <trkpt lat="46.49269" lon="5.38267">
        <ele>261.79998779297</ele>
        <time>2020-10-28T14:22:14.000Z</time>
      </trkpt>
      <trkpt lat="46.49262" lon="5.38303">
        <ele>263</ele>
        <time>2020-10-28T14:22:19.000Z</time>
      </trkpt>
      <trkpt lat="46.4926" lon="5.3831">
        <ele>263.20001220703</ele>
        <time>2020-10-28T14:22:20.000Z</time>
      </trkpt>
      <trkpt lat="46.49253" lon="5.3833">
        <ele>263.60000610352</ele>
        <time>2020-10-28T14:22:23.000Z</time>
      </trkpt>
      <trkpt lat="46.49245" lon="5.38338">
        <ele>263.79998779297</ele>
        <time>2020-10-28T14:22:25.000Z</time>
      </trkpt>
      <trkpt lat="46.49234" lon="5.38336">
        <ele>264.20001220703</ele>
        <time>2020-10-28T14:22:27.000Z</time>
      </trkpt>
      <trkpt lat="46.49229" lon="5.38333">
        <ele>264.39999389648</ele>
        <time>2020-10-28T14:22:28.000Z</time>
      </trkpt>
      <trkpt lat="46.49223" lon="5.3833">
        <ele>264.39999389648</ele>
        <time>2020-10-28T14:22:29.000Z</time>
      </trkpt>
      <trkpt lat="46.49186" lon="5.3831">
        <ele>264.39999389648</ele>
        <time>2020-10-28T14:22:35.000Z</time>
      </trkpt>
      <trkpt lat="46.49132" lon="5.38292">
        <ele>263</ele>
        <time>2020-10-28T14:22:43.000Z</time>
      </trkpt>
      <trkpt lat="46.49101" lon="5.38281">
        <ele>261.79998779297</ele>
        <time>2020-10-28T14:22:48.000Z</time>
      </trkpt>
      <trkpt lat="46.49096" lon="5.38276">
        <ele>261.79998779297</ele>
        <time>2020-10-28T14:22:49.000Z</time>
      </trkpt>
      <trkpt lat="46.49087" lon="5.38251">
        <ele>261.60000610352</ele>
        <time>2020-10-28T14:22:52.000Z</time>
      </trkpt>
      <trkpt lat="46.49065" lon="5.38178">
        <ele>260.39999389648</ele>
        <time>2020-10-28T14:22:59.000Z</time>
      </trkpt>
      <trkpt lat="46.49051" lon="5.38133">
        <ele>259</ele>
        <time>2020-10-28T14:23:03.000Z</time>
      </trkpt>
      <trkpt lat="46.49044" lon="5.38112">
        <ele>258</ele>
        <time>2020-10-28T14:23:05.000Z</time>
      </trkpt>
      <trkpt lat="46.4904" lon="5.38101">
        <ele>257.60000610352</ele>
        <time>2020-10-28T14:23:06.000Z</time>
      </trkpt>
      <trkpt lat="46.49033" lon="5.38078">
        <ele>256.79998779297</ele>
        <time>2020-10-28T14:23:08.000Z</time>
      </trkpt>
      <trkpt lat="46.49022" lon="5.38043">
        <ele>255.80000305176</ele>
        <time>2020-10-28T14:23:11.000Z</time>
      </trkpt>
      <trkpt lat="46.49011" lon="5.38008">
        <ele>254.60000610352</ele>
        <time>2020-10-28T14:23:14.000Z</time>
      </trkpt>
      <trkpt lat="46.48993" lon="5.37949">
        <ele>253.39999389648</ele>
        <time>2020-10-28T14:23:19.000Z</time>
      </trkpt>
      <trkpt lat="46.48984" lon="5.37915">
        <ele>252.39999389648</ele>
        <time>2020-10-28T14:23:22.000Z</time>
      </trkpt>
      <trkpt lat="46.48974" lon="5.3788">
        <ele>251.80000305176</ele>
        <time>2020-10-28T14:23:25.000Z</time>
      </trkpt>
      <trkpt lat="46.48963" lon="5.37847">
        <ele>251</ele>
        <time>2020-10-28T14:23:28.000Z</time>
      </trkpt>
      <trkpt lat="46.48943" lon="5.37782">
        <ele>250.39999389648</ele>
        <time>2020-10-28T14:23:34.000Z</time>
      </trkpt>
      <trkpt lat="46.48921" lon="5.3771">
        <ele>250</ele>
        <time>2020-10-28T14:23:41.000Z</time>
      </trkpt>
      <trkpt lat="46.48918" lon="5.37701">
        <ele>250</ele>
        <time>2020-10-28T14:23:42.000Z</time>
      </trkpt>
      <trkpt lat="46.48908" lon="5.37665">
        <ele>250.19999694824</ele>
        <time>2020-10-28T14:23:46.000Z</time>
      </trkpt>
      <trkpt lat="46.48902" lon="5.3765">
        <ele>250.19999694824</ele>
        <time>2020-10-28T14:23:48.000Z</time>
      </trkpt>
      <trkpt lat="46.48893" lon="5.37629">
        <ele>250.80000305176</ele>
        <time>2020-10-28T14:23:51.000Z</time>
      </trkpt>
      <trkpt lat="46.48877" lon="5.37624">
        <ele>252</ele>
        <time>2020-10-28T14:23:54.000Z</time>
      </trkpt>
      <trkpt lat="46.48872" lon="5.37624">
        <ele>252.19999694824</ele>
        <time>2020-10-28T14:23:55.000Z</time>
      </trkpt>
      <trkpt lat="46.48864" lon="5.37618">
        <ele>252.39999389648</ele>
        <time>2020-10-28T14:23:57.000Z</time>
      </trkpt>
      <trkpt lat="46.48859" lon="5.376">
        <ele>252.60000610352</ele>
        <time>2020-10-28T14:24:00.000Z</time>
      </trkpt>
      <trkpt lat="46.48854" lon="5.37579">
        <ele>253.39999389648</ele>
        <time>2020-10-28T14:24:03.000Z</time>
      </trkpt>
      <trkpt lat="46.48848" lon="5.37559">
        <ele>254.60000610352</ele>
        <time>2020-10-28T14:24:06.000Z</time>
      </trkpt>
      <trkpt lat="46.48846" lon="5.37552">
        <ele>254.80000305176</ele>
        <time>2020-10-28T14:24:07.000Z</time>
      </trkpt>
      <trkpt lat="46.48833" lon="5.37524">
        <ele>255.39999389648</ele>
        <time>2020-10-28T14:24:11.000Z</time>
      </trkpt>
      <trkpt lat="46.48826" lon="5.37512">
        <ele>255.39999389648</ele>
        <time>2020-10-28T14:24:13.000Z</time>
      </trkpt>
      <trkpt lat="46.48822" lon="5.37507">
        <ele>255.60000610352</ele>
        <time>2020-10-28T14:24:14.000Z</time>
      </trkpt>
      <trkpt lat="46.48791" lon="5.37462">
        <ele>256.79998779297</ele>
        <time>2020-10-28T14:24:22.000Z</time>
      </trkpt>
      <trkpt lat="46.48758" lon="5.37415">
        <ele>257.20001220703</ele>
        <time>2020-10-28T14:24:29.000Z</time>
      </trkpt>
      <trkpt lat="46.48717" lon="5.37354">
        <ele>255.60000610352</ele>
        <time>2020-10-28T14:24:37.000Z</time>
      </trkpt>
      <trkpt lat="46.48706" lon="5.3734">
        <ele>255.39999389648</ele>
        <time>2020-10-28T14:24:39.000Z</time>
      </trkpt>
      <trkpt lat="46.48674" lon="5.37296">
        <ele>254.60000610352</ele>
        <time>2020-10-28T14:24:45.000Z</time>
      </trkpt>
      <trkpt lat="46.48664" lon="5.37283">
        <ele>254.60000610352</ele>
        <time>2020-10-28T14:24:47.000Z</time>
      </trkpt>
    </trkseg>
  </trk>
</gpx>